<?xml version="1.0" encoding="UTF-8" standalone="no" ?>
<gpx xmlns="http://www.topografix.com/GPX/1/1" xmlns:xsi="http://www.w3.org/2001/XMLSchema-instance" xsi:schemaLocation="http://www.topografix.com/GPX/1/1 http://www.topografix.com/GPX/1/1/gpx.xsd" version="1.1" creator="VisuGPX - https://www.visugpx.com">
  <metadata>
    <name>83-D-Bras               </name>
    <desc><![CDATA[83-D-Bras : barre de Travet                      ]]></desc>
  </metadata>
  <trk>
    <name><![CDATA[2018-02-11-D-bras]]></name>
    <desc><![CDATA[comment ...]]></desc>
    <trkseg>
      <trkpt lat="43.46712" lon="5.96226">
        <ele>290</ele>
        <time>2018-02-11T07:50:00Z</time>
      </trkpt>
      <trkpt lat="43.46712" lon="5.96226">
        <ele>290</ele>
        <time>2018-02-11T07:50:01Z</time>
      </trkpt>
      <trkpt lat="43.46706" lon="5.96233">
        <ele>294</ele>
        <time>2018-02-11T07:53:43Z</time>
      </trkpt>
      <trkpt lat="43.46699" lon="5.9624">
        <ele>294</ele>
        <time>2018-02-11T07:54:09Z</time>
      </trkpt>
      <trkpt lat="43.4669" lon="5.96261">
        <ele>293</ele>
        <time>2018-02-11T07:54:24Z</time>
      </trkpt>
      <trkpt lat="43.46682" lon="5.96272">
        <ele>292</ele>
        <time>2018-02-11T07:54:35Z</time>
      </trkpt>
      <trkpt lat="43.46676" lon="5.96284">
        <ele>293</ele>
        <time>2018-02-11T07:54:44Z</time>
      </trkpt>
      <trkpt lat="43.46672" lon="5.96288">
        <ele>293</ele>
        <time>2018-02-11T07:54:47Z</time>
      </trkpt>
      <trkpt lat="43.46671" lon="5.96293">
        <ele>293</ele>
        <time>2018-02-11T07:54:53Z</time>
      </trkpt>
      <trkpt lat="43.46693" lon="5.96308">
        <ele>294</ele>
        <time>2018-02-11T07:55:15Z</time>
      </trkpt>
      <trkpt lat="43.46702" lon="5.96319">
        <ele>294</ele>
        <time>2018-02-11T07:55:27Z</time>
      </trkpt>
      <trkpt lat="43.46704" lon="5.96325">
        <ele>294</ele>
        <time>2018-02-11T07:55:34Z</time>
      </trkpt>
      <trkpt lat="43.46707" lon="5.96332">
        <ele>294</ele>
        <time>2018-02-11T07:55:42Z</time>
      </trkpt>
      <trkpt lat="43.46702" lon="5.96347">
        <ele>295</ele>
        <time>2018-02-11T07:56:00Z</time>
      </trkpt>
      <trkpt lat="43.46698" lon="5.96368">
        <ele>298</ele>
        <time>2018-02-11T07:56:21Z</time>
      </trkpt>
      <trkpt lat="43.46697" lon="5.96376">
        <ele>299</ele>
        <time>2018-02-11T07:56:30Z</time>
      </trkpt>
      <trkpt lat="43.46694" lon="5.9638">
        <ele>300</ele>
        <time>2018-02-11T07:56:35Z</time>
      </trkpt>
      <trkpt lat="43.46692" lon="5.96388">
        <ele>300</ele>
        <time>2018-02-11T07:56:42Z</time>
      </trkpt>
      <trkpt lat="43.46689" lon="5.96396">
        <ele>302</ele>
        <time>2018-02-11T07:56:50Z</time>
      </trkpt>
      <trkpt lat="43.46687" lon="5.96404">
        <ele>302</ele>
        <time>2018-02-11T07:56:56Z</time>
      </trkpt>
      <trkpt lat="43.46685" lon="5.96411">
        <ele>304</ele>
        <time>2018-02-11T07:57:02Z</time>
      </trkpt>
      <trkpt lat="43.46678" lon="5.96425">
        <ele>305</ele>
        <time>2018-02-11T07:57:14Z</time>
      </trkpt>
      <trkpt lat="43.4667" lon="5.96437">
        <ele>307</ele>
        <time>2018-02-11T07:57:26Z</time>
      </trkpt>
      <trkpt lat="43.46667" lon="5.96443">
        <ele>308</ele>
        <time>2018-02-11T07:57:31Z</time>
      </trkpt>
      <trkpt lat="43.46662" lon="5.96447">
        <ele>309</ele>
        <time>2018-02-11T07:57:39Z</time>
      </trkpt>
      <trkpt lat="43.46659" lon="5.96454">
        <ele>310</ele>
        <time>2018-02-11T07:57:45Z</time>
      </trkpt>
      <trkpt lat="43.46656" lon="5.96458">
        <ele>310</ele>
        <time>2018-02-11T07:57:48Z</time>
      </trkpt>
      <trkpt lat="43.46651" lon="5.9646">
        <ele>311</ele>
        <time>2018-02-11T07:57:53Z</time>
      </trkpt>
      <trkpt lat="43.46637" lon="5.96475">
        <ele>312</ele>
        <time>2018-02-11T07:58:16Z</time>
      </trkpt>
      <trkpt lat="43.46628" lon="5.96492">
        <ele>313</ele>
        <time>2018-02-11T07:58:29Z</time>
      </trkpt>
      <trkpt lat="43.46629" lon="5.96502">
        <ele>313</ele>
        <time>2018-02-11T07:58:36Z</time>
      </trkpt>
      <trkpt lat="43.46627" lon="5.96509">
        <ele>314</ele>
        <time>2018-02-11T07:58:42Z</time>
      </trkpt>
      <trkpt lat="43.46625" lon="5.96519">
        <ele>314</ele>
        <time>2018-02-11T07:58:48Z</time>
      </trkpt>
      <trkpt lat="43.46623" lon="5.96526">
        <ele>316</ele>
        <time>2018-02-11T07:58:54Z</time>
      </trkpt>
      <trkpt lat="43.46613" lon="5.96544">
        <ele>319</ele>
        <time>2018-02-11T07:59:15Z</time>
      </trkpt>
      <trkpt lat="43.46619" lon="5.96543">
        <ele>320</ele>
        <time>2018-02-11T08:00:04Z</time>
      </trkpt>
      <trkpt lat="43.46619" lon="5.96551">
        <ele>321</ele>
        <time>2018-02-11T08:00:20Z</time>
      </trkpt>
      <trkpt lat="43.46615" lon="5.96556">
        <ele>323</ele>
        <time>2018-02-11T08:00:40Z</time>
      </trkpt>
      <trkpt lat="43.46615" lon="5.96564">
        <ele>323</ele>
        <time>2018-02-11T08:00:46Z</time>
      </trkpt>
      <trkpt lat="43.46617" lon="5.96572">
        <ele>325</ele>
        <time>2018-02-11T08:01:02Z</time>
      </trkpt>
      <trkpt lat="43.46625" lon="5.96583">
        <ele>327</ele>
        <time>2018-02-11T08:01:18Z</time>
      </trkpt>
      <trkpt lat="43.46629" lon="5.96588">
        <ele>328</ele>
        <time>2018-02-11T08:01:28Z</time>
      </trkpt>
      <trkpt lat="43.46633" lon="5.96594">
        <ele>329</ele>
        <time>2018-02-11T08:01:40Z</time>
      </trkpt>
      <trkpt lat="43.46635" lon="5.96601">
        <ele>331</ele>
        <time>2018-02-11T08:01:48Z</time>
      </trkpt>
      <trkpt lat="43.46637" lon="5.96609">
        <ele>333</ele>
        <time>2018-02-11T08:02:00Z</time>
      </trkpt>
      <trkpt lat="43.4665" lon="5.96626">
        <ele>337</ele>
        <time>2018-02-11T08:02:27Z</time>
      </trkpt>
      <trkpt lat="43.4665" lon="5.96635">
        <ele>338</ele>
        <time>2018-02-11T08:02:41Z</time>
      </trkpt>
      <trkpt lat="43.46654" lon="5.96639">
        <ele>339</ele>
        <time>2018-02-11T08:02:48Z</time>
      </trkpt>
      <trkpt lat="43.46658" lon="5.96645">
        <ele>340</ele>
        <time>2018-02-11T08:02:55Z</time>
      </trkpt>
      <trkpt lat="43.4666" lon="5.96649">
        <ele>342</ele>
        <time>2018-02-11T08:03:03Z</time>
      </trkpt>
      <trkpt lat="43.46662" lon="5.96657">
        <ele>343</ele>
        <time>2018-02-11T08:03:12Z</time>
      </trkpt>
      <trkpt lat="43.46666" lon="5.9666">
        <ele>345</ele>
        <time>2018-02-11T08:03:17Z</time>
      </trkpt>
      <trkpt lat="43.46671" lon="5.96661">
        <ele>346</ele>
        <time>2018-02-11T08:03:28Z</time>
      </trkpt>
      <trkpt lat="43.46674" lon="5.96668">
        <ele>346</ele>
        <time>2018-02-11T08:03:37Z</time>
      </trkpt>
      <trkpt lat="43.46679" lon="5.96671">
        <ele>348</ele>
        <time>2018-02-11T08:03:45Z</time>
      </trkpt>
      <trkpt lat="43.46684" lon="5.96694">
        <ele>351</ele>
        <time>2018-02-11T08:04:24Z</time>
      </trkpt>
      <trkpt lat="43.46687" lon="5.96701">
        <ele>351</ele>
        <time>2018-02-11T08:04:31Z</time>
      </trkpt>
      <trkpt lat="43.46688" lon="5.96709">
        <ele>352</ele>
        <time>2018-02-11T08:04:40Z</time>
      </trkpt>
      <trkpt lat="43.46689" lon="5.96717">
        <ele>352</ele>
        <time>2018-02-11T08:04:51Z</time>
      </trkpt>
      <trkpt lat="43.46691" lon="5.96724">
        <ele>352</ele>
        <time>2018-02-11T08:05:01Z</time>
      </trkpt>
      <trkpt lat="43.46694" lon="5.96732">
        <ele>353</ele>
        <time>2018-02-11T08:05:10Z</time>
      </trkpt>
      <trkpt lat="43.46695" lon="5.9674">
        <ele>353</ele>
        <time>2018-02-11T08:05:17Z</time>
      </trkpt>
      <trkpt lat="43.46698" lon="5.96746">
        <ele>354</ele>
        <time>2018-02-11T08:05:25Z</time>
      </trkpt>
      <trkpt lat="43.46702" lon="5.96752">
        <ele>355</ele>
        <time>2018-02-11T08:05:34Z</time>
      </trkpt>
      <trkpt lat="43.46705" lon="5.96759">
        <ele>357</ele>
        <time>2018-02-11T08:05:48Z</time>
      </trkpt>
      <trkpt lat="43.46706" lon="5.96767">
        <ele>358</ele>
        <time>2018-02-11T08:05:57Z</time>
      </trkpt>
      <trkpt lat="43.46708" lon="5.96772">
        <ele>359</ele>
        <time>2018-02-11T08:06:03Z</time>
      </trkpt>
      <trkpt lat="43.46714" lon="5.96785">
        <ele>361</ele>
        <time>2018-02-11T08:06:19Z</time>
      </trkpt>
      <trkpt lat="43.46716" lon="5.96793">
        <ele>363</ele>
        <time>2018-02-11T08:06:27Z</time>
      </trkpt>
      <trkpt lat="43.4672" lon="5.96799">
        <ele>364</ele>
        <time>2018-02-11T08:06:37Z</time>
      </trkpt>
      <trkpt lat="43.46722" lon="5.96806">
        <ele>366</ele>
        <time>2018-02-11T08:06:46Z</time>
      </trkpt>
      <trkpt lat="43.46724" lon="5.96814">
        <ele>366</ele>
        <time>2018-02-11T08:06:52Z</time>
      </trkpt>
      <trkpt lat="43.46726" lon="5.96821">
        <ele>367</ele>
        <time>2018-02-11T08:07:02Z</time>
      </trkpt>
      <trkpt lat="43.46731" lon="5.96825">
        <ele>367</ele>
        <time>2018-02-11T08:07:14Z</time>
      </trkpt>
      <trkpt lat="43.46729" lon="5.96827">
        <ele>369</ele>
        <time>2018-02-11T08:09:37Z</time>
      </trkpt>
      <trkpt lat="43.46723" lon="5.96826">
        <ele>370</ele>
        <time>2018-02-11T08:09:46Z</time>
      </trkpt>
      <trkpt lat="43.46717" lon="5.9683">
        <ele>370</ele>
        <time>2018-02-11T08:09:54Z</time>
      </trkpt>
      <trkpt lat="43.46714" lon="5.96835">
        <ele>371</ele>
        <time>2018-02-11T08:10:06Z</time>
      </trkpt>
      <trkpt lat="43.46712" lon="5.9684">
        <ele>372</ele>
        <time>2018-02-11T08:10:12Z</time>
      </trkpt>
      <trkpt lat="43.46708" lon="5.96844">
        <ele>372</ele>
        <time>2018-02-11T08:10:24Z</time>
      </trkpt>
      <trkpt lat="43.46704" lon="5.9685">
        <ele>373</ele>
        <time>2018-02-11T08:10:34Z</time>
      </trkpt>
      <trkpt lat="43.467" lon="5.96853">
        <ele>373</ele>
        <time>2018-02-11T08:10:45Z</time>
      </trkpt>
      <trkpt lat="43.46695" lon="5.96855">
        <ele>375</ele>
        <time>2018-02-11T08:11:01Z</time>
      </trkpt>
      <trkpt lat="43.46691" lon="5.96861">
        <ele>375</ele>
        <time>2018-02-11T08:11:07Z</time>
      </trkpt>
      <trkpt lat="43.46691" lon="5.96869">
        <ele>376</ele>
        <time>2018-02-11T08:11:13Z</time>
      </trkpt>
      <trkpt lat="43.46689" lon="5.96877">
        <ele>377</ele>
        <time>2018-02-11T08:11:22Z</time>
      </trkpt>
      <trkpt lat="43.46685" lon="5.96881">
        <ele>378</ele>
        <time>2018-02-11T08:11:29Z</time>
      </trkpt>
      <trkpt lat="43.46679" lon="5.96883">
        <ele>378</ele>
        <time>2018-02-11T08:11:39Z</time>
      </trkpt>
      <trkpt lat="43.4668" lon="5.9689">
        <ele>381</ele>
        <time>2018-02-11T08:11:47Z</time>
      </trkpt>
      <trkpt lat="43.46679" lon="5.96897">
        <ele>382</ele>
        <time>2018-02-11T08:11:54Z</time>
      </trkpt>
      <trkpt lat="43.46675" lon="5.96901">
        <ele>383</ele>
        <time>2018-02-11T08:12:04Z</time>
      </trkpt>
      <trkpt lat="43.46676" lon="5.96906">
        <ele>384</ele>
        <time>2018-02-11T08:12:12Z</time>
      </trkpt>
      <trkpt lat="43.46677" lon="5.96914">
        <ele>385</ele>
        <time>2018-02-11T08:12:21Z</time>
      </trkpt>
      <trkpt lat="43.46674" lon="5.96919">
        <ele>385</ele>
        <time>2018-02-11T08:12:26Z</time>
      </trkpt>
      <trkpt lat="43.46673" lon="5.96926">
        <ele>386</ele>
        <time>2018-02-11T08:12:33Z</time>
      </trkpt>
      <trkpt lat="43.46673" lon="5.96934">
        <ele>387</ele>
        <time>2018-02-11T08:12:42Z</time>
      </trkpt>
      <trkpt lat="43.46668" lon="5.96939">
        <ele>388</ele>
        <time>2018-02-11T08:12:52Z</time>
      </trkpt>
      <trkpt lat="43.46663" lon="5.96941">
        <ele>390</ele>
        <time>2018-02-11T08:13:07Z</time>
      </trkpt>
      <trkpt lat="43.46659" lon="5.96946">
        <ele>391</ele>
        <time>2018-02-11T08:13:14Z</time>
      </trkpt>
      <trkpt lat="43.46655" lon="5.96952">
        <ele>392</ele>
        <time>2018-02-11T08:13:19Z</time>
      </trkpt>
      <trkpt lat="43.46652" lon="5.96958">
        <ele>393</ele>
        <time>2018-02-11T08:13:31Z</time>
      </trkpt>
      <trkpt lat="43.46655" lon="5.96965">
        <ele>394</ele>
        <time>2018-02-11T08:13:39Z</time>
      </trkpt>
      <trkpt lat="43.46658" lon="5.96974">
        <ele>394</ele>
        <time>2018-02-11T08:13:45Z</time>
      </trkpt>
      <trkpt lat="43.46655" lon="5.9698">
        <ele>395</ele>
        <time>2018-02-11T08:13:51Z</time>
      </trkpt>
      <trkpt lat="43.46646" lon="5.96995">
        <ele>396</ele>
        <time>2018-02-11T08:14:14Z</time>
      </trkpt>
      <trkpt lat="43.4664" lon="5.97009">
        <ele>398</ele>
        <time>2018-02-11T08:14:29Z</time>
      </trkpt>
      <trkpt lat="43.46638" lon="5.97016">
        <ele>399</ele>
        <time>2018-02-11T08:14:38Z</time>
      </trkpt>
      <trkpt lat="43.46633" lon="5.97037">
        <ele>402</ele>
        <time>2018-02-11T08:14:59Z</time>
      </trkpt>
      <trkpt lat="43.46629" lon="5.97041">
        <ele>403</ele>
        <time>2018-02-11T08:15:05Z</time>
      </trkpt>
      <trkpt lat="43.46623" lon="5.9704">
        <ele>403</ele>
        <time>2018-02-11T08:15:15Z</time>
      </trkpt>
      <trkpt lat="43.4662" lon="5.97043">
        <ele>407</ele>
        <time>2018-02-11T08:16:43Z</time>
      </trkpt>
      <trkpt lat="43.46618" lon="5.97047">
        <ele>407</ele>
        <time>2018-02-11T08:18:57Z</time>
      </trkpt>
      <trkpt lat="43.46615" lon="5.97053">
        <ele>407</ele>
        <time>2018-02-11T08:19:50Z</time>
      </trkpt>
      <trkpt lat="43.46607" lon="5.97062">
        <ele>406</ele>
        <time>2018-02-11T08:20:01Z</time>
      </trkpt>
      <trkpt lat="43.46602" lon="5.97064">
        <ele>407</ele>
        <time>2018-02-11T08:20:07Z</time>
      </trkpt>
      <trkpt lat="43.46598" lon="5.9707">
        <ele>407</ele>
        <time>2018-02-11T08:20:17Z</time>
      </trkpt>
      <trkpt lat="43.46598" lon="5.97075">
        <ele>408</ele>
        <time>2018-02-11T08:20:45Z</time>
      </trkpt>
      <trkpt lat="43.46599" lon="5.97084">
        <ele>408</ele>
        <time>2018-02-11T08:21:19Z</time>
      </trkpt>
      <trkpt lat="43.466" lon="5.97092">
        <ele>408</ele>
        <time>2018-02-11T08:21:27Z</time>
      </trkpt>
      <trkpt lat="43.466" lon="5.97098">
        <ele>407</ele>
        <time>2018-02-11T08:21:34Z</time>
      </trkpt>
      <trkpt lat="43.46602" lon="5.97113">
        <ele>408</ele>
        <time>2018-02-11T08:21:52Z</time>
      </trkpt>
      <trkpt lat="43.46602" lon="5.97119">
        <ele>409</ele>
        <time>2018-02-11T08:22:00Z</time>
      </trkpt>
      <trkpt lat="43.46603" lon="5.97125">
        <ele>410</ele>
        <time>2018-02-11T08:22:12Z</time>
      </trkpt>
      <trkpt lat="43.466" lon="5.97131">
        <ele>410</ele>
        <time>2018-02-11T08:22:20Z</time>
      </trkpt>
      <trkpt lat="43.46602" lon="5.97139">
        <ele>412</ele>
        <time>2018-02-11T08:22:30Z</time>
      </trkpt>
      <trkpt lat="43.46603" lon="5.97147">
        <ele>413</ele>
        <time>2018-02-11T08:22:40Z</time>
      </trkpt>
      <trkpt lat="43.46607" lon="5.97158">
        <ele>414</ele>
        <time>2018-02-11T08:22:58Z</time>
      </trkpt>
      <trkpt lat="43.4661" lon="5.97161">
        <ele>415</ele>
        <time>2018-02-11T08:23:07Z</time>
      </trkpt>
      <trkpt lat="43.46611" lon="5.97166">
        <ele>416</ele>
        <time>2018-02-11T08:23:16Z</time>
      </trkpt>
      <trkpt lat="43.4662" lon="5.97181">
        <ele>419</ele>
        <time>2018-02-11T08:23:42Z</time>
      </trkpt>
      <trkpt lat="43.4662" lon="5.97186">
        <ele>421</ele>
        <time>2018-02-11T08:23:53Z</time>
      </trkpt>
      <trkpt lat="43.46625" lon="5.97191">
        <ele>421</ele>
        <time>2018-02-11T08:24:07Z</time>
      </trkpt>
      <trkpt lat="43.46627" lon="5.97196">
        <ele>423</ele>
        <time>2018-02-11T08:24:19Z</time>
      </trkpt>
      <trkpt lat="43.46625" lon="5.97209">
        <ele>424</ele>
        <time>2018-02-11T08:24:37Z</time>
      </trkpt>
      <trkpt lat="43.46625" lon="5.97217">
        <ele>426</ele>
        <time>2018-02-11T08:24:52Z</time>
      </trkpt>
      <trkpt lat="43.46632" lon="5.97228">
        <ele>427</ele>
        <time>2018-02-11T08:25:06Z</time>
      </trkpt>
      <trkpt lat="43.46635" lon="5.97231">
        <ele>428</ele>
        <time>2018-02-11T08:25:14Z</time>
      </trkpt>
      <trkpt lat="43.46637" lon="5.97236">
        <ele>429</ele>
        <time>2018-02-11T08:25:24Z</time>
      </trkpt>
      <trkpt lat="43.46634" lon="5.97239">
        <ele>430</ele>
        <time>2018-02-11T08:25:32Z</time>
      </trkpt>
      <trkpt lat="43.46633" lon="5.97244">
        <ele>431</ele>
        <time>2018-02-11T08:25:39Z</time>
      </trkpt>
      <trkpt lat="43.46635" lon="5.97256">
        <ele>433</ele>
        <time>2018-02-11T08:25:53Z</time>
      </trkpt>
      <trkpt lat="43.46637" lon="5.97261">
        <ele>434</ele>
        <time>2018-02-11T08:26:03Z</time>
      </trkpt>
      <trkpt lat="43.46639" lon="5.97266">
        <ele>435</ele>
        <time>2018-02-11T08:26:12Z</time>
      </trkpt>
      <trkpt lat="43.46641" lon="5.97271">
        <ele>436</ele>
        <time>2018-02-11T08:26:24Z</time>
      </trkpt>
      <trkpt lat="43.46642" lon="5.97276">
        <ele>437</ele>
        <time>2018-02-11T08:26:32Z</time>
      </trkpt>
      <trkpt lat="43.46645" lon="5.97288">
        <ele>438</ele>
        <time>2018-02-11T08:26:49Z</time>
      </trkpt>
      <trkpt lat="43.46648" lon="5.9729">
        <ele>440</ele>
        <time>2018-02-11T08:26:57Z</time>
      </trkpt>
      <trkpt lat="43.46653" lon="5.97295">
        <ele>442</ele>
        <time>2018-02-11T08:27:14Z</time>
      </trkpt>
      <trkpt lat="43.46653" lon="5.97299">
        <ele>444</ele>
        <time>2018-02-11T08:27:42Z</time>
      </trkpt>
      <trkpt lat="43.46655" lon="5.97298">
        <ele>447</ele>
        <time>2018-02-11T08:29:14Z</time>
      </trkpt>
      <trkpt lat="43.46658" lon="5.97301">
        <ele>449</ele>
        <time>2018-02-11T08:31:24Z</time>
      </trkpt>
      <trkpt lat="43.46661" lon="5.973">
        <ele>452</ele>
        <time>2018-02-11T08:33:15Z</time>
      </trkpt>
      <trkpt lat="43.46665" lon="5.97303">
        <ele>452</ele>
        <time>2018-02-11T08:34:00Z</time>
      </trkpt>
      <trkpt lat="43.46669" lon="5.97308">
        <ele>449</ele>
        <time>2018-02-11T08:34:43Z</time>
      </trkpt>
      <trkpt lat="43.46671" lon="5.97316">
        <ele>451</ele>
        <time>2018-02-11T08:34:57Z</time>
      </trkpt>
      <trkpt lat="43.46671" lon="5.97322">
        <ele>451</ele>
        <time>2018-02-11T08:35:05Z</time>
      </trkpt>
      <trkpt lat="43.4667" lon="5.9733">
        <ele>452</ele>
        <time>2018-02-11T08:35:13Z</time>
      </trkpt>
      <trkpt lat="43.46671" lon="5.97336">
        <ele>453</ele>
        <time>2018-02-11T08:35:19Z</time>
      </trkpt>
      <trkpt lat="43.46673" lon="5.97341">
        <ele>453</ele>
        <time>2018-02-11T08:35:23Z</time>
      </trkpt>
      <trkpt lat="43.46673" lon="5.97346">
        <ele>454</ele>
        <time>2018-02-11T08:35:31Z</time>
      </trkpt>
      <trkpt lat="43.46671" lon="5.97352">
        <ele>454</ele>
        <time>2018-02-11T08:35:39Z</time>
      </trkpt>
      <trkpt lat="43.4667" lon="5.97357">
        <ele>455</ele>
        <time>2018-02-11T08:35:45Z</time>
      </trkpt>
      <trkpt lat="43.46673" lon="5.97362">
        <ele>456</ele>
        <time>2018-02-11T08:35:52Z</time>
      </trkpt>
      <trkpt lat="43.46674" lon="5.97372">
        <ele>457</ele>
        <time>2018-02-11T08:36:02Z</time>
      </trkpt>
      <trkpt lat="43.46681" lon="5.97381">
        <ele>458</ele>
        <time>2018-02-11T08:36:17Z</time>
      </trkpt>
      <trkpt lat="43.4668" lon="5.97387">
        <ele>459</ele>
        <time>2018-02-11T08:36:23Z</time>
      </trkpt>
      <trkpt lat="43.46681" lon="5.97391">
        <ele>460</ele>
        <time>2018-02-11T08:36:29Z</time>
      </trkpt>
      <trkpt lat="43.46685" lon="5.97406">
        <ele>461</ele>
        <time>2018-02-11T08:36:44Z</time>
      </trkpt>
      <trkpt lat="43.46687" lon="5.97413">
        <ele>462</ele>
        <time>2018-02-11T08:36:54Z</time>
      </trkpt>
      <trkpt lat="43.46691" lon="5.97418">
        <ele>463</ele>
        <time>2018-02-11T08:37:05Z</time>
      </trkpt>
      <trkpt lat="43.46693" lon="5.97425">
        <ele>465</ele>
        <time>2018-02-11T08:37:22Z</time>
      </trkpt>
      <trkpt lat="43.46694" lon="5.9743">
        <ele>467</ele>
        <time>2018-02-11T08:37:29Z</time>
      </trkpt>
      <trkpt lat="43.46699" lon="5.97438">
        <ele>468</ele>
        <time>2018-02-11T08:37:45Z</time>
      </trkpt>
      <trkpt lat="43.46702" lon="5.97442">
        <ele>469</ele>
        <time>2018-02-11T08:37:57Z</time>
      </trkpt>
      <trkpt lat="43.46705" lon="5.97448">
        <ele>470</ele>
        <time>2018-02-11T08:38:11Z</time>
      </trkpt>
      <trkpt lat="43.46707" lon="5.97455">
        <ele>472</ele>
        <time>2018-02-11T08:38:23Z</time>
      </trkpt>
      <trkpt lat="43.46712" lon="5.97472">
        <ele>475</ele>
        <time>2018-02-11T08:39:03Z</time>
      </trkpt>
      <trkpt lat="43.46716" lon="5.97474">
        <ele>477</ele>
        <time>2018-02-11T08:39:12Z</time>
      </trkpt>
      <trkpt lat="43.4672" lon="5.9748">
        <ele>477</ele>
        <time>2018-02-11T08:39:20Z</time>
      </trkpt>
      <trkpt lat="43.46721" lon="5.97493">
        <ele>479</ele>
        <time>2018-02-11T08:39:47Z</time>
      </trkpt>
      <trkpt lat="43.46722" lon="5.975">
        <ele>481</ele>
        <time>2018-02-11T08:40:02Z</time>
      </trkpt>
      <trkpt lat="43.46726" lon="5.97502">
        <ele>482</ele>
        <time>2018-02-11T08:40:08Z</time>
      </trkpt>
      <trkpt lat="43.46724" lon="5.97508">
        <ele>483</ele>
        <time>2018-02-11T08:40:33Z</time>
      </trkpt>
      <trkpt lat="43.46724" lon="5.97516">
        <ele>485</ele>
        <time>2018-02-11T08:40:43Z</time>
      </trkpt>
      <trkpt lat="43.46726" lon="5.9752">
        <ele>487</ele>
        <time>2018-02-11T08:40:54Z</time>
      </trkpt>
      <trkpt lat="43.46725" lon="5.97525">
        <ele>488</ele>
        <time>2018-02-11T08:41:22Z</time>
      </trkpt>
      <trkpt lat="43.46728" lon="5.97528">
        <ele>490</ele>
        <time>2018-02-11T08:41:26Z</time>
      </trkpt>
      <trkpt lat="43.4673" lon="5.97533">
        <ele>490</ele>
        <time>2018-02-11T08:41:33Z</time>
      </trkpt>
      <trkpt lat="43.46737" lon="5.97543">
        <ele>492</ele>
        <time>2018-02-11T08:41:51Z</time>
      </trkpt>
      <trkpt lat="43.4674" lon="5.9755">
        <ele>494</ele>
        <time>2018-02-11T08:42:00Z</time>
      </trkpt>
      <trkpt lat="43.46743" lon="5.97553">
        <ele>494</ele>
        <time>2018-02-11T08:42:07Z</time>
      </trkpt>
      <trkpt lat="43.46749" lon="5.97554">
        <ele>495</ele>
        <time>2018-02-11T08:42:16Z</time>
      </trkpt>
      <trkpt lat="43.46752" lon="5.97564">
        <ele>497</ele>
        <time>2018-02-11T08:42:35Z</time>
      </trkpt>
      <trkpt lat="43.46757" lon="5.97566">
        <ele>499</ele>
        <time>2018-02-11T08:42:45Z</time>
      </trkpt>
      <trkpt lat="43.46757" lon="5.97573">
        <ele>500</ele>
        <time>2018-02-11T08:42:54Z</time>
      </trkpt>
      <trkpt lat="43.46755" lon="5.97583">
        <ele>502</ele>
        <time>2018-02-11T08:43:11Z</time>
      </trkpt>
      <trkpt lat="43.46757" lon="5.97588">
        <ele>504</ele>
        <time>2018-02-11T08:43:19Z</time>
      </trkpt>
      <trkpt lat="43.4676" lon="5.97597">
        <ele>506</ele>
        <time>2018-02-11T08:43:33Z</time>
      </trkpt>
      <trkpt lat="43.46761" lon="5.97602">
        <ele>507</ele>
        <time>2018-02-11T08:43:38Z</time>
      </trkpt>
      <trkpt lat="43.46762" lon="5.97608">
        <ele>509</ele>
        <time>2018-02-11T08:43:51Z</time>
      </trkpt>
      <trkpt lat="43.46765" lon="5.97626">
        <ele>512</ele>
        <time>2018-02-11T08:44:21Z</time>
      </trkpt>
      <trkpt lat="43.46767" lon="5.97633">
        <ele>513</ele>
        <time>2018-02-11T08:44:38Z</time>
      </trkpt>
      <trkpt lat="43.46766" lon="5.97634">
        <ele>518</ele>
        <time>2018-02-11T08:46:21Z</time>
      </trkpt>
      <trkpt lat="43.46767" lon="5.9764">
        <ele>520</ele>
        <time>2018-02-11T08:48:38Z</time>
      </trkpt>
      <trkpt lat="43.46769" lon="5.97638">
        <ele>522</ele>
        <time>2018-02-11T08:50:47Z</time>
      </trkpt>
      <trkpt lat="43.46773" lon="5.97639">
        <ele>524</ele>
        <time>2018-02-11T08:51:08Z</time>
      </trkpt>
      <trkpt lat="43.46777" lon="5.97644">
        <ele>523</ele>
        <time>2018-02-11T08:51:31Z</time>
      </trkpt>
      <trkpt lat="43.46778" lon="5.97651">
        <ele>523</ele>
        <time>2018-02-11T08:52:01Z</time>
      </trkpt>
      <trkpt lat="43.46781" lon="5.97655">
        <ele>523</ele>
        <time>2018-02-11T08:52:17Z</time>
      </trkpt>
      <trkpt lat="43.46784" lon="5.97662">
        <ele>523</ele>
        <time>2018-02-11T08:52:26Z</time>
      </trkpt>
      <trkpt lat="43.46788" lon="5.97678">
        <ele>523</ele>
        <time>2018-02-11T08:52:37Z</time>
      </trkpt>
      <trkpt lat="43.46798" lon="5.97687">
        <ele>524</ele>
        <time>2018-02-11T08:52:50Z</time>
      </trkpt>
      <trkpt lat="43.46802" lon="5.97694">
        <ele>525</ele>
        <time>2018-02-11T08:52:56Z</time>
      </trkpt>
      <trkpt lat="43.46802" lon="5.97702">
        <ele>526</ele>
        <time>2018-02-11T08:53:12Z</time>
      </trkpt>
      <trkpt lat="43.46806" lon="5.97708">
        <ele>526</ele>
        <time>2018-02-11T08:53:23Z</time>
      </trkpt>
      <trkpt lat="43.46811" lon="5.97713">
        <ele>528</ele>
        <time>2018-02-11T08:53:33Z</time>
      </trkpt>
      <trkpt lat="43.46816" lon="5.97717">
        <ele>530</ele>
        <time>2018-02-11T08:53:41Z</time>
      </trkpt>
      <trkpt lat="43.46822" lon="5.97725">
        <ele>532</ele>
        <time>2018-02-11T08:53:56Z</time>
      </trkpt>
      <trkpt lat="43.46827" lon="5.97746">
        <ele>535</ele>
        <time>2018-02-11T08:54:33Z</time>
      </trkpt>
      <trkpt lat="43.4683" lon="5.97749">
        <ele>536</ele>
        <time>2018-02-11T08:54:40Z</time>
      </trkpt>
      <trkpt lat="43.46834" lon="5.97755">
        <ele>536</ele>
        <time>2018-02-11T08:54:51Z</time>
      </trkpt>
      <trkpt lat="43.46835" lon="5.97761">
        <ele>538</ele>
        <time>2018-02-11T08:54:59Z</time>
      </trkpt>
      <trkpt lat="43.46835" lon="5.97768">
        <ele>539</ele>
        <time>2018-02-11T08:55:08Z</time>
      </trkpt>
      <trkpt lat="43.46836" lon="5.97776">
        <ele>540</ele>
        <time>2018-02-11T08:55:21Z</time>
      </trkpt>
      <trkpt lat="43.46833" lon="5.97779">
        <ele>543</ele>
        <time>2018-02-11T08:55:52Z</time>
      </trkpt>
      <trkpt lat="43.46836" lon="5.97786">
        <ele>544</ele>
        <time>2018-02-11T08:56:05Z</time>
      </trkpt>
      <trkpt lat="43.46839" lon="5.97791">
        <ele>544</ele>
        <time>2018-02-11T08:56:11Z</time>
      </trkpt>
      <trkpt lat="43.46844" lon="5.97797">
        <ele>543</ele>
        <time>2018-02-11T08:56:25Z</time>
      </trkpt>
      <trkpt lat="43.46845" lon="5.97807">
        <ele>542</ele>
        <time>2018-02-11T08:56:35Z</time>
      </trkpt>
      <trkpt lat="43.4685" lon="5.97811">
        <ele>542</ele>
        <time>2018-02-11T08:56:42Z</time>
      </trkpt>
      <trkpt lat="43.46853" lon="5.97817">
        <ele>542</ele>
        <time>2018-02-11T08:56:51Z</time>
      </trkpt>
      <trkpt lat="43.46858" lon="5.97822">
        <ele>541</ele>
        <time>2018-02-11T08:57:26Z</time>
      </trkpt>
      <trkpt lat="43.46857" lon="5.97828">
        <ele>542</ele>
        <time>2018-02-11T08:57:35Z</time>
      </trkpt>
      <trkpt lat="43.46856" lon="5.97832">
        <ele>542</ele>
        <time>2018-02-11T08:57:38Z</time>
      </trkpt>
      <trkpt lat="43.46855" lon="5.97839">
        <ele>542</ele>
        <time>2018-02-11T08:57:48Z</time>
      </trkpt>
      <trkpt lat="43.46859" lon="5.97845">
        <ele>542</ele>
        <time>2018-02-11T08:57:58Z</time>
      </trkpt>
      <trkpt lat="43.46863" lon="5.97848">
        <ele>542</ele>
        <time>2018-02-11T08:58:08Z</time>
      </trkpt>
      <trkpt lat="43.46871" lon="5.97857">
        <ele>542</ele>
        <time>2018-02-11T08:58:20Z</time>
      </trkpt>
      <trkpt lat="43.46874" lon="5.97863">
        <ele>542</ele>
        <time>2018-02-11T08:58:26Z</time>
      </trkpt>
      <trkpt lat="43.46878" lon="5.97867">
        <ele>543</ele>
        <time>2018-02-11T08:58:34Z</time>
      </trkpt>
      <trkpt lat="43.4688" lon="5.97874">
        <ele>543</ele>
        <time>2018-02-11T08:58:41Z</time>
      </trkpt>
      <trkpt lat="43.46884" lon="5.97889">
        <ele>544</ele>
        <time>2018-02-11T08:59:01Z</time>
      </trkpt>
      <trkpt lat="43.46886" lon="5.97896">
        <ele>545</ele>
        <time>2018-02-11T08:59:14Z</time>
      </trkpt>
      <trkpt lat="43.46891" lon="5.979">
        <ele>545</ele>
        <time>2018-02-11T08:59:24Z</time>
      </trkpt>
      <trkpt lat="43.46894" lon="5.97906">
        <ele>546</ele>
        <time>2018-02-11T08:59:42Z</time>
      </trkpt>
      <trkpt lat="43.46895" lon="5.97913">
        <ele>551</ele>
        <time>2018-02-11T09:00:23Z</time>
      </trkpt>
      <trkpt lat="43.46897" lon="5.97921">
        <ele>551</ele>
        <time>2018-02-11T09:00:33Z</time>
      </trkpt>
      <trkpt lat="43.46903" lon="5.97919">
        <ele>552</ele>
        <time>2018-02-11T09:00:41Z</time>
      </trkpt>
      <trkpt lat="43.46909" lon="5.97923">
        <ele>552</ele>
        <time>2018-02-11T09:00:47Z</time>
      </trkpt>
      <trkpt lat="43.46914" lon="5.97929">
        <ele>552</ele>
        <time>2018-02-11T09:00:53Z</time>
      </trkpt>
      <trkpt lat="43.46918" lon="5.97935">
        <ele>552</ele>
        <time>2018-02-11T09:00:59Z</time>
      </trkpt>
      <trkpt lat="43.46923" lon="5.97951">
        <ele>553</ele>
        <time>2018-02-11T09:01:13Z</time>
      </trkpt>
      <trkpt lat="43.46925" lon="5.97955">
        <ele>553</ele>
        <time>2018-02-11T09:01:18Z</time>
      </trkpt>
      <trkpt lat="43.4693" lon="5.97961">
        <ele>553</ele>
        <time>2018-02-11T09:01:23Z</time>
      </trkpt>
      <trkpt lat="43.46932" lon="5.97966">
        <ele>553</ele>
        <time>2018-02-11T09:01:29Z</time>
      </trkpt>
      <trkpt lat="43.46937" lon="5.9797">
        <ele>553</ele>
        <time>2018-02-11T09:01:37Z</time>
      </trkpt>
      <trkpt lat="43.46942" lon="5.97975">
        <ele>553</ele>
        <time>2018-02-11T09:01:43Z</time>
      </trkpt>
      <trkpt lat="43.46943" lon="5.97983">
        <ele>553</ele>
        <time>2018-02-11T09:01:49Z</time>
      </trkpt>
      <trkpt lat="43.46946" lon="5.97993">
        <ele>554</ele>
        <time>2018-02-11T09:01:56Z</time>
      </trkpt>
      <trkpt lat="43.46945" lon="5.98">
        <ele>554</ele>
        <time>2018-02-11T09:02:02Z</time>
      </trkpt>
      <trkpt lat="43.46947" lon="5.98009">
        <ele>554</ele>
        <time>2018-02-11T09:02:08Z</time>
      </trkpt>
      <trkpt lat="43.46953" lon="5.98023">
        <ele>555</ele>
        <time>2018-02-11T09:02:24Z</time>
      </trkpt>
      <trkpt lat="43.46949" lon="5.98027">
        <ele>555</ele>
        <time>2018-02-11T09:02:37Z</time>
      </trkpt>
      <trkpt lat="43.46948" lon="5.98032">
        <ele>555</ele>
        <time>2018-02-11T09:02:48Z</time>
      </trkpt>
      <trkpt lat="43.46951" lon="5.98038">
        <ele>556</ele>
        <time>2018-02-11T09:02:57Z</time>
      </trkpt>
      <trkpt lat="43.46952" lon="5.98047">
        <ele>557</ele>
        <time>2018-02-11T09:03:06Z</time>
      </trkpt>
      <trkpt lat="43.46957" lon="5.98052">
        <ele>557</ele>
        <time>2018-02-11T09:03:16Z</time>
      </trkpt>
      <trkpt lat="43.46962" lon="5.98057">
        <ele>557</ele>
        <time>2018-02-11T09:03:22Z</time>
      </trkpt>
      <trkpt lat="43.46965" lon="5.98071">
        <ele>559</ele>
        <time>2018-02-11T09:03:41Z</time>
      </trkpt>
      <trkpt lat="43.46966" lon="5.98076">
        <ele>559</ele>
        <time>2018-02-11T09:03:49Z</time>
      </trkpt>
      <trkpt lat="43.46969" lon="5.98083">
        <ele>559</ele>
        <time>2018-02-11T09:03:59Z</time>
      </trkpt>
      <trkpt lat="43.46971" lon="5.9809">
        <ele>559</ele>
        <time>2018-02-11T09:04:07Z</time>
      </trkpt>
      <trkpt lat="43.4697" lon="5.98095">
        <ele>559</ele>
        <time>2018-02-11T09:04:12Z</time>
      </trkpt>
      <trkpt lat="43.46968" lon="5.981">
        <ele>559</ele>
        <time>2018-02-11T09:04:18Z</time>
      </trkpt>
      <trkpt lat="43.46966" lon="5.98107">
        <ele>559</ele>
        <time>2018-02-11T09:04:38Z</time>
      </trkpt>
      <trkpt lat="43.46967" lon="5.98115">
        <ele>561</ele>
        <time>2018-02-11T09:04:44Z</time>
      </trkpt>
      <trkpt lat="43.46968" lon="5.9812">
        <ele>562</ele>
        <time>2018-02-11T09:04:49Z</time>
      </trkpt>
      <trkpt lat="43.46969" lon="5.98128">
        <ele>563</ele>
        <time>2018-02-11T09:05:03Z</time>
      </trkpt>
      <trkpt lat="43.46973" lon="5.98129">
        <ele>565</ele>
        <time>2018-02-11T09:05:23Z</time>
      </trkpt>
      <trkpt lat="43.46978" lon="5.98134">
        <ele>565</ele>
        <time>2018-02-11T09:05:41Z</time>
      </trkpt>
      <trkpt lat="43.46975" lon="5.98141">
        <ele>565</ele>
        <time>2018-02-11T09:05:53Z</time>
      </trkpt>
      <trkpt lat="43.46975" lon="5.98148">
        <ele>566</ele>
        <time>2018-02-11T09:06:07Z</time>
      </trkpt>
      <trkpt lat="43.46974" lon="5.98156">
        <ele>566</ele>
        <time>2018-02-11T09:06:19Z</time>
      </trkpt>
      <trkpt lat="43.46977" lon="5.98163">
        <ele>566</ele>
        <time>2018-02-11T09:06:34Z</time>
      </trkpt>
      <trkpt lat="43.4698" lon="5.98169">
        <ele>568</ele>
        <time>2018-02-11T09:06:49Z</time>
      </trkpt>
      <trkpt lat="43.46982" lon="5.98176">
        <ele>569</ele>
        <time>2018-02-11T09:07:00Z</time>
      </trkpt>
      <trkpt lat="43.46985" lon="5.98179">
        <ele>570</ele>
        <time>2018-02-11T09:07:06Z</time>
      </trkpt>
      <trkpt lat="43.46986" lon="5.98183">
        <ele>570</ele>
        <time>2018-02-11T09:07:13Z</time>
      </trkpt>
      <trkpt lat="43.46983" lon="5.98186">
        <ele>571</ele>
        <time>2018-02-11T09:07:25Z</time>
      </trkpt>
      <trkpt lat="43.46979" lon="5.98187">
        <ele>573</ele>
        <time>2018-02-11T09:07:32Z</time>
      </trkpt>
      <trkpt lat="43.4698" lon="5.98189">
        <ele>574</ele>
        <time>2018-02-11T09:08:36Z</time>
      </trkpt>
      <trkpt lat="43.46986" lon="5.98192">
        <ele>574</ele>
        <time>2018-02-11T09:08:42Z</time>
      </trkpt>
      <trkpt lat="43.46987" lon="5.98197">
        <ele>574</ele>
        <time>2018-02-11T09:08:48Z</time>
      </trkpt>
      <trkpt lat="43.46985" lon="5.98204">
        <ele>575</ele>
        <time>2018-02-11T09:09:21Z</time>
      </trkpt>
      <trkpt lat="43.46987" lon="5.9821">
        <ele>576</ele>
        <time>2018-02-11T09:09:30Z</time>
      </trkpt>
      <trkpt lat="43.46992" lon="5.98214">
        <ele>576</ele>
        <time>2018-02-11T09:09:38Z</time>
      </trkpt>
      <trkpt lat="43.46994" lon="5.98218">
        <ele>576</ele>
        <time>2018-02-11T09:09:43Z</time>
      </trkpt>
      <trkpt lat="43.46993" lon="5.98224">
        <ele>577</ele>
        <time>2018-02-11T09:10:08Z</time>
      </trkpt>
      <trkpt lat="43.46999" lon="5.98225">
        <ele>578</ele>
        <time>2018-02-11T09:12:30Z</time>
      </trkpt>
      <trkpt lat="43.47004" lon="5.98228">
        <ele>580</ele>
        <time>2018-02-11T09:12:39Z</time>
      </trkpt>
      <trkpt lat="43.47009" lon="5.98231">
        <ele>579</ele>
        <time>2018-02-11T09:14:29Z</time>
      </trkpt>
      <trkpt lat="43.4701" lon="5.98227">
        <ele>579</ele>
        <time>2018-02-11T09:14:54Z</time>
      </trkpt>
      <trkpt lat="43.47014" lon="5.98228">
        <ele>578</ele>
        <time>2018-02-11T09:15:08Z</time>
      </trkpt>
      <trkpt lat="43.47019" lon="5.98232">
        <ele>576</ele>
        <time>2018-02-11T09:15:30Z</time>
      </trkpt>
      <trkpt lat="43.47023" lon="5.98238">
        <ele>575</ele>
        <time>2018-02-11T09:15:45Z</time>
      </trkpt>
      <trkpt lat="43.47029" lon="5.98241">
        <ele>574</ele>
        <time>2018-02-11T09:15:55Z</time>
      </trkpt>
      <trkpt lat="43.47033" lon="5.98241">
        <ele>573</ele>
        <time>2018-02-11T09:16:03Z</time>
      </trkpt>
      <trkpt lat="43.47044" lon="5.98247">
        <ele>571</ele>
        <time>2018-02-11T09:16:19Z</time>
      </trkpt>
      <trkpt lat="43.47049" lon="5.98245">
        <ele>570</ele>
        <time>2018-02-11T09:16:31Z</time>
      </trkpt>
      <trkpt lat="43.47059" lon="5.98253">
        <ele>568</ele>
        <time>2018-02-11T09:16:50Z</time>
      </trkpt>
      <trkpt lat="43.47065" lon="5.98256">
        <ele>567</ele>
        <time>2018-02-11T09:16:58Z</time>
      </trkpt>
      <trkpt lat="43.4707" lon="5.98259">
        <ele>566</ele>
        <time>2018-02-11T09:17:08Z</time>
      </trkpt>
      <trkpt lat="43.47075" lon="5.98263">
        <ele>565</ele>
        <time>2018-02-11T09:17:18Z</time>
      </trkpt>
      <trkpt lat="43.47084" lon="5.98273">
        <ele>563</ele>
        <time>2018-02-11T09:17:35Z</time>
      </trkpt>
      <trkpt lat="43.47086" lon="5.9828">
        <ele>562</ele>
        <time>2018-02-11T09:17:44Z</time>
      </trkpt>
      <trkpt lat="43.47091" lon="5.98285">
        <ele>560</ele>
        <time>2018-02-11T09:17:49Z</time>
      </trkpt>
      <trkpt lat="43.47094" lon="5.98291">
        <ele>559</ele>
        <time>2018-02-11T09:17:54Z</time>
      </trkpt>
      <trkpt lat="43.47095" lon="5.98298">
        <ele>558</ele>
        <time>2018-02-11T09:17:58Z</time>
      </trkpt>
      <trkpt lat="43.47094" lon="5.98306">
        <ele>557</ele>
        <time>2018-02-11T09:18:03Z</time>
      </trkpt>
      <trkpt lat="43.47094" lon="5.98317">
        <ele>557</ele>
        <time>2018-02-11T09:18:11Z</time>
      </trkpt>
      <trkpt lat="43.47098" lon="5.98329">
        <ele>556</ele>
        <time>2018-02-11T09:18:20Z</time>
      </trkpt>
      <trkpt lat="43.47103" lon="5.98336">
        <ele>555</ele>
        <time>2018-02-11T09:18:27Z</time>
      </trkpt>
      <trkpt lat="43.47108" lon="5.98339">
        <ele>555</ele>
        <time>2018-02-11T09:18:33Z</time>
      </trkpt>
      <trkpt lat="43.47113" lon="5.98342">
        <ele>555</ele>
        <time>2018-02-11T09:18:38Z</time>
      </trkpt>
      <trkpt lat="43.47115" lon="5.98349">
        <ele>555</ele>
        <time>2018-02-11T09:18:44Z</time>
      </trkpt>
      <trkpt lat="43.47119" lon="5.98356">
        <ele>553</ele>
        <time>2018-02-11T09:18:50Z</time>
      </trkpt>
      <trkpt lat="43.47134" lon="5.98355">
        <ele>551</ele>
        <time>2018-02-11T09:19:09Z</time>
      </trkpt>
      <trkpt lat="43.4714" lon="5.98353">
        <ele>550</ele>
        <time>2018-02-11T09:19:18Z</time>
      </trkpt>
      <trkpt lat="43.47145" lon="5.98352">
        <ele>549</ele>
        <time>2018-02-11T09:19:24Z</time>
      </trkpt>
      <trkpt lat="43.47148" lon="5.98345">
        <ele>547</ele>
        <time>2018-02-11T09:19:33Z</time>
      </trkpt>
      <trkpt lat="43.47158" lon="5.98337">
        <ele>545</ele>
        <time>2018-02-11T09:19:48Z</time>
      </trkpt>
      <trkpt lat="43.47161" lon="5.98334">
        <ele>544</ele>
        <time>2018-02-11T09:19:52Z</time>
      </trkpt>
      <trkpt lat="43.47165" lon="5.98332">
        <ele>543</ele>
        <time>2018-02-11T09:19:57Z</time>
      </trkpt>
      <trkpt lat="43.47171" lon="5.98334">
        <ele>543</ele>
        <time>2018-02-11T09:20:02Z</time>
      </trkpt>
      <trkpt lat="43.47174" lon="5.98328">
        <ele>542</ele>
        <time>2018-02-11T09:20:10Z</time>
      </trkpt>
      <trkpt lat="43.4718" lon="5.98325">
        <ele>541</ele>
        <time>2018-02-11T09:20:18Z</time>
      </trkpt>
      <trkpt lat="43.47186" lon="5.98324">
        <ele>539</ele>
        <time>2018-02-11T09:20:23Z</time>
      </trkpt>
      <trkpt lat="43.47189" lon="5.98332">
        <ele>534</ele>
        <time>2018-02-11T09:22:31Z</time>
      </trkpt>
      <trkpt lat="43.47194" lon="5.98336">
        <ele>529</ele>
        <time>2018-02-11T09:22:39Z</time>
      </trkpt>
      <trkpt lat="43.472" lon="5.9834">
        <ele>529</ele>
        <time>2018-02-11T09:22:45Z</time>
      </trkpt>
      <trkpt lat="43.47205" lon="5.98344">
        <ele>529</ele>
        <time>2018-02-11T09:22:54Z</time>
      </trkpt>
      <trkpt lat="43.47214" lon="5.9835">
        <ele>528</ele>
        <time>2018-02-11T09:23:08Z</time>
      </trkpt>
      <trkpt lat="43.47219" lon="5.98355">
        <ele>528</ele>
        <time>2018-02-11T09:23:14Z</time>
      </trkpt>
      <trkpt lat="43.47224" lon="5.9836">
        <ele>527</ele>
        <time>2018-02-11T09:23:19Z</time>
      </trkpt>
      <trkpt lat="43.4723" lon="5.98364">
        <ele>527</ele>
        <time>2018-02-11T09:23:27Z</time>
      </trkpt>
      <trkpt lat="43.47235" lon="5.98363">
        <ele>526</ele>
        <time>2018-02-11T09:23:37Z</time>
      </trkpt>
      <trkpt lat="43.47241" lon="5.98363">
        <ele>526</ele>
        <time>2018-02-11T09:23:43Z</time>
      </trkpt>
      <trkpt lat="43.47247" lon="5.98361">
        <ele>525</ele>
        <time>2018-02-11T09:23:50Z</time>
      </trkpt>
      <trkpt lat="43.4727" lon="5.98365">
        <ele>524</ele>
        <time>2018-02-11T09:24:14Z</time>
      </trkpt>
      <trkpt lat="43.47276" lon="5.98368">
        <ele>524</ele>
        <time>2018-02-11T09:24:22Z</time>
      </trkpt>
      <trkpt lat="43.47282" lon="5.98372">
        <ele>524</ele>
        <time>2018-02-11T09:24:32Z</time>
      </trkpt>
      <trkpt lat="43.47289" lon="5.98376">
        <ele>524</ele>
        <time>2018-02-11T09:24:40Z</time>
      </trkpt>
      <trkpt lat="43.47294" lon="5.98377">
        <ele>524</ele>
        <time>2018-02-11T09:24:45Z</time>
      </trkpt>
      <trkpt lat="43.47296" lon="5.98382">
        <ele>524</ele>
        <time>2018-02-11T09:24:49Z</time>
      </trkpt>
      <trkpt lat="43.47299" lon="5.98389">
        <ele>524</ele>
        <time>2018-02-11T09:24:55Z</time>
      </trkpt>
      <trkpt lat="43.47301" lon="5.98397">
        <ele>524</ele>
        <time>2018-02-11T09:25:03Z</time>
      </trkpt>
      <trkpt lat="43.47303" lon="5.98403">
        <ele>524</ele>
        <time>2018-02-11T09:25:10Z</time>
      </trkpt>
      <trkpt lat="43.47306" lon="5.98407">
        <ele>524</ele>
        <time>2018-02-11T09:25:17Z</time>
      </trkpt>
      <trkpt lat="43.4731" lon="5.98412">
        <ele>524</ele>
        <time>2018-02-11T09:25:27Z</time>
      </trkpt>
      <trkpt lat="43.47315" lon="5.98415">
        <ele>525</ele>
        <time>2018-02-11T09:25:34Z</time>
      </trkpt>
      <trkpt lat="43.4732" lon="5.98418">
        <ele>525</ele>
        <time>2018-02-11T09:25:41Z</time>
      </trkpt>
      <trkpt lat="43.47325" lon="5.98422">
        <ele>526</ele>
        <time>2018-02-11T09:25:50Z</time>
      </trkpt>
      <trkpt lat="43.47335" lon="5.98437">
        <ele>528</ele>
        <time>2018-02-11T09:26:06Z</time>
      </trkpt>
      <trkpt lat="43.47337" lon="5.98442">
        <ele>529</ele>
        <time>2018-02-11T09:26:12Z</time>
      </trkpt>
      <trkpt lat="43.47346" lon="5.98473">
        <ele>534</ele>
        <time>2018-02-11T09:26:38Z</time>
      </trkpt>
      <trkpt lat="43.47348" lon="5.9848">
        <ele>534</ele>
        <time>2018-02-11T09:26:43Z</time>
      </trkpt>
      <trkpt lat="43.47348" lon="5.98486">
        <ele>535</ele>
        <time>2018-02-11T09:26:48Z</time>
      </trkpt>
      <trkpt lat="43.4735" lon="5.98493">
        <ele>535</ele>
        <time>2018-02-11T09:26:53Z</time>
      </trkpt>
      <trkpt lat="43.47353" lon="5.98509">
        <ele>535</ele>
        <time>2018-02-11T09:27:06Z</time>
      </trkpt>
      <trkpt lat="43.4736" lon="5.98521">
        <ele>536</ele>
        <time>2018-02-11T09:27:18Z</time>
      </trkpt>
      <trkpt lat="43.47364" lon="5.98527">
        <ele>536</ele>
        <time>2018-02-11T09:27:25Z</time>
      </trkpt>
      <trkpt lat="43.47365" lon="5.98534">
        <ele>537</ele>
        <time>2018-02-11T09:27:31Z</time>
      </trkpt>
      <trkpt lat="43.4737" lon="5.98549">
        <ele>537</ele>
        <time>2018-02-11T09:27:44Z</time>
      </trkpt>
      <trkpt lat="43.47372" lon="5.98557">
        <ele>537</ele>
        <time>2018-02-11T09:27:49Z</time>
      </trkpt>
      <trkpt lat="43.47374" lon="5.98564">
        <ele>538</ele>
        <time>2018-02-11T09:27:57Z</time>
      </trkpt>
      <trkpt lat="43.47377" lon="5.98571">
        <ele>538</ele>
        <time>2018-02-11T09:28:03Z</time>
      </trkpt>
      <trkpt lat="43.47383" lon="5.98588">
        <ele>538</ele>
        <time>2018-02-11T09:28:17Z</time>
      </trkpt>
      <trkpt lat="43.47391" lon="5.98602">
        <ele>537</ele>
        <time>2018-02-11T09:28:35Z</time>
      </trkpt>
      <trkpt lat="43.47394" lon="5.98609">
        <ele>537</ele>
        <time>2018-02-11T09:28:46Z</time>
      </trkpt>
      <trkpt lat="43.47399" lon="5.98614">
        <ele>536</ele>
        <time>2018-02-11T09:28:52Z</time>
      </trkpt>
      <trkpt lat="43.47405" lon="5.98619">
        <ele>536</ele>
        <time>2018-02-11T09:29:00Z</time>
      </trkpt>
      <trkpt lat="43.47408" lon="5.98626">
        <ele>536</ele>
        <time>2018-02-11T09:29:07Z</time>
      </trkpt>
      <trkpt lat="43.47413" lon="5.9863">
        <ele>537</ele>
        <time>2018-02-11T09:29:16Z</time>
      </trkpt>
      <trkpt lat="43.47426" lon="5.98653">
        <ele>541</ele>
        <time>2018-02-11T09:29:46Z</time>
      </trkpt>
      <trkpt lat="43.47431" lon="5.98682">
        <ele>544</ele>
        <time>2018-02-11T09:30:09Z</time>
      </trkpt>
      <trkpt lat="43.47431" lon="5.9869">
        <ele>545</ele>
        <time>2018-02-11T09:30:13Z</time>
      </trkpt>
      <trkpt lat="43.47428" lon="5.98697">
        <ele>545</ele>
        <time>2018-02-11T09:30:18Z</time>
      </trkpt>
      <trkpt lat="43.47419" lon="5.9872">
        <ele>550</ele>
        <time>2018-02-11T09:30:38Z</time>
      </trkpt>
      <trkpt lat="43.47415" lon="5.98726">
        <ele>551</ele>
        <time>2018-02-11T09:30:43Z</time>
      </trkpt>
      <trkpt lat="43.47413" lon="5.98731">
        <ele>552</ele>
        <time>2018-02-11T09:30:46Z</time>
      </trkpt>
      <trkpt lat="43.4741" lon="5.98765">
        <ele>554</ele>
        <time>2018-02-11T09:31:16Z</time>
      </trkpt>
      <trkpt lat="43.47412" lon="5.98773">
        <ele>554</ele>
        <time>2018-02-11T09:31:24Z</time>
      </trkpt>
      <trkpt lat="43.47414" lon="5.98781">
        <ele>554</ele>
        <time>2018-02-11T09:31:29Z</time>
      </trkpt>
      <trkpt lat="43.47416" lon="5.98798">
        <ele>552</ele>
        <time>2018-02-11T09:31:43Z</time>
      </trkpt>
      <trkpt lat="43.47412" lon="5.98801">
        <ele>550</ele>
        <time>2018-02-11T09:32:28Z</time>
      </trkpt>
      <trkpt lat="43.47413" lon="5.98802">
        <ele>549</ele>
        <time>2018-02-11T09:33:36Z</time>
      </trkpt>
      <trkpt lat="43.47414" lon="5.98811">
        <ele>547</ele>
        <time>2018-02-11T09:34:17Z</time>
      </trkpt>
      <trkpt lat="43.47412" lon="5.98821">
        <ele>547</ele>
        <time>2018-02-11T09:34:36Z</time>
      </trkpt>
      <trkpt lat="43.47407" lon="5.98826">
        <ele>547</ele>
        <time>2018-02-11T09:34:42Z</time>
      </trkpt>
      <trkpt lat="43.47404" lon="5.98836">
        <ele>545</ele>
        <time>2018-02-11T09:34:59Z</time>
      </trkpt>
      <trkpt lat="43.47399" lon="5.98846">
        <ele>544</ele>
        <time>2018-02-11T09:35:21Z</time>
      </trkpt>
      <trkpt lat="43.47393" lon="5.98861">
        <ele>543</ele>
        <time>2018-02-11T09:35:43Z</time>
      </trkpt>
      <trkpt lat="43.47388" lon="5.98871">
        <ele>543</ele>
        <time>2018-02-11T09:35:50Z</time>
      </trkpt>
      <trkpt lat="43.47386" lon="5.98879">
        <ele>543</ele>
        <time>2018-02-11T09:35:55Z</time>
      </trkpt>
      <trkpt lat="43.47374" lon="5.98906">
        <ele>543</ele>
        <time>2018-02-11T09:36:05Z</time>
      </trkpt>
      <trkpt lat="43.4737" lon="5.98913">
        <ele>543</ele>
        <time>2018-02-11T09:36:11Z</time>
      </trkpt>
      <trkpt lat="43.47367" lon="5.9892">
        <ele>543</ele>
        <time>2018-02-11T09:36:15Z</time>
      </trkpt>
      <trkpt lat="43.47366" lon="5.98927">
        <ele>543</ele>
        <time>2018-02-11T09:36:22Z</time>
      </trkpt>
      <trkpt lat="43.4736" lon="5.98929">
        <ele>542</ele>
        <time>2018-02-11T09:36:39Z</time>
      </trkpt>
      <trkpt lat="43.47354" lon="5.9893">
        <ele>540</ele>
        <time>2018-02-11T09:36:53Z</time>
      </trkpt>
      <trkpt lat="43.47354" lon="5.98938">
        <ele>538</ele>
        <time>2018-02-11T09:37:16Z</time>
      </trkpt>
      <trkpt lat="43.47347" lon="5.98941">
        <ele>537</ele>
        <time>2018-02-11T09:37:31Z</time>
      </trkpt>
      <trkpt lat="43.47343" lon="5.98943">
        <ele>535</ele>
        <time>2018-02-11T09:37:38Z</time>
      </trkpt>
      <trkpt lat="43.47338" lon="5.9895">
        <ele>534</ele>
        <time>2018-02-11T09:38:10Z</time>
      </trkpt>
      <trkpt lat="43.47333" lon="5.98954">
        <ele>532</ele>
        <time>2018-02-11T09:38:26Z</time>
      </trkpt>
      <trkpt lat="43.47329" lon="5.9896">
        <ele>531</ele>
        <time>2018-02-11T09:38:37Z</time>
      </trkpt>
      <trkpt lat="43.47326" lon="5.98966">
        <ele>529</ele>
        <time>2018-02-11T09:38:43Z</time>
      </trkpt>
      <trkpt lat="43.47327" lon="5.98974">
        <ele>528</ele>
        <time>2018-02-11T09:38:53Z</time>
      </trkpt>
      <trkpt lat="43.47326" lon="5.98992">
        <ele>525</ele>
        <time>2018-02-11T09:39:09Z</time>
      </trkpt>
      <trkpt lat="43.47322" lon="5.99008">
        <ele>523</ele>
        <time>2018-02-11T09:39:23Z</time>
      </trkpt>
      <trkpt lat="43.47322" lon="5.99016">
        <ele>521</ele>
        <time>2018-02-11T09:39:30Z</time>
      </trkpt>
      <trkpt lat="43.47323" lon="5.99028">
        <ele>520</ele>
        <time>2018-02-11T09:39:41Z</time>
      </trkpt>
      <trkpt lat="43.47325" lon="5.99036">
        <ele>520</ele>
        <time>2018-02-11T09:39:48Z</time>
      </trkpt>
      <trkpt lat="43.47326" lon="5.99043">
        <ele>519</ele>
        <time>2018-02-11T09:40:02Z</time>
      </trkpt>
      <trkpt lat="43.47315" lon="5.99054">
        <ele>517</ele>
        <time>2018-02-11T09:40:16Z</time>
      </trkpt>
      <trkpt lat="43.4731" lon="5.99059">
        <ele>515</ele>
        <time>2018-02-11T09:40:41Z</time>
      </trkpt>
      <trkpt lat="43.47306" lon="5.99066">
        <ele>514</ele>
        <time>2018-02-11T09:40:56Z</time>
      </trkpt>
      <trkpt lat="43.47302" lon="5.99072">
        <ele>512</ele>
        <time>2018-02-11T09:41:07Z</time>
      </trkpt>
      <trkpt lat="43.47297" lon="5.99078">
        <ele>510</ele>
        <time>2018-02-11T09:41:14Z</time>
      </trkpt>
      <trkpt lat="43.47292" lon="5.99079">
        <ele>508</ele>
        <time>2018-02-11T09:41:22Z</time>
      </trkpt>
      <trkpt lat="43.47289" lon="5.99082">
        <ele>508</ele>
        <time>2018-02-11T09:41:30Z</time>
      </trkpt>
      <trkpt lat="43.47287" lon="5.99097">
        <ele>507</ele>
        <time>2018-02-11T09:41:38Z</time>
      </trkpt>
      <trkpt lat="43.47287" lon="5.99106">
        <ele>507</ele>
        <time>2018-02-11T09:41:46Z</time>
      </trkpt>
      <trkpt lat="43.47282" lon="5.99111">
        <ele>506</ele>
        <time>2018-02-11T09:41:51Z</time>
      </trkpt>
      <trkpt lat="43.47276" lon="5.99113">
        <ele>505</ele>
        <time>2018-02-11T09:41:56Z</time>
      </trkpt>
      <trkpt lat="43.4727" lon="5.99117">
        <ele>505</ele>
        <time>2018-02-11T09:42:02Z</time>
      </trkpt>
      <trkpt lat="43.47264" lon="5.99117">
        <ele>504</ele>
        <time>2018-02-11T09:42:07Z</time>
      </trkpt>
      <trkpt lat="43.4726" lon="5.99117">
        <ele>504</ele>
        <time>2018-02-11T09:42:11Z</time>
      </trkpt>
      <trkpt lat="43.47254" lon="5.99116">
        <ele>504</ele>
        <time>2018-02-11T09:42:19Z</time>
      </trkpt>
      <trkpt lat="43.47248" lon="5.99118">
        <ele>502</ele>
        <time>2018-02-11T09:42:32Z</time>
      </trkpt>
      <trkpt lat="43.47244" lon="5.99123">
        <ele>502</ele>
        <time>2018-02-11T09:42:38Z</time>
      </trkpt>
      <trkpt lat="43.47241" lon="5.9913">
        <ele>501</ele>
        <time>2018-02-11T09:42:44Z</time>
      </trkpt>
      <trkpt lat="43.47235" lon="5.99132">
        <ele>500</ele>
        <time>2018-02-11T09:42:52Z</time>
      </trkpt>
      <trkpt lat="43.4723" lon="5.99132">
        <ele>500</ele>
        <time>2018-02-11T09:43:03Z</time>
      </trkpt>
      <trkpt lat="43.47225" lon="5.99137">
        <ele>499</ele>
        <time>2018-02-11T09:43:06Z</time>
      </trkpt>
      <trkpt lat="43.4722" lon="5.99139">
        <ele>499</ele>
        <time>2018-02-11T09:43:19Z</time>
      </trkpt>
      <trkpt lat="43.47216" lon="5.9914">
        <ele>499</ele>
        <time>2018-02-11T09:43:27Z</time>
      </trkpt>
      <trkpt lat="43.47215" lon="5.99148">
        <ele>500</ele>
        <time>2018-02-11T09:43:34Z</time>
      </trkpt>
      <trkpt lat="43.47216" lon="5.99158">
        <ele>501</ele>
        <time>2018-02-11T09:43:44Z</time>
      </trkpt>
      <trkpt lat="43.4722" lon="5.99165">
        <ele>501</ele>
        <time>2018-02-11T09:43:49Z</time>
      </trkpt>
      <trkpt lat="43.4722" lon="5.9917">
        <ele>502</ele>
        <time>2018-02-11T09:45:09Z</time>
      </trkpt>
      <trkpt lat="43.47219" lon="5.99175">
        <ele>502</ele>
        <time>2018-02-11T09:45:43Z</time>
      </trkpt>
      <trkpt lat="43.47215" lon="5.99182">
        <ele>502</ele>
        <time>2018-02-11T09:45:50Z</time>
      </trkpt>
      <trkpt lat="43.47209" lon="5.99182">
        <ele>502</ele>
        <time>2018-02-11T09:45:57Z</time>
      </trkpt>
      <trkpt lat="43.47204" lon="5.99186">
        <ele>502</ele>
        <time>2018-02-11T09:46:11Z</time>
      </trkpt>
      <trkpt lat="43.47201" lon="5.99193">
        <ele>502</ele>
        <time>2018-02-11T09:46:16Z</time>
      </trkpt>
      <trkpt lat="43.47199" lon="5.99201">
        <ele>503</ele>
        <time>2018-02-11T09:46:23Z</time>
      </trkpt>
      <trkpt lat="43.47198" lon="5.99208">
        <ele>503</ele>
        <time>2018-02-11T09:46:29Z</time>
      </trkpt>
      <trkpt lat="43.47193" lon="5.99212">
        <ele>504</ele>
        <time>2018-02-11T09:46:39Z</time>
      </trkpt>
      <trkpt lat="43.47188" lon="5.99218">
        <ele>505</ele>
        <time>2018-02-11T09:46:52Z</time>
      </trkpt>
      <trkpt lat="43.47183" lon="5.99223">
        <ele>506</ele>
        <time>2018-02-11T09:47:00Z</time>
      </trkpt>
      <trkpt lat="43.47177" lon="5.99225">
        <ele>508</ele>
        <time>2018-02-11T09:47:27Z</time>
      </trkpt>
      <trkpt lat="43.47175" lon="5.99232">
        <ele>510</ele>
        <time>2018-02-11T09:47:41Z</time>
      </trkpt>
      <trkpt lat="43.47171" lon="5.99238">
        <ele>511</ele>
        <time>2018-02-11T09:47:54Z</time>
      </trkpt>
      <trkpt lat="43.47167" lon="5.99234">
        <ele>512</ele>
        <time>2018-02-11T09:48:06Z</time>
      </trkpt>
      <trkpt lat="43.47164" lon="5.99241">
        <ele>513</ele>
        <time>2018-02-11T09:48:34Z</time>
      </trkpt>
      <trkpt lat="43.47159" lon="5.99249">
        <ele>515</ele>
        <time>2018-02-11T09:48:50Z</time>
      </trkpt>
      <trkpt lat="43.47155" lon="5.99258">
        <ele>515</ele>
        <time>2018-02-11T09:48:58Z</time>
      </trkpt>
      <trkpt lat="43.47153" lon="5.99265">
        <ele>516</ele>
        <time>2018-02-11T09:49:07Z</time>
      </trkpt>
      <trkpt lat="43.47152" lon="5.99274">
        <ele>519</ele>
        <time>2018-02-11T09:49:44Z</time>
      </trkpt>
      <trkpt lat="43.47152" lon="5.99282">
        <ele>520</ele>
        <time>2018-02-11T09:49:52Z</time>
      </trkpt>
      <trkpt lat="43.47155" lon="5.99291">
        <ele>521</ele>
        <time>2018-02-11T09:49:58Z</time>
      </trkpt>
      <trkpt lat="43.47155" lon="5.993">
        <ele>521</ele>
        <time>2018-02-11T09:50:06Z</time>
      </trkpt>
      <trkpt lat="43.47154" lon="5.99308">
        <ele>522</ele>
        <time>2018-02-11T09:50:11Z</time>
      </trkpt>
      <trkpt lat="43.47152" lon="5.99315">
        <ele>522</ele>
        <time>2018-02-11T09:50:22Z</time>
      </trkpt>
      <trkpt lat="43.4715" lon="5.99325">
        <ele>522</ele>
        <time>2018-02-11T09:50:37Z</time>
      </trkpt>
      <trkpt lat="43.47148" lon="5.99332">
        <ele>522</ele>
        <time>2018-02-11T09:50:46Z</time>
      </trkpt>
      <trkpt lat="43.47146" lon="5.99339">
        <ele>522</ele>
        <time>2018-02-11T09:50:56Z</time>
      </trkpt>
      <trkpt lat="43.47142" lon="5.99345">
        <ele>523</ele>
        <time>2018-02-11T09:51:10Z</time>
      </trkpt>
      <trkpt lat="43.47138" lon="5.99351">
        <ele>524</ele>
        <time>2018-02-11T09:51:33Z</time>
      </trkpt>
      <trkpt lat="43.47135" lon="5.99358">
        <ele>527</ele>
        <time>2018-02-11T09:51:51Z</time>
      </trkpt>
      <trkpt lat="43.47133" lon="5.99366">
        <ele>528</ele>
        <time>2018-02-11T09:52:03Z</time>
      </trkpt>
      <trkpt lat="43.47129" lon="5.99373">
        <ele>530</ele>
        <time>2018-02-11T09:52:22Z</time>
      </trkpt>
      <trkpt lat="43.47124" lon="5.99374">
        <ele>531</ele>
        <time>2018-02-11T09:52:29Z</time>
      </trkpt>
      <trkpt lat="43.47126" lon="5.99382">
        <ele>534</ele>
        <time>2018-02-11T09:52:39Z</time>
      </trkpt>
      <trkpt lat="43.47127" lon="5.9939">
        <ele>534</ele>
        <time>2018-02-11T09:52:46Z</time>
      </trkpt>
      <trkpt lat="43.47125" lon="5.99397">
        <ele>535</ele>
        <time>2018-02-11T09:52:57Z</time>
      </trkpt>
      <trkpt lat="43.47125" lon="5.99405">
        <ele>535</ele>
        <time>2018-02-11T09:53:08Z</time>
      </trkpt>
      <trkpt lat="43.47124" lon="5.99413">
        <ele>536</ele>
        <time>2018-02-11T09:53:53Z</time>
      </trkpt>
      <trkpt lat="43.47127" lon="5.99428">
        <ele>536</ele>
        <time>2018-02-11T09:54:12Z</time>
      </trkpt>
      <trkpt lat="43.47127" lon="5.99437">
        <ele>536</ele>
        <time>2018-02-11T09:54:27Z</time>
      </trkpt>
      <trkpt lat="43.47125" lon="5.99445">
        <ele>536</ele>
        <time>2018-02-11T09:54:36Z</time>
      </trkpt>
      <trkpt lat="43.47123" lon="5.99453">
        <ele>536</ele>
        <time>2018-02-11T09:54:44Z</time>
      </trkpt>
      <trkpt lat="43.47122" lon="5.99462">
        <ele>536</ele>
        <time>2018-02-11T09:54:52Z</time>
      </trkpt>
      <trkpt lat="43.47124" lon="5.99469">
        <ele>537</ele>
        <time>2018-02-11T09:55:02Z</time>
      </trkpt>
      <trkpt lat="43.47123" lon="5.99476">
        <ele>537</ele>
        <time>2018-02-11T09:55:10Z</time>
      </trkpt>
      <trkpt lat="43.47126" lon="5.99484">
        <ele>537</ele>
        <time>2018-02-11T09:55:16Z</time>
      </trkpt>
      <trkpt lat="43.47125" lon="5.99492">
        <ele>537</ele>
        <time>2018-02-11T09:55:22Z</time>
      </trkpt>
      <trkpt lat="43.47126" lon="5.99499">
        <ele>537</ele>
        <time>2018-02-11T09:55:29Z</time>
      </trkpt>
      <trkpt lat="43.47128" lon="5.99507">
        <ele>537</ele>
        <time>2018-02-11T09:55:39Z</time>
      </trkpt>
      <trkpt lat="43.47132" lon="5.99513">
        <ele>537</ele>
        <time>2018-02-11T09:55:44Z</time>
      </trkpt>
      <trkpt lat="43.47133" lon="5.99521">
        <ele>537</ele>
        <time>2018-02-11T09:55:52Z</time>
      </trkpt>
      <trkpt lat="43.47133" lon="5.99528">
        <ele>537</ele>
        <time>2018-02-11T09:55:59Z</time>
      </trkpt>
      <trkpt lat="43.47142" lon="5.99535">
        <ele>537</ele>
        <time>2018-02-11T09:56:12Z</time>
      </trkpt>
      <trkpt lat="43.47149" lon="5.99557">
        <ele>535</ele>
        <time>2018-02-11T09:56:31Z</time>
      </trkpt>
      <trkpt lat="43.47152" lon="5.99564">
        <ele>535</ele>
        <time>2018-02-11T09:56:44Z</time>
      </trkpt>
      <trkpt lat="43.47157" lon="5.99567">
        <ele>535</ele>
        <time>2018-02-11T09:56:56Z</time>
      </trkpt>
      <trkpt lat="43.47161" lon="5.99574">
        <ele>536</ele>
        <time>2018-02-11T09:57:08Z</time>
      </trkpt>
      <trkpt lat="43.47166" lon="5.99578">
        <ele>536</ele>
        <time>2018-02-11T09:57:17Z</time>
      </trkpt>
      <trkpt lat="43.47171" lon="5.99581">
        <ele>536</ele>
        <time>2018-02-11T09:57:22Z</time>
      </trkpt>
      <trkpt lat="43.47175" lon="5.99583">
        <ele>536</ele>
        <time>2018-02-11T09:57:27Z</time>
      </trkpt>
      <trkpt lat="43.4718" lon="5.99588">
        <ele>536</ele>
        <time>2018-02-11T09:57:35Z</time>
      </trkpt>
      <trkpt lat="43.47182" lon="5.99595">
        <ele>536</ele>
        <time>2018-02-11T09:57:42Z</time>
      </trkpt>
      <trkpt lat="43.47181" lon="5.99603">
        <ele>535</ele>
        <time>2018-02-11T09:57:47Z</time>
      </trkpt>
      <trkpt lat="43.47183" lon="5.99618">
        <ele>534</ele>
        <time>2018-02-11T09:58:01Z</time>
      </trkpt>
      <trkpt lat="43.47185" lon="5.99625">
        <ele>534</ele>
        <time>2018-02-11T09:58:08Z</time>
      </trkpt>
      <trkpt lat="43.47187" lon="5.99634">
        <ele>533</ele>
        <time>2018-02-11T09:58:17Z</time>
      </trkpt>
      <trkpt lat="43.4719" lon="5.99632">
        <ele>534</ele>
        <time>2018-02-11T09:58:26Z</time>
      </trkpt>
      <trkpt lat="43.47197" lon="5.99624">
        <ele>534</ele>
        <time>2018-02-11T09:58:39Z</time>
      </trkpt>
      <trkpt lat="43.47202" lon="5.99618">
        <ele>533</ele>
        <time>2018-02-11T09:58:47Z</time>
      </trkpt>
      <trkpt lat="43.47209" lon="5.99609">
        <ele>532</ele>
        <time>2018-02-11T09:59:00Z</time>
      </trkpt>
      <trkpt lat="43.47214" lon="5.99606">
        <ele>532</ele>
        <time>2018-02-11T09:59:12Z</time>
      </trkpt>
      <trkpt lat="43.47216" lon="5.99599">
        <ele>531</ele>
        <time>2018-02-11T09:59:22Z</time>
      </trkpt>
      <trkpt lat="43.47222" lon="5.99597">
        <ele>531</ele>
        <time>2018-02-11T09:59:40Z</time>
      </trkpt>
      <trkpt lat="43.47227" lon="5.99602">
        <ele>532</ele>
        <time>2018-02-11T09:59:47Z</time>
      </trkpt>
      <trkpt lat="43.47226" lon="5.99598">
        <ele>534</ele>
        <time>2018-02-11T10:02:08Z</time>
      </trkpt>
      <trkpt lat="43.47221" lon="5.99595">
        <ele>534</ele>
        <time>2018-02-11T10:02:15Z</time>
      </trkpt>
      <trkpt lat="43.47216" lon="5.99597">
        <ele>534</ele>
        <time>2018-02-11T10:02:21Z</time>
      </trkpt>
      <trkpt lat="43.47218" lon="5.99595">
        <ele>535</ele>
        <time>2018-02-11T10:03:34Z</time>
      </trkpt>
      <trkpt lat="43.47225" lon="5.99596">
        <ele>535</ele>
        <time>2018-02-11T10:03:42Z</time>
      </trkpt>
      <trkpt lat="43.47229" lon="5.99601">
        <ele>534</ele>
        <time>2018-02-11T10:04:02Z</time>
      </trkpt>
      <trkpt lat="43.47228" lon="5.99598">
        <ele>534</ele>
        <time>2018-02-11T10:05:34Z</time>
      </trkpt>
      <trkpt lat="43.47223" lon="5.99598">
        <ele>535</ele>
        <time>2018-02-11T10:12:15Z</time>
      </trkpt>
      <trkpt lat="43.47219" lon="5.99597">
        <ele>535</ele>
        <time>2018-02-11T10:12:20Z</time>
      </trkpt>
      <trkpt lat="43.47214" lon="5.99603">
        <ele>535</ele>
        <time>2018-02-11T10:12:51Z</time>
      </trkpt>
      <trkpt lat="43.47206" lon="5.99616">
        <ele>536</ele>
        <time>2018-02-11T10:13:07Z</time>
      </trkpt>
      <trkpt lat="43.47202" lon="5.99622">
        <ele>536</ele>
        <time>2018-02-11T10:13:13Z</time>
      </trkpt>
      <trkpt lat="43.47193" lon="5.99632">
        <ele>535</ele>
        <time>2018-02-11T10:13:34Z</time>
      </trkpt>
      <trkpt lat="43.47188" lon="5.99632">
        <ele>535</ele>
        <time>2018-02-11T10:13:41Z</time>
      </trkpt>
      <trkpt lat="43.47182" lon="5.99621">
        <ele>535</ele>
        <time>2018-02-11T10:13:53Z</time>
      </trkpt>
      <trkpt lat="43.47179" lon="5.99614">
        <ele>535</ele>
        <time>2018-02-11T10:13:59Z</time>
      </trkpt>
      <trkpt lat="43.47178" lon="5.99598">
        <ele>536</ele>
        <time>2018-02-11T10:14:15Z</time>
      </trkpt>
      <trkpt lat="43.47177" lon="5.9959">
        <ele>536</ele>
        <time>2018-02-11T10:14:22Z</time>
      </trkpt>
      <trkpt lat="43.47174" lon="5.99586">
        <ele>537</ele>
        <time>2018-02-11T10:14:26Z</time>
      </trkpt>
      <trkpt lat="43.47171" lon="5.99582">
        <ele>537</ele>
        <time>2018-02-11T10:14:35Z</time>
      </trkpt>
      <trkpt lat="43.47168" lon="5.9958">
        <ele>537</ele>
        <time>2018-02-11T10:14:40Z</time>
      </trkpt>
      <trkpt lat="43.47162" lon="5.99575">
        <ele>537</ele>
        <time>2018-02-11T10:14:52Z</time>
      </trkpt>
      <trkpt lat="43.47158" lon="5.99571">
        <ele>537</ele>
        <time>2018-02-11T10:14:58Z</time>
      </trkpt>
      <trkpt lat="43.47154" lon="5.99565">
        <ele>537</ele>
        <time>2018-02-11T10:15:04Z</time>
      </trkpt>
      <trkpt lat="43.4715" lon="5.99564">
        <ele>537</ele>
        <time>2018-02-11T10:15:10Z</time>
      </trkpt>
      <trkpt lat="43.47147" lon="5.99558">
        <ele>538</ele>
        <time>2018-02-11T10:15:20Z</time>
      </trkpt>
      <trkpt lat="43.47145" lon="5.99552">
        <ele>538</ele>
        <time>2018-02-11T10:15:25Z</time>
      </trkpt>
      <trkpt lat="43.47143" lon="5.99548">
        <ele>538</ele>
        <time>2018-02-11T10:15:30Z</time>
      </trkpt>
      <trkpt lat="43.47141" lon="5.99543">
        <ele>539</ele>
        <time>2018-02-11T10:15:41Z</time>
      </trkpt>
      <trkpt lat="43.47137" lon="5.99537">
        <ele>539</ele>
        <time>2018-02-11T10:15:48Z</time>
      </trkpt>
      <trkpt lat="43.47134" lon="5.9953">
        <ele>540</ele>
        <time>2018-02-11T10:15:54Z</time>
      </trkpt>
      <trkpt lat="43.47133" lon="5.99524">
        <ele>540</ele>
        <time>2018-02-11T10:16:00Z</time>
      </trkpt>
      <trkpt lat="43.47131" lon="5.99516">
        <ele>540</ele>
        <time>2018-02-11T10:16:09Z</time>
      </trkpt>
      <trkpt lat="43.47128" lon="5.99511">
        <ele>541</ele>
        <time>2018-02-11T10:16:12Z</time>
      </trkpt>
      <trkpt lat="43.47124" lon="5.99496">
        <ele>542</ele>
        <time>2018-02-11T10:16:29Z</time>
      </trkpt>
      <trkpt lat="43.47123" lon="5.9949">
        <ele>542</ele>
        <time>2018-02-11T10:16:34Z</time>
      </trkpt>
      <trkpt lat="43.47123" lon="5.99482">
        <ele>542</ele>
        <time>2018-02-11T10:16:41Z</time>
      </trkpt>
      <trkpt lat="43.47122" lon="5.99472">
        <ele>542</ele>
        <time>2018-02-11T10:16:51Z</time>
      </trkpt>
      <trkpt lat="43.47123" lon="5.99464">
        <ele>542</ele>
        <time>2018-02-11T10:16:57Z</time>
      </trkpt>
      <trkpt lat="43.47121" lon="5.99457">
        <ele>542</ele>
        <time>2018-02-11T10:17:04Z</time>
      </trkpt>
      <trkpt lat="43.47122" lon="5.99449">
        <ele>543</ele>
        <time>2018-02-11T10:17:11Z</time>
      </trkpt>
      <trkpt lat="43.47122" lon="5.99441">
        <ele>543</ele>
        <time>2018-02-11T10:17:19Z</time>
      </trkpt>
      <trkpt lat="43.4712" lon="5.99432">
        <ele>544</ele>
        <time>2018-02-11T10:17:27Z</time>
      </trkpt>
      <trkpt lat="43.47122" lon="5.99416">
        <ele>546</ele>
        <time>2018-02-11T10:18:05Z</time>
      </trkpt>
      <trkpt lat="43.47112" lon="5.99423">
        <ele>547</ele>
        <time>2018-02-11T10:18:32Z</time>
      </trkpt>
      <trkpt lat="43.47106" lon="5.99425">
        <ele>548</ele>
        <time>2018-02-11T10:18:39Z</time>
      </trkpt>
      <trkpt lat="43.47095" lon="5.99418">
        <ele>548</ele>
        <time>2018-02-11T10:18:51Z</time>
      </trkpt>
      <trkpt lat="43.47092" lon="5.99413">
        <ele>547</ele>
        <time>2018-02-11T10:19:03Z</time>
      </trkpt>
      <trkpt lat="43.47088" lon="5.99412">
        <ele>547</ele>
        <time>2018-02-11T10:19:11Z</time>
      </trkpt>
      <trkpt lat="43.47083" lon="5.99416">
        <ele>547</ele>
        <time>2018-02-11T10:19:26Z</time>
      </trkpt>
      <trkpt lat="43.47078" lon="5.99414">
        <ele>547</ele>
        <time>2018-02-11T10:19:34Z</time>
      </trkpt>
      <trkpt lat="43.47073" lon="5.99417">
        <ele>547</ele>
        <time>2018-02-11T10:19:41Z</time>
      </trkpt>
      <trkpt lat="43.47067" lon="5.99419">
        <ele>547</ele>
        <time>2018-02-11T10:19:47Z</time>
      </trkpt>
      <trkpt lat="43.47068" lon="5.99427">
        <ele>547</ele>
        <time>2018-02-11T10:19:52Z</time>
      </trkpt>
      <trkpt lat="43.47072" lon="5.99432">
        <ele>547</ele>
        <time>2018-02-11T10:19:57Z</time>
      </trkpt>
      <trkpt lat="43.47071" lon="5.99429">
        <ele>547</ele>
        <time>2018-02-11T10:20:54Z</time>
      </trkpt>
      <trkpt lat="43.47072" lon="5.99429">
        <ele>547</ele>
        <time>2018-02-11T10:22:04Z</time>
      </trkpt>
      <trkpt lat="43.47073" lon="5.99434">
        <ele>554</ele>
        <time>2018-02-11T11:10:59Z</time>
      </trkpt>
      <trkpt lat="43.47069" lon="5.99426">
        <ele>554</ele>
        <time>2018-02-11T11:12:59Z</time>
      </trkpt>
      <trkpt lat="43.47071" lon="5.99414">
        <ele>554</ele>
        <time>2018-02-11T11:13:11Z</time>
      </trkpt>
      <trkpt lat="43.47073" lon="5.99405">
        <ele>556</ele>
        <time>2018-02-11T11:13:23Z</time>
      </trkpt>
      <trkpt lat="43.47072" lon="5.99396">
        <ele>558</ele>
        <time>2018-02-11T11:13:45Z</time>
      </trkpt>
      <trkpt lat="43.47078" lon="5.99389">
        <ele>559</ele>
        <time>2018-02-11T11:13:58Z</time>
      </trkpt>
      <trkpt lat="43.47081" lon="5.99383">
        <ele>559</ele>
        <time>2018-02-11T11:14:07Z</time>
      </trkpt>
      <trkpt lat="43.47086" lon="5.99374">
        <ele>559</ele>
        <time>2018-02-11T11:14:14Z</time>
      </trkpt>
      <trkpt lat="43.47091" lon="5.9937">
        <ele>559</ele>
        <time>2018-02-11T11:14:27Z</time>
      </trkpt>
      <trkpt lat="43.47096" lon="5.99371">
        <ele>558</ele>
        <time>2018-02-11T11:14:38Z</time>
      </trkpt>
      <trkpt lat="43.47097" lon="5.99368">
        <ele>558</ele>
        <time>2018-02-11T11:15:34Z</time>
      </trkpt>
      <trkpt lat="43.4709" lon="5.99371">
        <ele>558</ele>
        <time>2018-02-11T11:15:40Z</time>
      </trkpt>
      <trkpt lat="43.47086" lon="5.99374">
        <ele>558</ele>
        <time>2018-02-11T11:15:43Z</time>
      </trkpt>
      <trkpt lat="43.47072" lon="5.99392">
        <ele>556</ele>
        <time>2018-02-11T11:16:14Z</time>
      </trkpt>
      <trkpt lat="43.47076" lon="5.99399">
        <ele>554</ele>
        <time>2018-02-11T11:16:22Z</time>
      </trkpt>
      <trkpt lat="43.47071" lon="5.99417">
        <ele>551</ele>
        <time>2018-02-11T11:16:57Z</time>
      </trkpt>
      <trkpt lat="43.47071" lon="5.99423">
        <ele>551</ele>
        <time>2018-02-11T11:17:08Z</time>
      </trkpt>
      <trkpt lat="43.47077" lon="5.99422">
        <ele>551</ele>
        <time>2018-02-11T11:17:23Z</time>
      </trkpt>
      <trkpt lat="43.47081" lon="5.99417">
        <ele>552</ele>
        <time>2018-02-11T11:17:37Z</time>
      </trkpt>
      <trkpt lat="43.47086" lon="5.99415">
        <ele>551</ele>
        <time>2018-02-11T11:18:19Z</time>
      </trkpt>
      <trkpt lat="43.47104" lon="5.99426">
        <ele>551</ele>
        <time>2018-02-11T11:18:48Z</time>
      </trkpt>
      <trkpt lat="43.4711" lon="5.99427">
        <ele>551</ele>
        <time>2018-02-11T11:18:57Z</time>
      </trkpt>
      <trkpt lat="43.4712" lon="5.9942">
        <ele>552</ele>
        <time>2018-02-11T11:19:35Z</time>
      </trkpt>
      <trkpt lat="43.47266" lon="5.99114">
        <ele>497</ele>
        <time>2018-02-11T11:28:25Z</time>
      </trkpt>
      <trkpt lat="43.47262" lon="5.99111">
        <ele>503</ele>
        <time>2018-02-11T11:28:34Z</time>
      </trkpt>
      <trkpt lat="43.47263" lon="5.99113">
        <ele>504</ele>
        <time>2018-02-11T11:28:51Z</time>
      </trkpt>
      <trkpt lat="43.47274" lon="5.99111">
        <ele>506</ele>
        <time>2018-02-11T11:29:37Z</time>
      </trkpt>
      <trkpt lat="43.47283" lon="5.99103">
        <ele>505</ele>
        <time>2018-02-11T11:29:45Z</time>
      </trkpt>
      <trkpt lat="43.47284" lon="5.99085">
        <ele>504</ele>
        <time>2018-02-11T11:30:00Z</time>
      </trkpt>
      <trkpt lat="43.47294" lon="5.99072">
        <ele>505</ele>
        <time>2018-02-11T11:30:20Z</time>
      </trkpt>
      <trkpt lat="43.473" lon="5.99071">
        <ele>506</ele>
        <time>2018-02-11T11:30:53Z</time>
      </trkpt>
      <trkpt lat="43.47309" lon="5.99067">
        <ele>508</ele>
        <time>2018-02-11T11:31:23Z</time>
      </trkpt>
      <trkpt lat="43.47319" lon="5.99056">
        <ele>511</ele>
        <time>2018-02-11T11:31:41Z</time>
      </trkpt>
      <trkpt lat="43.4732" lon="5.99049">
        <ele>512</ele>
        <time>2018-02-11T11:31:49Z</time>
      </trkpt>
      <trkpt lat="43.47319" lon="5.99041">
        <ele>513</ele>
        <time>2018-02-11T11:32:19Z</time>
      </trkpt>
      <trkpt lat="43.4732" lon="5.99035">
        <ele>513</ele>
        <time>2018-02-11T11:32:46Z</time>
      </trkpt>
      <trkpt lat="43.47317" lon="5.99027">
        <ele>513</ele>
        <time>2018-02-11T11:32:50Z</time>
      </trkpt>
      <trkpt lat="43.47318" lon="5.99001">
        <ele>516</ele>
        <time>2018-02-11T11:33:21Z</time>
      </trkpt>
      <trkpt lat="43.47319" lon="5.98993">
        <ele>516</ele>
        <time>2018-02-11T11:33:27Z</time>
      </trkpt>
      <trkpt lat="43.47323" lon="5.98986">
        <ele>517</ele>
        <time>2018-02-11T11:33:34Z</time>
      </trkpt>
      <trkpt lat="43.4732" lon="5.98971">
        <ele>518</ele>
        <time>2018-02-11T11:33:49Z</time>
      </trkpt>
      <trkpt lat="43.47322" lon="5.98956">
        <ele>520</ele>
        <time>2018-02-11T11:34:06Z</time>
      </trkpt>
      <trkpt lat="43.47331" lon="5.9895">
        <ele>522</ele>
        <time>2018-02-11T11:34:48Z</time>
      </trkpt>
      <trkpt lat="43.47335" lon="5.98944">
        <ele>523</ele>
        <time>2018-02-11T11:35:02Z</time>
      </trkpt>
      <trkpt lat="43.47341" lon="5.98948">
        <ele>523</ele>
        <time>2018-02-11T11:35:11Z</time>
      </trkpt>
      <trkpt lat="43.47346" lon="5.98943">
        <ele>525</ele>
        <time>2018-02-11T11:35:33Z</time>
      </trkpt>
      <trkpt lat="43.47346" lon="5.98936">
        <ele>527</ele>
        <time>2018-02-11T11:35:40Z</time>
      </trkpt>
      <trkpt lat="43.4735" lon="5.9893">
        <ele>528</ele>
        <time>2018-02-11T11:35:51Z</time>
      </trkpt>
      <trkpt lat="43.47356" lon="5.9893">
        <ele>530</ele>
        <time>2018-02-11T11:36:02Z</time>
      </trkpt>
      <trkpt lat="43.47362" lon="5.98924">
        <ele>532</ele>
        <time>2018-02-11T11:36:25Z</time>
      </trkpt>
      <trkpt lat="43.47362" lon="5.98916">
        <ele>535</ele>
        <time>2018-02-11T11:36:36Z</time>
      </trkpt>
      <trkpt lat="43.47368" lon="5.98913">
        <ele>535</ele>
        <time>2018-02-11T11:36:51Z</time>
      </trkpt>
      <trkpt lat="43.47383" lon="5.98882">
        <ele>540</ele>
        <time>2018-02-11T11:37:23Z</time>
      </trkpt>
      <trkpt lat="43.47382" lon="5.98862">
        <ele>542</ele>
        <time>2018-02-11T11:37:39Z</time>
      </trkpt>
      <trkpt lat="43.47388" lon="5.98847">
        <ele>543</ele>
        <time>2018-02-11T11:38:05Z</time>
      </trkpt>
      <trkpt lat="43.47393" lon="5.98843">
        <ele>544</ele>
        <time>2018-02-11T11:38:40Z</time>
      </trkpt>
      <trkpt lat="43.47397" lon="5.98837">
        <ele>544</ele>
        <time>2018-02-11T11:38:50Z</time>
      </trkpt>
      <trkpt lat="43.47405" lon="5.98811">
        <ele>546</ele>
        <time>2018-02-11T11:39:22Z</time>
      </trkpt>
      <trkpt lat="43.47409" lon="5.98803">
        <ele>548</ele>
        <time>2018-02-11T11:39:36Z</time>
      </trkpt>
      <trkpt lat="43.47414" lon="5.98801">
        <ele>548</ele>
        <time>2018-02-11T11:40:09Z</time>
      </trkpt>
      <trkpt lat="43.47413" lon="5.98804">
        <ele>548</ele>
        <time>2018-02-11T11:40:54Z</time>
      </trkpt>
      <trkpt lat="43.4741" lon="5.988">
        <ele>548</ele>
        <time>2018-02-11T11:41:31Z</time>
      </trkpt>
      <trkpt lat="43.47403" lon="5.98768">
        <ele>550</ele>
        <time>2018-02-11T11:42:05Z</time>
      </trkpt>
      <trkpt lat="43.4741" lon="5.98728">
        <ele>552</ele>
        <time>2018-02-11T11:42:36Z</time>
      </trkpt>
      <trkpt lat="43.47421" lon="5.98717">
        <ele>552</ele>
        <time>2018-02-11T11:42:51Z</time>
      </trkpt>
      <trkpt lat="43.4743" lon="5.98661">
        <ele>554</ele>
        <time>2018-02-11T11:43:28Z</time>
      </trkpt>
      <trkpt lat="43.47412" lon="5.98626">
        <ele>556</ele>
        <time>2018-02-11T11:43:58Z</time>
      </trkpt>
      <trkpt lat="43.47395" lon="5.98601">
        <ele>555</ele>
        <time>2018-02-11T11:44:28Z</time>
      </trkpt>
      <trkpt lat="43.47369" lon="5.98562">
        <ele>553</ele>
        <time>2018-02-11T11:45:02Z</time>
      </trkpt>
      <trkpt lat="43.47355" lon="5.98518">
        <ele>549</ele>
        <time>2018-02-11T11:45:35Z</time>
      </trkpt>
      <trkpt lat="43.47346" lon="5.98483">
        <ele>547</ele>
        <time>2018-02-11T11:46:06Z</time>
      </trkpt>
      <trkpt lat="43.47334" lon="5.98434">
        <ele>545</ele>
        <time>2018-02-11T11:46:41Z</time>
      </trkpt>
      <trkpt lat="43.47317" lon="5.98404">
        <ele>543</ele>
        <time>2018-02-11T11:47:05Z</time>
      </trkpt>
      <trkpt lat="43.47302" lon="5.98395">
        <ele>542</ele>
        <time>2018-02-11T11:47:24Z</time>
      </trkpt>
      <trkpt lat="43.4728" lon="5.98366">
        <ele>539</ele>
        <time>2018-02-11T11:48:02Z</time>
      </trkpt>
      <trkpt lat="43.47258" lon="5.98352">
        <ele>536</ele>
        <time>2018-02-11T11:48:35Z</time>
      </trkpt>
      <trkpt lat="43.47251" lon="5.9835">
        <ele>535</ele>
        <time>2018-02-11T11:49:30Z</time>
      </trkpt>
      <trkpt lat="43.47229" lon="5.98336">
        <ele>533</ele>
        <time>2018-02-11T11:49:56Z</time>
      </trkpt>
      <trkpt lat="43.47228" lon="5.98328">
        <ele>532</ele>
        <time>2018-02-11T11:50:03Z</time>
      </trkpt>
      <trkpt lat="43.47221" lon="5.98298">
        <ele>529</ele>
        <time>2018-02-11T11:50:26Z</time>
      </trkpt>
      <trkpt lat="43.47223" lon="5.98291">
        <ele>529</ele>
        <time>2018-02-11T11:50:32Z</time>
      </trkpt>
      <trkpt lat="43.47222" lon="5.98283">
        <ele>528</ele>
        <time>2018-02-11T11:50:38Z</time>
      </trkpt>
      <trkpt lat="43.47228" lon="5.98265">
        <ele>527</ele>
        <time>2018-02-11T11:50:51Z</time>
      </trkpt>
      <trkpt lat="43.47225" lon="5.98248">
        <ele>526</ele>
        <time>2018-02-11T11:51:00Z</time>
      </trkpt>
      <trkpt lat="43.47233" lon="5.98201">
        <ele>523</ele>
        <time>2018-02-11T11:51:34Z</time>
      </trkpt>
      <trkpt lat="43.47233" lon="5.98193">
        <ele>522</ele>
        <time>2018-02-11T11:51:40Z</time>
      </trkpt>
      <trkpt lat="43.47234" lon="5.98185">
        <ele>522</ele>
        <time>2018-02-11T11:51:45Z</time>
      </trkpt>
      <trkpt lat="43.47238" lon="5.98169">
        <ele>522</ele>
        <time>2018-02-11T11:51:58Z</time>
      </trkpt>
      <trkpt lat="43.47241" lon="5.98162">
        <ele>521</ele>
        <time>2018-02-11T11:52:05Z</time>
      </trkpt>
      <trkpt lat="43.47244" lon="5.98155">
        <ele>520</ele>
        <time>2018-02-11T11:52:12Z</time>
      </trkpt>
      <trkpt lat="43.47247" lon="5.98147">
        <ele>520</ele>
        <time>2018-02-11T11:52:17Z</time>
      </trkpt>
      <trkpt lat="43.47251" lon="5.98142">
        <ele>519</ele>
        <time>2018-02-11T11:52:24Z</time>
      </trkpt>
      <trkpt lat="43.47256" lon="5.98138">
        <ele>519</ele>
        <time>2018-02-11T11:52:29Z</time>
      </trkpt>
      <trkpt lat="43.4726" lon="5.98134">
        <ele>518</ele>
        <time>2018-02-11T11:52:35Z</time>
      </trkpt>
      <trkpt lat="43.47282" lon="5.98104">
        <ele>515</ele>
        <time>2018-02-11T11:53:07Z</time>
      </trkpt>
      <trkpt lat="43.47284" lon="5.98096">
        <ele>514</ele>
        <time>2018-02-11T11:53:13Z</time>
      </trkpt>
      <trkpt lat="43.47288" lon="5.9809">
        <ele>513</ele>
        <time>2018-02-11T11:53:19Z</time>
      </trkpt>
      <trkpt lat="43.47289" lon="5.98082">
        <ele>512</ele>
        <time>2018-02-11T11:53:26Z</time>
      </trkpt>
      <trkpt lat="43.47294" lon="5.98067">
        <ele>511</ele>
        <time>2018-02-11T11:53:38Z</time>
      </trkpt>
      <trkpt lat="43.47298" lon="5.98042">
        <ele>509</ele>
        <time>2018-02-11T11:54:06Z</time>
      </trkpt>
      <trkpt lat="43.47298" lon="5.98035">
        <ele>508</ele>
        <time>2018-02-11T11:54:17Z</time>
      </trkpt>
      <trkpt lat="43.473" lon="5.98028">
        <ele>508</ele>
        <time>2018-02-11T11:54:23Z</time>
      </trkpt>
      <trkpt lat="43.47306" lon="5.98017">
        <ele>507</ele>
        <time>2018-02-11T11:54:34Z</time>
      </trkpt>
      <trkpt lat="43.4731" lon="5.98011">
        <ele>506</ele>
        <time>2018-02-11T11:54:41Z</time>
      </trkpt>
      <trkpt lat="43.47315" lon="5.98003">
        <ele>506</ele>
        <time>2018-02-11T11:54:49Z</time>
      </trkpt>
      <trkpt lat="43.47326" lon="5.98">
        <ele>504</ele>
        <time>2018-02-11T11:55:02Z</time>
      </trkpt>
      <trkpt lat="43.47342" lon="5.97992">
        <ele>502</ele>
        <time>2018-02-11T11:55:19Z</time>
      </trkpt>
      <trkpt lat="43.47345" lon="5.97988">
        <ele>502</ele>
        <time>2018-02-11T11:55:22Z</time>
      </trkpt>
      <trkpt lat="43.47348" lon="5.97981">
        <ele>501</ele>
        <time>2018-02-11T11:55:27Z</time>
      </trkpt>
      <trkpt lat="43.47349" lon="5.97976">
        <ele>501</ele>
        <time>2018-02-11T11:55:31Z</time>
      </trkpt>
      <trkpt lat="43.47347" lon="5.97963">
        <ele>500</ele>
        <time>2018-02-11T11:55:42Z</time>
      </trkpt>
      <trkpt lat="43.47345" lon="5.97958">
        <ele>500</ele>
        <time>2018-02-11T11:55:47Z</time>
      </trkpt>
      <trkpt lat="43.47342" lon="5.97952">
        <ele>499</ele>
        <time>2018-02-11T11:55:53Z</time>
      </trkpt>
      <trkpt lat="43.47341" lon="5.97944">
        <ele>497</ele>
        <time>2018-02-11T11:56:16Z</time>
      </trkpt>
      <trkpt lat="43.47344" lon="5.97938">
        <ele>496</ele>
        <time>2018-02-11T11:56:24Z</time>
      </trkpt>
      <trkpt lat="43.47344" lon="5.9794">
        <ele>492</ele>
        <time>2018-02-11T12:00:48Z</time>
      </trkpt>
      <trkpt lat="43.47347" lon="5.97943">
        <ele>491</ele>
        <time>2018-02-11T12:02:51Z</time>
      </trkpt>
      <trkpt lat="43.47346" lon="5.9794">
        <ele>490</ele>
        <time>2018-02-11T12:03:42Z</time>
      </trkpt>
      <trkpt lat="43.47343" lon="5.97939">
        <ele>488</ele>
        <time>2018-02-11T12:07:48Z</time>
      </trkpt>
      <trkpt lat="43.47337" lon="5.97927">
        <ele>489</ele>
        <time>2018-02-11T12:08:04Z</time>
      </trkpt>
      <trkpt lat="43.47342" lon="5.97921">
        <ele>489</ele>
        <time>2018-02-11T12:08:14Z</time>
      </trkpt>
      <trkpt lat="43.47345" lon="5.97915">
        <ele>489</ele>
        <time>2018-02-11T12:08:21Z</time>
      </trkpt>
      <trkpt lat="43.47346" lon="5.97906">
        <ele>489</ele>
        <time>2018-02-11T12:08:30Z</time>
      </trkpt>
      <trkpt lat="43.47349" lon="5.97902">
        <ele>488</ele>
        <time>2018-02-11T12:08:34Z</time>
      </trkpt>
      <trkpt lat="43.47357" lon="5.97894">
        <ele>487</ele>
        <time>2018-02-11T12:08:47Z</time>
      </trkpt>
      <trkpt lat="43.47363" lon="5.97891">
        <ele>486</ele>
        <time>2018-02-11T12:08:55Z</time>
      </trkpt>
      <trkpt lat="43.47374" lon="5.97898">
        <ele>485</ele>
        <time>2018-02-11T12:09:14Z</time>
      </trkpt>
      <trkpt lat="43.47378" lon="5.97899">
        <ele>484</ele>
        <time>2018-02-11T12:09:35Z</time>
      </trkpt>
      <trkpt lat="43.47389" lon="5.97915">
        <ele>482</ele>
        <time>2018-02-11T12:10:12Z</time>
      </trkpt>
      <trkpt lat="43.47392" lon="5.97922">
        <ele>480</ele>
        <time>2018-02-11T12:10:21Z</time>
      </trkpt>
      <trkpt lat="43.47397" lon="5.97925">
        <ele>479</ele>
        <time>2018-02-11T12:10:28Z</time>
      </trkpt>
      <trkpt lat="43.474" lon="5.97928">
        <ele>478</ele>
        <time>2018-02-11T12:10:34Z</time>
      </trkpt>
      <trkpt lat="43.47403" lon="5.97935">
        <ele>478</ele>
        <time>2018-02-11T12:10:42Z</time>
      </trkpt>
      <trkpt lat="43.4741" lon="5.97947">
        <ele>475</ele>
        <time>2018-02-11T12:10:58Z</time>
      </trkpt>
      <trkpt lat="43.47416" lon="5.97961">
        <ele>474</ele>
        <time>2018-02-11T12:11:09Z</time>
      </trkpt>
      <trkpt lat="43.47417" lon="5.97968">
        <ele>473</ele>
        <time>2018-02-11T12:11:18Z</time>
      </trkpt>
      <trkpt lat="43.47422" lon="5.97973">
        <ele>472</ele>
        <time>2018-02-11T12:11:24Z</time>
      </trkpt>
      <trkpt lat="43.47428" lon="5.97975">
        <ele>472</ele>
        <time>2018-02-11T12:11:30Z</time>
      </trkpt>
      <trkpt lat="43.47433" lon="5.97972">
        <ele>471</ele>
        <time>2018-02-11T12:11:34Z</time>
      </trkpt>
      <trkpt lat="43.47434" lon="5.97964">
        <ele>469</ele>
        <time>2018-02-11T12:11:53Z</time>
      </trkpt>
      <trkpt lat="43.47432" lon="5.97955">
        <ele>469</ele>
        <time>2018-02-11T12:12:03Z</time>
      </trkpt>
      <trkpt lat="43.47434" lon="5.97948">
        <ele>467</ele>
        <time>2018-02-11T12:12:11Z</time>
      </trkpt>
      <trkpt lat="43.47435" lon="5.9794">
        <ele>466</ele>
        <time>2018-02-11T12:12:22Z</time>
      </trkpt>
      <trkpt lat="43.47442" lon="5.97927">
        <ele>462</ele>
        <time>2018-02-11T12:12:41Z</time>
      </trkpt>
      <trkpt lat="43.47442" lon="5.97918">
        <ele>460</ele>
        <time>2018-02-11T12:12:48Z</time>
      </trkpt>
      <trkpt lat="43.47442" lon="5.97907">
        <ele>460</ele>
        <time>2018-02-11T12:12:54Z</time>
      </trkpt>
      <trkpt lat="43.47436" lon="5.9788">
        <ele>457</ele>
        <time>2018-02-11T12:13:14Z</time>
      </trkpt>
      <trkpt lat="43.47439" lon="5.9787">
        <ele>457</ele>
        <time>2018-02-11T12:13:21Z</time>
      </trkpt>
      <trkpt lat="43.47435" lon="5.97846">
        <ele>455</ele>
        <time>2018-02-11T12:13:37Z</time>
      </trkpt>
      <trkpt lat="43.47433" lon="5.97839">
        <ele>454</ele>
        <time>2018-02-11T12:13:43Z</time>
      </trkpt>
      <trkpt lat="43.47429" lon="5.97833">
        <ele>454</ele>
        <time>2018-02-11T12:13:49Z</time>
      </trkpt>
      <trkpt lat="43.47426" lon="5.97827">
        <ele>452</ele>
        <time>2018-02-11T12:14:01Z</time>
      </trkpt>
      <trkpt lat="43.47425" lon="5.97819">
        <ele>451</ele>
        <time>2018-02-11T12:14:16Z</time>
      </trkpt>
      <trkpt lat="43.47424" lon="5.97811">
        <ele>450</ele>
        <time>2018-02-11T12:14:26Z</time>
      </trkpt>
      <trkpt lat="43.47425" lon="5.97806">
        <ele>448</ele>
        <time>2018-02-11T12:14:33Z</time>
      </trkpt>
      <trkpt lat="43.47424" lon="5.97798">
        <ele>447</ele>
        <time>2018-02-11T12:14:43Z</time>
      </trkpt>
      <trkpt lat="43.47423" lon="5.97789">
        <ele>446</ele>
        <time>2018-02-11T12:14:51Z</time>
      </trkpt>
      <trkpt lat="43.47423" lon="5.97772">
        <ele>443</ele>
        <time>2018-02-11T12:15:07Z</time>
      </trkpt>
      <trkpt lat="43.47422" lon="5.97764">
        <ele>441</ele>
        <time>2018-02-11T12:15:28Z</time>
      </trkpt>
      <trkpt lat="43.47423" lon="5.97747">
        <ele>439</ele>
        <time>2018-02-11T12:15:39Z</time>
      </trkpt>
      <trkpt lat="43.47422" lon="5.9774">
        <ele>438</ele>
        <time>2018-02-11T12:15:48Z</time>
      </trkpt>
      <trkpt lat="43.47423" lon="5.97732">
        <ele>437</ele>
        <time>2018-02-11T12:15:54Z</time>
      </trkpt>
      <trkpt lat="43.47428" lon="5.9772">
        <ele>435</ele>
        <time>2018-02-11T12:16:10Z</time>
      </trkpt>
      <trkpt lat="43.4743" lon="5.97714">
        <ele>433</ele>
        <time>2018-02-11T12:16:19Z</time>
      </trkpt>
      <trkpt lat="43.47432" lon="5.977">
        <ele>430</ele>
        <time>2018-02-11T12:16:27Z</time>
      </trkpt>
      <trkpt lat="43.47433" lon="5.97693">
        <ele>429</ele>
        <time>2018-02-11T12:16:34Z</time>
      </trkpt>
      <trkpt lat="43.47435" lon="5.97685">
        <ele>428</ele>
        <time>2018-02-11T12:16:40Z</time>
      </trkpt>
      <trkpt lat="43.4743" lon="5.97662">
        <ele>425</ele>
        <time>2018-02-11T12:17:13Z</time>
      </trkpt>
      <trkpt lat="43.47426" lon="5.97656">
        <ele>424</ele>
        <time>2018-02-11T12:17:17Z</time>
      </trkpt>
      <trkpt lat="43.47425" lon="5.97641">
        <ele>422</ele>
        <time>2018-02-11T12:17:27Z</time>
      </trkpt>
      <trkpt lat="43.47423" lon="5.97632">
        <ele>422</ele>
        <time>2018-02-11T12:17:33Z</time>
      </trkpt>
      <trkpt lat="43.47426" lon="5.97628">
        <ele>420</ele>
        <time>2018-02-11T12:17:40Z</time>
      </trkpt>
      <trkpt lat="43.47429" lon="5.97622">
        <ele>419</ele>
        <time>2018-02-11T12:17:55Z</time>
      </trkpt>
      <trkpt lat="43.4743" lon="5.97614">
        <ele>417</ele>
        <time>2018-02-11T12:18:02Z</time>
      </trkpt>
      <trkpt lat="43.47433" lon="5.97606">
        <ele>416</ele>
        <time>2018-02-11T12:18:09Z</time>
      </trkpt>
      <trkpt lat="43.47436" lon="5.97582">
        <ele>412</ele>
        <time>2018-02-11T12:18:28Z</time>
      </trkpt>
      <trkpt lat="43.47437" lon="5.97571">
        <ele>411</ele>
        <time>2018-02-11T12:18:34Z</time>
      </trkpt>
      <trkpt lat="43.47436" lon="5.97563">
        <ele>411</ele>
        <time>2018-02-11T12:18:40Z</time>
      </trkpt>
      <trkpt lat="43.4744" lon="5.97555">
        <ele>407</ele>
        <time>2018-02-11T12:19:02Z</time>
      </trkpt>
      <trkpt lat="43.47439" lon="5.97547">
        <ele>405</ele>
        <time>2018-02-11T12:19:06Z</time>
      </trkpt>
      <trkpt lat="43.47437" lon="5.97534">
        <ele>404</ele>
        <time>2018-02-11T12:19:14Z</time>
      </trkpt>
      <trkpt lat="43.4744" lon="5.97482">
        <ele>400</ele>
        <time>2018-02-11T12:19:47Z</time>
      </trkpt>
      <trkpt lat="43.47441" lon="5.97465">
        <ele>399</ele>
        <time>2018-02-11T12:19:58Z</time>
      </trkpt>
      <trkpt lat="43.47438" lon="5.97466">
        <ele>397</ele>
        <time>2018-02-11T12:20:57Z</time>
      </trkpt>
      <trkpt lat="43.47441" lon="5.97459">
        <ele>397</ele>
        <time>2018-02-11T12:21:46Z</time>
      </trkpt>
      <trkpt lat="43.47446" lon="5.9745">
        <ele>397</ele>
        <time>2018-02-11T12:21:51Z</time>
      </trkpt>
      <trkpt lat="43.47453" lon="5.97444">
        <ele>396</ele>
        <time>2018-02-11T12:21:55Z</time>
      </trkpt>
      <trkpt lat="43.47463" lon="5.97436">
        <ele>395</ele>
        <time>2018-02-11T12:22:07Z</time>
      </trkpt>
      <trkpt lat="43.47469" lon="5.97434">
        <ele>394</ele>
        <time>2018-02-11T12:22:15Z</time>
      </trkpt>
      <trkpt lat="43.4748" lon="5.97428">
        <ele>393</ele>
        <time>2018-02-11T12:22:26Z</time>
      </trkpt>
      <trkpt lat="43.47486" lon="5.97426">
        <ele>392</ele>
        <time>2018-02-11T12:22:29Z</time>
      </trkpt>
      <trkpt lat="43.47492" lon="5.9743">
        <ele>392</ele>
        <time>2018-02-11T12:22:33Z</time>
      </trkpt>
      <trkpt lat="43.47519" lon="5.97454">
        <ele>389</ele>
        <time>2018-02-11T12:23:02Z</time>
      </trkpt>
      <trkpt lat="43.47524" lon="5.97458">
        <ele>388</ele>
        <time>2018-02-11T12:23:07Z</time>
      </trkpt>
      <trkpt lat="43.47541" lon="5.97471">
        <ele>385</ele>
        <time>2018-02-11T12:23:20Z</time>
      </trkpt>
      <trkpt lat="43.47547" lon="5.97476">
        <ele>384</ele>
        <time>2018-02-11T12:23:27Z</time>
      </trkpt>
      <trkpt lat="43.47552" lon="5.97478">
        <ele>384</ele>
        <time>2018-02-11T12:23:30Z</time>
      </trkpt>
      <trkpt lat="43.47563" lon="5.97485">
        <ele>382</ele>
        <time>2018-02-11T12:23:39Z</time>
      </trkpt>
      <trkpt lat="43.47568" lon="5.97491">
        <ele>382</ele>
        <time>2018-02-11T12:23:48Z</time>
      </trkpt>
      <trkpt lat="43.47578" lon="5.97503">
        <ele>381</ele>
        <time>2018-02-11T12:23:59Z</time>
      </trkpt>
      <trkpt lat="43.47583" lon="5.97506">
        <ele>380</ele>
        <time>2018-02-11T12:24:06Z</time>
      </trkpt>
      <trkpt lat="43.47588" lon="5.9751">
        <ele>380</ele>
        <time>2018-02-11T12:24:12Z</time>
      </trkpt>
      <trkpt lat="43.47592" lon="5.97514">
        <ele>378</ele>
        <time>2018-02-11T12:24:21Z</time>
      </trkpt>
      <trkpt lat="43.47596" lon="5.97519">
        <ele>377</ele>
        <time>2018-02-11T12:24:28Z</time>
      </trkpt>
      <trkpt lat="43.47616" lon="5.97527">
        <ele>375</ele>
        <time>2018-02-11T12:24:44Z</time>
      </trkpt>
      <trkpt lat="43.47623" lon="5.97529">
        <ele>374</ele>
        <time>2018-02-11T12:24:50Z</time>
      </trkpt>
      <trkpt lat="43.47629" lon="5.97532">
        <ele>373</ele>
        <time>2018-02-11T12:24:56Z</time>
      </trkpt>
      <trkpt lat="43.47635" lon="5.97536">
        <ele>373</ele>
        <time>2018-02-11T12:25:04Z</time>
      </trkpt>
      <trkpt lat="43.47641" lon="5.97535">
        <ele>373</ele>
        <time>2018-02-11T12:25:08Z</time>
      </trkpt>
      <trkpt lat="43.47649" lon="5.97537">
        <ele>372</ele>
        <time>2018-02-11T12:25:17Z</time>
      </trkpt>
      <trkpt lat="43.47653" lon="5.97543">
        <ele>371</ele>
        <time>2018-02-11T12:25:22Z</time>
      </trkpt>
      <trkpt lat="43.47651" lon="5.97554">
        <ele>369</ele>
        <time>2018-02-11T12:25:31Z</time>
      </trkpt>
      <trkpt lat="43.47654" lon="5.97564">
        <ele>367</ele>
        <time>2018-02-11T12:25:43Z</time>
      </trkpt>
      <trkpt lat="43.47666" lon="5.9758">
        <ele>363</ele>
        <time>2018-02-11T12:25:56Z</time>
      </trkpt>
      <trkpt lat="43.47672" lon="5.97582">
        <ele>362</ele>
        <time>2018-02-11T12:26:00Z</time>
      </trkpt>
      <trkpt lat="43.47677" lon="5.97577">
        <ele>361</ele>
        <time>2018-02-11T12:26:07Z</time>
      </trkpt>
      <trkpt lat="43.47679" lon="5.9757">
        <ele>358</ele>
        <time>2018-02-11T12:26:31Z</time>
      </trkpt>
      <trkpt lat="43.47687" lon="5.97569">
        <ele>358</ele>
        <time>2018-02-11T12:26:35Z</time>
      </trkpt>
      <trkpt lat="43.47699" lon="5.97564">
        <ele>356</ele>
        <time>2018-02-11T12:26:43Z</time>
      </trkpt>
      <trkpt lat="43.47704" lon="5.9756">
        <ele>356</ele>
        <time>2018-02-11T12:26:46Z</time>
      </trkpt>
      <trkpt lat="43.47712" lon="5.97561">
        <ele>356</ele>
        <time>2018-02-11T12:26:55Z</time>
      </trkpt>
      <trkpt lat="43.4771" lon="5.9757">
        <ele>355</ele>
        <time>2018-02-11T12:27:08Z</time>
      </trkpt>
      <trkpt lat="43.4771" lon="5.97579">
        <ele>351</ele>
        <time>2018-02-11T12:27:18Z</time>
      </trkpt>
      <trkpt lat="43.4771" lon="5.97587">
        <ele>351</ele>
        <time>2018-02-11T12:27:27Z</time>
      </trkpt>
      <trkpt lat="43.47715" lon="5.97596">
        <ele>354</ele>
        <time>2018-02-11T12:32:59Z</time>
      </trkpt>
      <trkpt lat="43.47721" lon="5.97607">
        <ele>357</ele>
        <time>2018-02-11T12:33:22Z</time>
      </trkpt>
      <trkpt lat="43.47727" lon="5.97616">
        <ele>358</ele>
        <time>2018-02-11T12:33:30Z</time>
      </trkpt>
      <trkpt lat="43.47732" lon="5.97625">
        <ele>359</ele>
        <time>2018-02-11T12:33:34Z</time>
      </trkpt>
      <trkpt lat="43.47736" lon="5.97635">
        <ele>359</ele>
        <time>2018-02-11T12:33:40Z</time>
      </trkpt>
      <trkpt lat="43.47742" lon="5.9764">
        <ele>359</ele>
        <time>2018-02-11T12:33:44Z</time>
      </trkpt>
      <trkpt lat="43.47746" lon="5.97646">
        <ele>360</ele>
        <time>2018-02-11T12:33:49Z</time>
      </trkpt>
      <trkpt lat="43.47748" lon="5.97656">
        <ele>360</ele>
        <time>2018-02-11T12:33:58Z</time>
      </trkpt>
      <trkpt lat="43.4775" lon="5.97665">
        <ele>360</ele>
        <time>2018-02-11T12:34:08Z</time>
      </trkpt>
      <trkpt lat="43.47753" lon="5.97672">
        <ele>360</ele>
        <time>2018-02-11T12:34:15Z</time>
      </trkpt>
      <trkpt lat="43.47754" lon="5.9768">
        <ele>360</ele>
        <time>2018-02-11T12:34:22Z</time>
      </trkpt>
      <trkpt lat="43.47756" lon="5.97687">
        <ele>360</ele>
        <time>2018-02-11T12:34:28Z</time>
      </trkpt>
      <trkpt lat="43.47756" lon="5.97698">
        <ele>360</ele>
        <time>2018-02-11T12:34:34Z</time>
      </trkpt>
      <trkpt lat="43.47759" lon="5.97708">
        <ele>360</ele>
        <time>2018-02-11T12:34:39Z</time>
      </trkpt>
      <trkpt lat="43.47759" lon="5.97716">
        <ele>359</ele>
        <time>2018-02-11T12:34:45Z</time>
      </trkpt>
      <trkpt lat="43.47761" lon="5.97724">
        <ele>359</ele>
        <time>2018-02-11T12:34:52Z</time>
      </trkpt>
      <trkpt lat="43.47761" lon="5.9773">
        <ele>359</ele>
        <time>2018-02-11T12:34:57Z</time>
      </trkpt>
      <trkpt lat="43.47763" lon="5.97737">
        <ele>359</ele>
        <time>2018-02-11T12:35:03Z</time>
      </trkpt>
      <trkpt lat="43.4777" lon="5.97765">
        <ele>360</ele>
        <time>2018-02-11T12:35:25Z</time>
      </trkpt>
      <trkpt lat="43.47771" lon="5.97775">
        <ele>360</ele>
        <time>2018-02-11T12:35:29Z</time>
      </trkpt>
      <trkpt lat="43.47777" lon="5.97793">
        <ele>360</ele>
        <time>2018-02-11T12:35:46Z</time>
      </trkpt>
      <trkpt lat="43.4778" lon="5.97802">
        <ele>360</ele>
        <time>2018-02-11T12:35:54Z</time>
      </trkpt>
      <trkpt lat="43.47784" lon="5.97813">
        <ele>361</ele>
        <time>2018-02-11T12:36:02Z</time>
      </trkpt>
      <trkpt lat="43.47786" lon="5.9782">
        <ele>362</ele>
        <time>2018-02-11T12:36:08Z</time>
      </trkpt>
      <trkpt lat="43.47788" lon="5.97831">
        <ele>362</ele>
        <time>2018-02-11T12:36:14Z</time>
      </trkpt>
      <trkpt lat="43.47795" lon="5.97859">
        <ele>364</ele>
        <time>2018-02-11T12:36:35Z</time>
      </trkpt>
      <trkpt lat="43.47804" lon="5.97885">
        <ele>365</ele>
        <time>2018-02-11T12:36:54Z</time>
      </trkpt>
      <trkpt lat="43.47807" lon="5.97896">
        <ele>366</ele>
        <time>2018-02-11T12:37:02Z</time>
      </trkpt>
      <trkpt lat="43.47824" lon="5.97914">
        <ele>367</ele>
        <time>2018-02-11T12:37:22Z</time>
      </trkpt>
      <trkpt lat="43.47829" lon="5.97921">
        <ele>368</ele>
        <time>2018-02-11T12:37:26Z</time>
      </trkpt>
      <trkpt lat="43.47834" lon="5.97926">
        <ele>369</ele>
        <time>2018-02-11T12:37:33Z</time>
      </trkpt>
      <trkpt lat="43.47839" lon="5.97929">
        <ele>371</ele>
        <time>2018-02-11T12:37:38Z</time>
      </trkpt>
      <trkpt lat="43.47844" lon="5.97935">
        <ele>371</ele>
        <time>2018-02-11T12:37:46Z</time>
      </trkpt>
      <trkpt lat="43.47848" lon="5.9794">
        <ele>372</ele>
        <time>2018-02-11T12:37:51Z</time>
      </trkpt>
      <trkpt lat="43.47853" lon="5.97948">
        <ele>373</ele>
        <time>2018-02-11T12:38:00Z</time>
      </trkpt>
      <trkpt lat="43.47858" lon="5.97955">
        <ele>373</ele>
        <time>2018-02-11T12:38:07Z</time>
      </trkpt>
      <trkpt lat="43.47864" lon="5.97962">
        <ele>373</ele>
        <time>2018-02-11T12:38:16Z</time>
      </trkpt>
      <trkpt lat="43.47869" lon="5.97967">
        <ele>373</ele>
        <time>2018-02-11T12:38:23Z</time>
      </trkpt>
      <trkpt lat="43.47872" lon="5.97978">
        <ele>373</ele>
        <time>2018-02-11T12:38:30Z</time>
      </trkpt>
      <trkpt lat="43.47873" lon="5.9799">
        <ele>373</ele>
        <time>2018-02-11T12:38:36Z</time>
      </trkpt>
      <trkpt lat="43.47873" lon="5.97997">
        <ele>373</ele>
        <time>2018-02-11T12:38:41Z</time>
      </trkpt>
      <trkpt lat="43.47876" lon="5.98005">
        <ele>373</ele>
        <time>2018-02-11T12:38:48Z</time>
      </trkpt>
      <trkpt lat="43.47879" lon="5.98013">
        <ele>374</ele>
        <time>2018-02-11T12:38:52Z</time>
      </trkpt>
      <trkpt lat="43.47885" lon="5.98019">
        <ele>375</ele>
        <time>2018-02-11T12:38:58Z</time>
      </trkpt>
      <trkpt lat="43.47892" lon="5.98019">
        <ele>375</ele>
        <time>2018-02-11T12:39:29Z</time>
      </trkpt>
      <trkpt lat="43.47899" lon="5.98012">
        <ele>375</ele>
        <time>2018-02-11T12:39:47Z</time>
      </trkpt>
      <trkpt lat="43.47903" lon="5.98001">
        <ele>376</ele>
        <time>2018-02-11T12:39:50Z</time>
      </trkpt>
      <trkpt lat="43.47908" lon="5.97994">
        <ele>376</ele>
        <time>2018-02-11T12:39:54Z</time>
      </trkpt>
      <trkpt lat="43.47913" lon="5.9799">
        <ele>376</ele>
        <time>2018-02-11T12:39:57Z</time>
      </trkpt>
      <trkpt lat="43.47921" lon="5.97985">
        <ele>375</ele>
        <time>2018-02-11T12:40:11Z</time>
      </trkpt>
      <trkpt lat="43.47924" lon="5.97975">
        <ele>375</ele>
        <time>2018-02-11T12:40:24Z</time>
      </trkpt>
      <trkpt lat="43.47929" lon="5.97972">
        <ele>374</ele>
        <time>2018-02-11T12:40:30Z</time>
      </trkpt>
      <trkpt lat="43.47931" lon="5.97961">
        <ele>372</ele>
        <time>2018-02-11T12:40:37Z</time>
      </trkpt>
      <trkpt lat="43.47936" lon="5.9795">
        <ele>371</ele>
        <time>2018-02-11T12:40:47Z</time>
      </trkpt>
      <trkpt lat="43.4794" lon="5.97943">
        <ele>369</ele>
        <time>2018-02-11T12:40:54Z</time>
      </trkpt>
      <trkpt lat="43.47945" lon="5.97928">
        <ele>369</ele>
        <time>2018-02-11T12:41:06Z</time>
      </trkpt>
      <trkpt lat="43.47947" lon="5.97921">
        <ele>369</ele>
        <time>2018-02-11T12:41:13Z</time>
      </trkpt>
      <trkpt lat="43.4795" lon="5.97912">
        <ele>368</ele>
        <time>2018-02-11T12:41:21Z</time>
      </trkpt>
      <trkpt lat="43.47962" lon="5.97902">
        <ele>367</ele>
        <time>2018-02-11T12:41:36Z</time>
      </trkpt>
      <trkpt lat="43.47968" lon="5.97898">
        <ele>367</ele>
        <time>2018-02-11T12:41:45Z</time>
      </trkpt>
      <trkpt lat="43.4798" lon="5.97887">
        <ele>367</ele>
        <time>2018-02-11T12:41:55Z</time>
      </trkpt>
      <trkpt lat="43.47983" lon="5.9788">
        <ele>367</ele>
        <time>2018-02-11T12:42:04Z</time>
      </trkpt>
      <trkpt lat="43.47988" lon="5.97877">
        <ele>367</ele>
        <time>2018-02-11T12:42:08Z</time>
      </trkpt>
      <trkpt lat="43.47994" lon="5.97876">
        <ele>367</ele>
        <time>2018-02-11T12:42:21Z</time>
      </trkpt>
      <trkpt lat="43.48001" lon="5.97875">
        <ele>366</ele>
        <time>2018-02-11T12:42:28Z</time>
      </trkpt>
      <trkpt lat="43.48006" lon="5.97872">
        <ele>366</ele>
        <time>2018-02-11T12:42:33Z</time>
      </trkpt>
      <trkpt lat="43.48012" lon="5.97872">
        <ele>366</ele>
        <time>2018-02-11T12:42:39Z</time>
      </trkpt>
      <trkpt lat="43.48017" lon="5.97869">
        <ele>365</ele>
        <time>2018-02-11T12:42:45Z</time>
      </trkpt>
      <trkpt lat="43.48023" lon="5.97868">
        <ele>365</ele>
        <time>2018-02-11T12:42:55Z</time>
      </trkpt>
      <trkpt lat="43.48029" lon="5.97866">
        <ele>364</ele>
        <time>2018-02-11T12:43:02Z</time>
      </trkpt>
      <trkpt lat="43.48035" lon="5.97862">
        <ele>363</ele>
        <time>2018-02-11T12:43:10Z</time>
      </trkpt>
      <trkpt lat="43.48042" lon="5.9786">
        <ele>363</ele>
        <time>2018-02-11T12:43:14Z</time>
      </trkpt>
      <trkpt lat="43.48049" lon="5.97854">
        <ele>362</ele>
        <time>2018-02-11T12:43:18Z</time>
      </trkpt>
      <trkpt lat="43.48054" lon="5.97847">
        <ele>361</ele>
        <time>2018-02-11T12:43:25Z</time>
      </trkpt>
      <trkpt lat="43.48059" lon="5.97841">
        <ele>360</ele>
        <time>2018-02-11T12:43:35Z</time>
      </trkpt>
      <trkpt lat="43.48063" lon="5.97834">
        <ele>359</ele>
        <time>2018-02-11T12:43:42Z</time>
      </trkpt>
      <trkpt lat="43.48067" lon="5.9783">
        <ele>359</ele>
        <time>2018-02-11T12:43:47Z</time>
      </trkpt>
      <trkpt lat="43.48074" lon="5.97825">
        <ele>358</ele>
        <time>2018-02-11T12:43:55Z</time>
      </trkpt>
      <trkpt lat="43.48082" lon="5.97815">
        <ele>357</ele>
        <time>2018-02-11T12:44:08Z</time>
      </trkpt>
      <trkpt lat="43.48088" lon="5.97808">
        <ele>356</ele>
        <time>2018-02-11T12:44:22Z</time>
      </trkpt>
      <trkpt lat="43.48093" lon="5.97801">
        <ele>355</ele>
        <time>2018-02-11T12:44:29Z</time>
      </trkpt>
      <trkpt lat="43.48099" lon="5.97799">
        <ele>354</ele>
        <time>2018-02-11T12:44:33Z</time>
      </trkpt>
      <trkpt lat="43.48104" lon="5.97798">
        <ele>354</ele>
        <time>2018-02-11T12:44:43Z</time>
      </trkpt>
      <trkpt lat="43.48118" lon="5.97803">
        <ele>354</ele>
        <time>2018-02-11T12:45:02Z</time>
      </trkpt>
      <trkpt lat="43.48131" lon="5.97801">
        <ele>354</ele>
        <time>2018-02-11T12:45:13Z</time>
      </trkpt>
      <trkpt lat="43.48139" lon="5.978">
        <ele>355</ele>
        <time>2018-02-11T12:45:30Z</time>
      </trkpt>
      <trkpt lat="43.48152" lon="5.97794">
        <ele>354</ele>
        <time>2018-02-11T12:45:39Z</time>
      </trkpt>
      <trkpt lat="43.4816" lon="5.9779">
        <ele>354</ele>
        <time>2018-02-11T12:45:42Z</time>
      </trkpt>
      <trkpt lat="43.48167" lon="5.97786">
        <ele>353</ele>
        <time>2018-02-11T12:45:45Z</time>
      </trkpt>
      <trkpt lat="43.48176" lon="5.97778">
        <ele>352</ele>
        <time>2018-02-11T12:46:00Z</time>
      </trkpt>
      <trkpt lat="43.48178" lon="5.97771">
        <ele>351</ele>
        <time>2018-02-11T12:46:11Z</time>
      </trkpt>
      <trkpt lat="43.48183" lon="5.97767">
        <ele>351</ele>
        <time>2018-02-11T12:46:20Z</time>
      </trkpt>
      <trkpt lat="43.48189" lon="5.97762">
        <ele>350</ele>
        <time>2018-02-11T12:46:27Z</time>
      </trkpt>
      <trkpt lat="43.48196" lon="5.97756">
        <ele>349</ele>
        <time>2018-02-11T12:46:34Z</time>
      </trkpt>
      <trkpt lat="43.48209" lon="5.97753">
        <ele>348</ele>
        <time>2018-02-11T12:46:47Z</time>
      </trkpt>
      <trkpt lat="43.48215" lon="5.97751">
        <ele>348</ele>
        <time>2018-02-11T12:46:52Z</time>
      </trkpt>
      <trkpt lat="43.48232" lon="5.97753">
        <ele>348</ele>
        <time>2018-02-11T12:47:09Z</time>
      </trkpt>
      <trkpt lat="43.48251" lon="5.97761">
        <ele>348</ele>
        <time>2018-02-11T12:47:30Z</time>
      </trkpt>
      <trkpt lat="43.48266" lon="5.97766">
        <ele>347</ele>
        <time>2018-02-11T12:47:48Z</time>
      </trkpt>
      <trkpt lat="43.48271" lon="5.97771">
        <ele>347</ele>
        <time>2018-02-11T12:47:53Z</time>
      </trkpt>
      <trkpt lat="43.48277" lon="5.97772">
        <ele>347</ele>
        <time>2018-02-11T12:47:57Z</time>
      </trkpt>
      <trkpt lat="43.48283" lon="5.97773">
        <ele>347</ele>
        <time>2018-02-11T12:48:03Z</time>
      </trkpt>
      <trkpt lat="43.4829" lon="5.97774">
        <ele>346</ele>
        <time>2018-02-11T12:48:10Z</time>
      </trkpt>
      <trkpt lat="43.48297" lon="5.97773">
        <ele>346</ele>
        <time>2018-02-11T12:48:16Z</time>
      </trkpt>
      <trkpt lat="43.48333" lon="5.9778">
        <ele>344</ele>
        <time>2018-02-11T12:48:47Z</time>
      </trkpt>
      <trkpt lat="43.48339" lon="5.97781">
        <ele>344</ele>
        <time>2018-02-11T12:48:55Z</time>
      </trkpt>
      <trkpt lat="43.48348" lon="5.97782">
        <ele>344</ele>
        <time>2018-02-11T12:49:08Z</time>
      </trkpt>
      <trkpt lat="43.48358" lon="5.97779">
        <ele>344</ele>
        <time>2018-02-11T12:49:13Z</time>
      </trkpt>
      <trkpt lat="43.48365" lon="5.9778">
        <ele>343</ele>
        <time>2018-02-11T12:49:17Z</time>
      </trkpt>
      <trkpt lat="43.48373" lon="5.97787">
        <ele>342</ele>
        <time>2018-02-11T12:49:30Z</time>
      </trkpt>
      <trkpt lat="43.48378" lon="5.97793">
        <ele>340</ele>
        <time>2018-02-11T12:49:39Z</time>
      </trkpt>
      <trkpt lat="43.48385" lon="5.978">
        <ele>340</ele>
        <time>2018-02-11T12:49:46Z</time>
      </trkpt>
      <trkpt lat="43.4839" lon="5.97807">
        <ele>339</ele>
        <time>2018-02-11T12:49:53Z</time>
      </trkpt>
      <trkpt lat="43.48408" lon="5.97826">
        <ele>339</ele>
        <time>2018-02-11T12:50:13Z</time>
      </trkpt>
      <trkpt lat="43.48415" lon="5.97833">
        <ele>340</ele>
        <time>2018-02-11T12:50:24Z</time>
      </trkpt>
      <trkpt lat="43.48424" lon="5.97843">
        <ele>340</ele>
        <time>2018-02-11T12:51:02Z</time>
      </trkpt>
      <trkpt lat="43.48431" lon="5.97848">
        <ele>342</ele>
        <time>2018-02-11T12:51:15Z</time>
      </trkpt>
      <trkpt lat="43.48435" lon="5.97836">
        <ele>342</ele>
        <time>2018-02-11T12:51:25Z</time>
      </trkpt>
      <trkpt lat="43.48433" lon="5.97816">
        <ele>342</ele>
        <time>2018-02-11T12:51:31Z</time>
      </trkpt>
      <trkpt lat="43.4843" lon="5.9781">
        <ele>341</ele>
        <time>2018-02-11T12:51:35Z</time>
      </trkpt>
      <trkpt lat="43.48426" lon="5.97805">
        <ele>341</ele>
        <time>2018-02-11T12:51:40Z</time>
      </trkpt>
      <trkpt lat="43.48421" lon="5.97796">
        <ele>340</ele>
        <time>2018-02-11T12:51:45Z</time>
      </trkpt>
      <trkpt lat="43.48421" lon="5.97785">
        <ele>339</ele>
        <time>2018-02-11T12:51:51Z</time>
      </trkpt>
      <trkpt lat="43.4842" lon="5.97778">
        <ele>339</ele>
        <time>2018-02-11T12:51:57Z</time>
      </trkpt>
      <trkpt lat="43.48418" lon="5.97773">
        <ele>338</ele>
        <time>2018-02-11T12:52:02Z</time>
      </trkpt>
      <trkpt lat="43.48413" lon="5.97756">
        <ele>337</ele>
        <time>2018-02-11T12:52:13Z</time>
      </trkpt>
      <trkpt lat="43.4841" lon="5.97744">
        <ele>337</ele>
        <time>2018-02-11T12:52:21Z</time>
      </trkpt>
      <trkpt lat="43.48408" lon="5.97735">
        <ele>337</ele>
        <time>2018-02-11T12:52:27Z</time>
      </trkpt>
      <trkpt lat="43.48407" lon="5.97726">
        <ele>337</ele>
        <time>2018-02-11T12:52:34Z</time>
      </trkpt>
      <trkpt lat="43.48404" lon="5.97716">
        <ele>337</ele>
        <time>2018-02-11T12:52:41Z</time>
      </trkpt>
      <trkpt lat="43.48397" lon="5.97695">
        <ele>336</ele>
        <time>2018-02-11T12:52:56Z</time>
      </trkpt>
      <trkpt lat="43.48395" lon="5.97688">
        <ele>336</ele>
        <time>2018-02-11T12:53:02Z</time>
      </trkpt>
      <trkpt lat="43.48393" lon="5.9768">
        <ele>336</ele>
        <time>2018-02-11T12:53:09Z</time>
      </trkpt>
      <trkpt lat="43.48389" lon="5.97673">
        <ele>336</ele>
        <time>2018-02-11T12:53:13Z</time>
      </trkpt>
      <trkpt lat="43.48386" lon="5.97665">
        <ele>335</ele>
        <time>2018-02-11T12:53:21Z</time>
      </trkpt>
      <trkpt lat="43.48381" lon="5.97655">
        <ele>335</ele>
        <time>2018-02-11T12:53:28Z</time>
      </trkpt>
      <trkpt lat="43.48378" lon="5.97645">
        <ele>335</ele>
        <time>2018-02-11T12:53:34Z</time>
      </trkpt>
      <trkpt lat="43.48371" lon="5.97628">
        <ele>335</ele>
        <time>2018-02-11T12:53:48Z</time>
      </trkpt>
      <trkpt lat="43.48369" lon="5.97621">
        <ele>335</ele>
        <time>2018-02-11T12:53:53Z</time>
      </trkpt>
      <trkpt lat="43.48366" lon="5.97614">
        <ele>336</ele>
        <time>2018-02-11T12:54:01Z</time>
      </trkpt>
      <trkpt lat="43.48359" lon="5.97595">
        <ele>334</ele>
        <time>2018-02-11T12:54:21Z</time>
      </trkpt>
      <trkpt lat="43.48355" lon="5.97588">
        <ele>333</ele>
        <time>2018-02-11T12:54:29Z</time>
      </trkpt>
      <trkpt lat="43.4835" lon="5.97581">
        <ele>333</ele>
        <time>2018-02-11T12:54:35Z</time>
      </trkpt>
      <trkpt lat="43.48347" lon="5.97571">
        <ele>332</ele>
        <time>2018-02-11T12:54:41Z</time>
      </trkpt>
      <trkpt lat="43.48333" lon="5.97554">
        <ele>332</ele>
        <time>2018-02-11T12:54:56Z</time>
      </trkpt>
      <trkpt lat="43.48329" lon="5.97547">
        <ele>332</ele>
        <time>2018-02-11T12:55:01Z</time>
      </trkpt>
      <trkpt lat="43.48322" lon="5.97538">
        <ele>332</ele>
        <time>2018-02-11T12:55:09Z</time>
      </trkpt>
      <trkpt lat="43.48318" lon="5.97532">
        <ele>332</ele>
        <time>2018-02-11T12:55:14Z</time>
      </trkpt>
      <trkpt lat="43.48296" lon="5.97499">
        <ele>334</ele>
        <time>2018-02-11T12:55:44Z</time>
      </trkpt>
      <trkpt lat="43.48288" lon="5.97485">
        <ele>334</ele>
        <time>2018-02-11T12:55:58Z</time>
      </trkpt>
      <trkpt lat="43.48281" lon="5.97481">
        <ele>334</ele>
        <time>2018-02-11T12:56:04Z</time>
      </trkpt>
      <trkpt lat="43.48269" lon="5.97456">
        <ele>334</ele>
        <time>2018-02-11T12:56:25Z</time>
      </trkpt>
      <trkpt lat="43.48258" lon="5.97442">
        <ele>335</ele>
        <time>2018-02-11T12:56:36Z</time>
      </trkpt>
      <trkpt lat="43.48249" lon="5.97433">
        <ele>336</ele>
        <time>2018-02-11T12:56:50Z</time>
      </trkpt>
      <trkpt lat="43.48244" lon="5.97428">
        <ele>337</ele>
        <time>2018-02-11T12:56:55Z</time>
      </trkpt>
      <trkpt lat="43.48238" lon="5.97424">
        <ele>337</ele>
        <time>2018-02-11T12:57:01Z</time>
      </trkpt>
      <trkpt lat="43.48234" lon="5.97418">
        <ele>338</ele>
        <time>2018-02-11T12:57:06Z</time>
      </trkpt>
      <trkpt lat="43.48229" lon="5.97413">
        <ele>338</ele>
        <time>2018-02-11T12:57:13Z</time>
      </trkpt>
      <trkpt lat="43.48224" lon="5.9741">
        <ele>337</ele>
        <time>2018-02-11T12:57:19Z</time>
      </trkpt>
      <trkpt lat="43.48202" lon="5.974">
        <ele>335</ele>
        <time>2018-02-11T12:57:40Z</time>
      </trkpt>
      <trkpt lat="43.48191" lon="5.9739">
        <ele>334</ele>
        <time>2018-02-11T12:57:53Z</time>
      </trkpt>
      <trkpt lat="43.48184" lon="5.97386">
        <ele>333</ele>
        <time>2018-02-11T12:58:00Z</time>
      </trkpt>
      <trkpt lat="43.48177" lon="5.97382">
        <ele>332</ele>
        <time>2018-02-11T12:58:14Z</time>
      </trkpt>
      <trkpt lat="43.48166" lon="5.97372">
        <ele>331</ele>
        <time>2018-02-11T12:58:24Z</time>
      </trkpt>
      <trkpt lat="43.4816" lon="5.97365">
        <ele>331</ele>
        <time>2018-02-11T12:58:33Z</time>
      </trkpt>
      <trkpt lat="43.48127" lon="5.97349">
        <ele>329</ele>
        <time>2018-02-11T12:59:06Z</time>
      </trkpt>
      <trkpt lat="43.4811" lon="5.97335">
        <ele>328</ele>
        <time>2018-02-11T12:59:27Z</time>
      </trkpt>
      <trkpt lat="43.48086" lon="5.97317">
        <ele>329</ele>
        <time>2018-02-11T12:59:48Z</time>
      </trkpt>
      <trkpt lat="43.48054" lon="5.97281">
        <ele>328</ele>
        <time>2018-02-11T13:00:27Z</time>
      </trkpt>
      <trkpt lat="43.48028" lon="5.97249">
        <ele>327</ele>
        <time>2018-02-11T13:00:58Z</time>
      </trkpt>
      <trkpt lat="43.48002" lon="5.9721">
        <ele>329</ele>
        <time>2018-02-11T13:01:32Z</time>
      </trkpt>
      <trkpt lat="43.47983" lon="5.97179">
        <ele>329</ele>
        <time>2018-02-11T13:01:59Z</time>
      </trkpt>
      <trkpt lat="43.47972" lon="5.97157">
        <ele>328</ele>
        <time>2018-02-11T13:02:19Z</time>
      </trkpt>
      <trkpt lat="43.47965" lon="5.97142">
        <ele>327</ele>
        <time>2018-02-11T13:02:33Z</time>
      </trkpt>
      <trkpt lat="43.47962" lon="5.97134">
        <ele>327</ele>
        <time>2018-02-11T13:02:40Z</time>
      </trkpt>
      <trkpt lat="43.4796" lon="5.97128">
        <ele>327</ele>
        <time>2018-02-11T13:02:44Z</time>
      </trkpt>
      <trkpt lat="43.47951" lon="5.9711">
        <ele>326</ele>
        <time>2018-02-11T13:02:58Z</time>
      </trkpt>
      <trkpt lat="43.47946" lon="5.97104">
        <ele>326</ele>
        <time>2018-02-11T13:03:03Z</time>
      </trkpt>
      <trkpt lat="43.47942" lon="5.97096">
        <ele>325</ele>
        <time>2018-02-11T13:03:08Z</time>
      </trkpt>
      <trkpt lat="43.47938" lon="5.97089">
        <ele>325</ele>
        <time>2018-02-11T13:03:16Z</time>
      </trkpt>
      <trkpt lat="43.47933" lon="5.97083">
        <ele>326</ele>
        <time>2018-02-11T13:03:22Z</time>
      </trkpt>
      <trkpt lat="43.47929" lon="5.97077">
        <ele>326</ele>
        <time>2018-02-11T13:03:27Z</time>
      </trkpt>
      <trkpt lat="43.47921" lon="5.97062">
        <ele>326</ele>
        <time>2018-02-11T13:03:38Z</time>
      </trkpt>
      <trkpt lat="43.47913" lon="5.9705">
        <ele>325</ele>
        <time>2018-02-11T13:03:51Z</time>
      </trkpt>
      <trkpt lat="43.47906" lon="5.97045">
        <ele>325</ele>
        <time>2018-02-11T13:03:59Z</time>
      </trkpt>
      <trkpt lat="43.479" lon="5.97039">
        <ele>324</ele>
        <time>2018-02-11T13:04:06Z</time>
      </trkpt>
      <trkpt lat="43.47893" lon="5.97032">
        <ele>324</ele>
        <time>2018-02-11T13:04:15Z</time>
      </trkpt>
      <trkpt lat="43.47889" lon="5.97025">
        <ele>324</ele>
        <time>2018-02-11T13:04:20Z</time>
      </trkpt>
      <trkpt lat="43.47882" lon="5.97007">
        <ele>323</ele>
        <time>2018-02-11T13:04:44Z</time>
      </trkpt>
      <trkpt lat="43.47872" lon="5.96996">
        <ele>323</ele>
        <time>2018-02-11T13:04:56Z</time>
      </trkpt>
      <trkpt lat="43.4787" lon="5.96988">
        <ele>323</ele>
        <time>2018-02-11T13:05:01Z</time>
      </trkpt>
      <trkpt lat="43.47866" lon="5.96981">
        <ele>323</ele>
        <time>2018-02-11T13:05:09Z</time>
      </trkpt>
      <trkpt lat="43.47861" lon="5.96974">
        <ele>323</ele>
        <time>2018-02-11T13:05:15Z</time>
      </trkpt>
      <trkpt lat="43.47854" lon="5.96972">
        <ele>323</ele>
        <time>2018-02-11T13:05:21Z</time>
      </trkpt>
      <trkpt lat="43.47849" lon="5.96968">
        <ele>323</ele>
        <time>2018-02-11T13:05:26Z</time>
      </trkpt>
      <trkpt lat="43.47844" lon="5.96966">
        <ele>323</ele>
        <time>2018-02-11T13:05:32Z</time>
      </trkpt>
      <trkpt lat="43.47839" lon="5.96962">
        <ele>323</ele>
        <time>2018-02-11T13:05:38Z</time>
      </trkpt>
      <trkpt lat="43.47834" lon="5.96954">
        <ele>323</ele>
        <time>2018-02-11T13:05:43Z</time>
      </trkpt>
      <trkpt lat="43.4783" lon="5.96934">
        <ele>321</ele>
        <time>2018-02-11T13:06:03Z</time>
      </trkpt>
      <trkpt lat="43.4783" lon="5.96915">
        <ele>320</ele>
        <time>2018-02-11T13:06:11Z</time>
      </trkpt>
      <trkpt lat="43.47829" lon="5.96907">
        <ele>320</ele>
        <time>2018-02-11T13:06:16Z</time>
      </trkpt>
      <trkpt lat="43.47827" lon="5.96892">
        <ele>319</ele>
        <time>2018-02-11T13:06:26Z</time>
      </trkpt>
      <trkpt lat="43.47822" lon="5.96887">
        <ele>319</ele>
        <time>2018-02-11T13:06:36Z</time>
      </trkpt>
      <trkpt lat="43.47813" lon="5.96899">
        <ele>317</ele>
        <time>2018-02-11T13:06:58Z</time>
      </trkpt>
      <trkpt lat="43.47808" lon="5.969">
        <ele>317</ele>
        <time>2018-02-11T13:07:05Z</time>
      </trkpt>
      <trkpt lat="43.47802" lon="5.969">
        <ele>317</ele>
        <time>2018-02-11T13:07:11Z</time>
      </trkpt>
      <trkpt lat="43.47796" lon="5.96902">
        <ele>317</ele>
        <time>2018-02-11T13:07:15Z</time>
      </trkpt>
      <trkpt lat="43.4779" lon="5.96904">
        <ele>316</ele>
        <time>2018-02-11T13:07:23Z</time>
      </trkpt>
      <trkpt lat="43.47784" lon="5.96909">
        <ele>316</ele>
        <time>2018-02-11T13:07:28Z</time>
      </trkpt>
      <trkpt lat="43.47778" lon="5.96912">
        <ele>316</ele>
        <time>2018-02-11T13:07:35Z</time>
      </trkpt>
      <trkpt lat="43.47773" lon="5.96916">
        <ele>316</ele>
        <time>2018-02-11T13:07:45Z</time>
      </trkpt>
      <trkpt lat="43.47759" lon="5.96927">
        <ele>317</ele>
        <time>2018-02-11T13:08:07Z</time>
      </trkpt>
      <trkpt lat="43.47744" lon="5.96936">
        <ele>318</ele>
        <time>2018-02-11T13:08:22Z</time>
      </trkpt>
      <trkpt lat="43.47738" lon="5.96939">
        <ele>318</ele>
        <time>2018-02-11T13:08:29Z</time>
      </trkpt>
      <trkpt lat="43.47733" lon="5.96943">
        <ele>319</ele>
        <time>2018-02-11T13:08:35Z</time>
      </trkpt>
      <trkpt lat="43.47716" lon="5.9695">
        <ele>321</ele>
        <time>2018-02-11T13:08:52Z</time>
      </trkpt>
      <trkpt lat="43.4771" lon="5.96951">
        <ele>322</ele>
        <time>2018-02-11T13:09:01Z</time>
      </trkpt>
      <trkpt lat="43.47704" lon="5.96951">
        <ele>323</ele>
        <time>2018-02-11T13:09:11Z</time>
      </trkpt>
      <trkpt lat="43.47698" lon="5.96951">
        <ele>323</ele>
        <time>2018-02-11T13:09:18Z</time>
      </trkpt>
      <trkpt lat="43.47693" lon="5.96953">
        <ele>323</ele>
        <time>2018-02-11T13:09:22Z</time>
      </trkpt>
      <trkpt lat="43.47682" lon="5.96956">
        <ele>324</ele>
        <time>2018-02-11T13:09:35Z</time>
      </trkpt>
      <trkpt lat="43.47676" lon="5.96958">
        <ele>324</ele>
        <time>2018-02-11T13:09:41Z</time>
      </trkpt>
      <trkpt lat="43.47671" lon="5.96964">
        <ele>325</ele>
        <time>2018-02-11T13:09:50Z</time>
      </trkpt>
      <trkpt lat="43.47665" lon="5.96965">
        <ele>325</ele>
        <time>2018-02-11T13:09:57Z</time>
      </trkpt>
      <trkpt lat="43.47659" lon="5.96965">
        <ele>325</ele>
        <time>2018-02-11T13:10:01Z</time>
      </trkpt>
      <trkpt lat="43.47653" lon="5.96968">
        <ele>325</ele>
        <time>2018-02-11T13:10:09Z</time>
      </trkpt>
      <trkpt lat="43.47647" lon="5.96972">
        <ele>326</ele>
        <time>2018-02-11T13:10:19Z</time>
      </trkpt>
      <trkpt lat="43.47641" lon="5.96977">
        <ele>326</ele>
        <time>2018-02-11T13:10:24Z</time>
      </trkpt>
      <trkpt lat="43.47635" lon="5.96978">
        <ele>327</ele>
        <time>2018-02-11T13:10:31Z</time>
      </trkpt>
      <trkpt lat="43.4763" lon="5.96979">
        <ele>328</ele>
        <time>2018-02-11T13:10:38Z</time>
      </trkpt>
      <trkpt lat="43.47608" lon="5.96988">
        <ele>330</ele>
        <time>2018-02-11T13:11:01Z</time>
      </trkpt>
      <trkpt lat="43.47598" lon="5.96986">
        <ele>330</ele>
        <time>2018-02-11T13:11:14Z</time>
      </trkpt>
      <trkpt lat="43.47591" lon="5.96984">
        <ele>330</ele>
        <time>2018-02-11T13:11:22Z</time>
      </trkpt>
      <trkpt lat="43.47584" lon="5.96986">
        <ele>330</ele>
        <time>2018-02-11T13:11:32Z</time>
      </trkpt>
      <trkpt lat="43.47576" lon="5.96988">
        <ele>331</ele>
        <time>2018-02-11T13:11:36Z</time>
      </trkpt>
      <trkpt lat="43.47569" lon="5.9699">
        <ele>331</ele>
        <time>2018-02-11T13:11:41Z</time>
      </trkpt>
      <trkpt lat="43.47568" lon="5.96998">
        <ele>332</ele>
        <time>2018-02-11T13:12:01Z</time>
      </trkpt>
      <trkpt lat="43.47564" lon="5.97006">
        <ele>332</ele>
        <time>2018-02-11T13:12:14Z</time>
      </trkpt>
      <trkpt lat="43.47558" lon="5.97007">
        <ele>332</ele>
        <time>2018-02-11T13:12:20Z</time>
      </trkpt>
      <trkpt lat="43.47553" lon="5.97004">
        <ele>332</ele>
        <time>2018-02-11T13:12:26Z</time>
      </trkpt>
      <trkpt lat="43.47548" lon="5.97">
        <ele>332</ele>
        <time>2018-02-11T13:12:31Z</time>
      </trkpt>
      <trkpt lat="43.47537" lon="5.96991">
        <ele>332</ele>
        <time>2018-02-11T13:12:41Z</time>
      </trkpt>
      <trkpt lat="43.47532" lon="5.96987">
        <ele>331</ele>
        <time>2018-02-11T13:12:46Z</time>
      </trkpt>
      <trkpt lat="43.47526" lon="5.96987">
        <ele>332</ele>
        <time>2018-02-11T13:12:53Z</time>
      </trkpt>
      <trkpt lat="43.4752" lon="5.96988">
        <ele>332</ele>
        <time>2018-02-11T13:12:57Z</time>
      </trkpt>
      <trkpt lat="43.47516" lon="5.96998">
        <ele>332</ele>
        <time>2018-02-11T13:13:10Z</time>
      </trkpt>
      <trkpt lat="43.47517" lon="5.97009">
        <ele>332</ele>
        <time>2018-02-11T13:13:17Z</time>
      </trkpt>
      <trkpt lat="43.47511" lon="5.97012">
        <ele>331</ele>
        <time>2018-02-11T13:13:26Z</time>
      </trkpt>
      <trkpt lat="43.47505" lon="5.97011">
        <ele>330</ele>
        <time>2018-02-11T13:13:34Z</time>
      </trkpt>
      <trkpt lat="43.47498" lon="5.97014">
        <ele>329</ele>
        <time>2018-02-11T13:13:42Z</time>
      </trkpt>
      <trkpt lat="43.47491" lon="5.97014">
        <ele>328</ele>
        <time>2018-02-11T13:13:52Z</time>
      </trkpt>
      <trkpt lat="43.47481" lon="5.97016">
        <ele>328</ele>
        <time>2018-02-11T13:14:00Z</time>
      </trkpt>
      <trkpt lat="43.47473" lon="5.97017">
        <ele>328</ele>
        <time>2018-02-11T13:14:05Z</time>
      </trkpt>
      <trkpt lat="43.47462" lon="5.97005">
        <ele>329</ele>
        <time>2018-02-11T13:14:18Z</time>
      </trkpt>
      <trkpt lat="43.47457" lon="5.96996">
        <ele>329</ele>
        <time>2018-02-11T13:14:23Z</time>
      </trkpt>
      <trkpt lat="43.47454" lon="5.9699">
        <ele>330</ele>
        <time>2018-02-11T13:14:30Z</time>
      </trkpt>
      <trkpt lat="43.47453" lon="5.96982">
        <ele>330</ele>
        <time>2018-02-11T13:14:38Z</time>
      </trkpt>
      <trkpt lat="43.47451" lon="5.96975">
        <ele>329</ele>
        <time>2018-02-11T13:14:46Z</time>
      </trkpt>
      <trkpt lat="43.4745" lon="5.96965">
        <ele>328</ele>
        <time>2018-02-11T13:14:57Z</time>
      </trkpt>
      <trkpt lat="43.47438" lon="5.96956">
        <ele>326</ele>
        <time>2018-02-11T13:15:11Z</time>
      </trkpt>
      <trkpt lat="43.47431" lon="5.96952">
        <ele>323</ele>
        <time>2018-02-11T13:15:42Z</time>
      </trkpt>
      <trkpt lat="43.47425" lon="5.9695">
        <ele>322</ele>
        <time>2018-02-11T13:15:46Z</time>
      </trkpt>
      <trkpt lat="43.47418" lon="5.96945">
        <ele>322</ele>
        <time>2018-02-11T13:15:50Z</time>
      </trkpt>
      <trkpt lat="43.474" lon="5.96938">
        <ele>322</ele>
        <time>2018-02-11T13:16:08Z</time>
      </trkpt>
      <trkpt lat="43.47395" lon="5.96931">
        <ele>322</ele>
        <time>2018-02-11T13:16:13Z</time>
      </trkpt>
      <trkpt lat="43.47376" lon="5.96921">
        <ele>323</ele>
        <time>2018-02-11T13:16:26Z</time>
      </trkpt>
      <trkpt lat="43.4737" lon="5.96916">
        <ele>324</ele>
        <time>2018-02-11T13:16:32Z</time>
      </trkpt>
      <trkpt lat="43.47363" lon="5.96908">
        <ele>325</ele>
        <time>2018-02-11T13:16:37Z</time>
      </trkpt>
      <trkpt lat="43.47358" lon="5.96906">
        <ele>325</ele>
        <time>2018-02-11T13:16:41Z</time>
      </trkpt>
      <trkpt lat="43.47353" lon="5.96903">
        <ele>326</ele>
        <time>2018-02-11T13:16:46Z</time>
      </trkpt>
      <trkpt lat="43.47349" lon="5.96897">
        <ele>327</ele>
        <time>2018-02-11T13:17:14Z</time>
      </trkpt>
      <trkpt lat="43.47348" lon="5.96878">
        <ele>328</ele>
        <time>2018-02-11T13:17:42Z</time>
      </trkpt>
      <trkpt lat="43.47348" lon="5.96867">
        <ele>327</ele>
        <time>2018-02-11T13:17:56Z</time>
      </trkpt>
      <trkpt lat="43.47347" lon="5.96856">
        <ele>326</ele>
        <time>2018-02-11T13:18:02Z</time>
      </trkpt>
      <trkpt lat="43.47344" lon="5.96846">
        <ele>325</ele>
        <time>2018-02-11T13:18:18Z</time>
      </trkpt>
      <trkpt lat="43.47346" lon="5.96837">
        <ele>326</ele>
        <time>2018-02-11T13:18:24Z</time>
      </trkpt>
      <trkpt lat="43.47354" lon="5.96831">
        <ele>326</ele>
        <time>2018-02-11T13:18:28Z</time>
      </trkpt>
      <trkpt lat="43.4737" lon="5.96782">
        <ele>323</ele>
        <time>2018-02-11T13:19:04Z</time>
      </trkpt>
      <trkpt lat="43.47375" lon="5.96769">
        <ele>323</ele>
        <time>2018-02-11T13:19:10Z</time>
      </trkpt>
      <trkpt lat="43.47375" lon="5.9676">
        <ele>323</ele>
        <time>2018-02-11T13:19:15Z</time>
      </trkpt>
      <trkpt lat="43.47372" lon="5.96749">
        <ele>323</ele>
        <time>2018-02-11T13:19:23Z</time>
      </trkpt>
      <trkpt lat="43.47373" lon="5.96736">
        <ele>322</ele>
        <time>2018-02-11T13:19:32Z</time>
      </trkpt>
      <trkpt lat="43.47374" lon="5.96728">
        <ele>321</ele>
        <time>2018-02-11T13:19:39Z</time>
      </trkpt>
      <trkpt lat="43.47376" lon="5.9672">
        <ele>320</ele>
        <time>2018-02-11T13:19:45Z</time>
      </trkpt>
      <trkpt lat="43.47376" lon="5.96709">
        <ele>319</ele>
        <time>2018-02-11T13:19:51Z</time>
      </trkpt>
      <trkpt lat="43.47378" lon="5.96702">
        <ele>318</ele>
        <time>2018-02-11T13:19:56Z</time>
      </trkpt>
      <trkpt lat="43.47378" lon="5.96668">
        <ele>317</ele>
        <time>2018-02-11T13:20:20Z</time>
      </trkpt>
      <trkpt lat="43.47376" lon="5.96656">
        <ele>317</ele>
        <time>2018-02-11T13:20:28Z</time>
      </trkpt>
      <trkpt lat="43.47377" lon="5.96629">
        <ele>316</ele>
        <time>2018-02-11T13:20:48Z</time>
      </trkpt>
      <trkpt lat="43.47379" lon="5.96622">
        <ele>316</ele>
        <time>2018-02-11T13:20:52Z</time>
      </trkpt>
      <trkpt lat="43.47376" lon="5.96608">
        <ele>315</ele>
        <time>2018-02-11T13:21:03Z</time>
      </trkpt>
      <trkpt lat="43.47379" lon="5.96598">
        <ele>314</ele>
        <time>2018-02-11T13:21:09Z</time>
      </trkpt>
      <trkpt lat="43.47381" lon="5.9659">
        <ele>314</ele>
        <time>2018-02-11T13:21:16Z</time>
      </trkpt>
      <trkpt lat="43.47382" lon="5.96583">
        <ele>313</ele>
        <time>2018-02-11T13:21:22Z</time>
      </trkpt>
      <trkpt lat="43.47386" lon="5.96561">
        <ele>311</ele>
        <time>2018-02-11T13:21:40Z</time>
      </trkpt>
      <trkpt lat="43.47384" lon="5.96552">
        <ele>312</ele>
        <time>2018-02-11T13:21:50Z</time>
      </trkpt>
      <trkpt lat="43.47378" lon="5.9655">
        <ele>311</ele>
        <time>2018-02-11T13:21:59Z</time>
      </trkpt>
      <trkpt lat="43.47359" lon="5.96546">
        <ele>310</ele>
        <time>2018-02-11T13:22:22Z</time>
      </trkpt>
      <trkpt lat="43.47353" lon="5.96543">
        <ele>310</ele>
        <time>2018-02-11T13:22:30Z</time>
      </trkpt>
      <trkpt lat="43.47347" lon="5.96541">
        <ele>310</ele>
        <time>2018-02-11T13:22:36Z</time>
      </trkpt>
      <trkpt lat="43.47335" lon="5.96537">
        <ele>309</ele>
        <time>2018-02-11T13:22:48Z</time>
      </trkpt>
      <trkpt lat="43.47324" lon="5.96533">
        <ele>309</ele>
        <time>2018-02-11T13:22:57Z</time>
      </trkpt>
      <trkpt lat="43.47313" lon="5.9653">
        <ele>309</ele>
        <time>2018-02-11T13:23:06Z</time>
      </trkpt>
      <trkpt lat="43.47302" lon="5.96516">
        <ele>308</ele>
        <time>2018-02-11T13:23:26Z</time>
      </trkpt>
      <trkpt lat="43.47304" lon="5.96508">
        <ele>307</ele>
        <time>2018-02-11T13:23:46Z</time>
      </trkpt>
      <trkpt lat="43.47304" lon="5.96499">
        <ele>305</ele>
        <time>2018-02-11T13:23:52Z</time>
      </trkpt>
      <trkpt lat="43.47305" lon="5.96476">
        <ele>302</ele>
        <time>2018-02-11T13:24:06Z</time>
      </trkpt>
      <trkpt lat="43.47297" lon="5.96463">
        <ele>300</ele>
        <time>2018-02-11T13:24:15Z</time>
      </trkpt>
      <trkpt lat="43.47282" lon="5.96451">
        <ele>300</ele>
        <time>2018-02-11T13:24:25Z</time>
      </trkpt>
      <trkpt lat="43.47278" lon="5.96446">
        <ele>300</ele>
        <time>2018-02-11T13:24:33Z</time>
      </trkpt>
      <trkpt lat="43.47251" lon="5.96424">
        <ele>297</ele>
        <time>2018-02-11T13:25:06Z</time>
      </trkpt>
      <trkpt lat="43.47228" lon="5.96406">
        <ele>293</ele>
        <time>2018-02-11T13:25:31Z</time>
      </trkpt>
      <trkpt lat="43.47223" lon="5.964">
        <ele>293</ele>
        <time>2018-02-11T13:25:36Z</time>
      </trkpt>
      <trkpt lat="43.47217" lon="5.96396">
        <ele>293</ele>
        <time>2018-02-11T13:25:41Z</time>
      </trkpt>
      <trkpt lat="43.47212" lon="5.96391">
        <ele>293</ele>
        <time>2018-02-11T13:25:48Z</time>
      </trkpt>
      <trkpt lat="43.47206" lon="5.96392">
        <ele>293</ele>
        <time>2018-02-11T13:25:54Z</time>
      </trkpt>
      <trkpt lat="43.472" lon="5.96394">
        <ele>294</ele>
        <time>2018-02-11T13:26:03Z</time>
      </trkpt>
      <trkpt lat="43.47197" lon="5.96401">
        <ele>296</ele>
        <time>2018-02-11T13:26:14Z</time>
      </trkpt>
      <trkpt lat="43.472" lon="5.9644">
        <ele>295</ele>
        <time>2018-02-11T13:26:46Z</time>
      </trkpt>
      <trkpt lat="43.47196" lon="5.96465">
        <ele>294</ele>
        <time>2018-02-11T13:26:56Z</time>
      </trkpt>
      <trkpt lat="43.47194" lon="5.96472">
        <ele>294</ele>
        <time>2018-02-11T13:27:04Z</time>
      </trkpt>
      <trkpt lat="43.47191" lon="5.96482">
        <ele>294</ele>
        <time>2018-02-11T13:27:12Z</time>
      </trkpt>
      <trkpt lat="43.47186" lon="5.96489">
        <ele>294</ele>
        <time>2018-02-11T13:27:20Z</time>
      </trkpt>
      <trkpt lat="43.47184" lon="5.96496">
        <ele>295</ele>
        <time>2018-02-11T13:27:29Z</time>
      </trkpt>
      <trkpt lat="43.47186" lon="5.96506">
        <ele>296</ele>
        <time>2018-02-11T13:27:47Z</time>
      </trkpt>
      <trkpt lat="43.47191" lon="5.96511">
        <ele>297</ele>
        <time>2018-02-11T13:27:52Z</time>
      </trkpt>
      <trkpt lat="43.472" lon="5.96523">
        <ele>300</ele>
        <time>2018-02-11T13:28:05Z</time>
      </trkpt>
      <trkpt lat="43.47207" lon="5.9654">
        <ele>303</ele>
        <time>2018-02-11T13:28:16Z</time>
      </trkpt>
      <trkpt lat="43.4721" lon="5.9655">
        <ele>303</ele>
        <time>2018-02-11T13:28:23Z</time>
      </trkpt>
      <trkpt lat="43.47211" lon="5.96557">
        <ele>305</ele>
        <time>2018-02-11T13:28:30Z</time>
      </trkpt>
      <trkpt lat="43.47213" lon="5.96567">
        <ele>305</ele>
        <time>2018-02-11T13:28:35Z</time>
      </trkpt>
      <trkpt lat="43.47215" lon="5.96575">
        <ele>306</ele>
        <time>2018-02-11T13:28:42Z</time>
      </trkpt>
      <trkpt lat="43.47213" lon="5.96583">
        <ele>306</ele>
        <time>2018-02-11T13:28:46Z</time>
      </trkpt>
      <trkpt lat="43.47211" lon="5.96591">
        <ele>308</ele>
        <time>2018-02-11T13:28:52Z</time>
      </trkpt>
      <trkpt lat="43.47208" lon="5.966">
        <ele>308</ele>
        <time>2018-02-11T13:28:59Z</time>
      </trkpt>
      <trkpt lat="43.47201" lon="5.96616">
        <ele>310</ele>
        <time>2018-02-11T13:29:10Z</time>
      </trkpt>
      <trkpt lat="43.47194" lon="5.96634">
        <ele>311</ele>
        <time>2018-02-11T13:29:33Z</time>
      </trkpt>
      <trkpt lat="43.47192" lon="5.96643">
        <ele>311</ele>
        <time>2018-02-11T13:29:44Z</time>
      </trkpt>
      <trkpt lat="43.47189" lon="5.9665">
        <ele>311</ele>
        <time>2018-02-11T13:29:49Z</time>
      </trkpt>
      <trkpt lat="43.47187" lon="5.96659">
        <ele>313</ele>
        <time>2018-02-11T13:29:56Z</time>
      </trkpt>
      <trkpt lat="43.47178" lon="5.96673">
        <ele>313</ele>
        <time>2018-02-11T13:30:08Z</time>
      </trkpt>
      <trkpt lat="43.47168" lon="5.96687">
        <ele>314</ele>
        <time>2018-02-11T13:30:29Z</time>
      </trkpt>
      <trkpt lat="43.47151" lon="5.96704">
        <ele>317</ele>
        <time>2018-02-11T13:31:05Z</time>
      </trkpt>
      <trkpt lat="43.47137" lon="5.96701">
        <ele>316</ele>
        <time>2018-02-11T13:31:24Z</time>
      </trkpt>
      <trkpt lat="43.47133" lon="5.96709">
        <ele>316</ele>
        <time>2018-02-11T13:31:43Z</time>
      </trkpt>
      <trkpt lat="43.47125" lon="5.96709">
        <ele>316</ele>
        <time>2018-02-11T13:31:53Z</time>
      </trkpt>
      <trkpt lat="43.47121" lon="5.96716">
        <ele>316</ele>
        <time>2018-02-11T13:31:58Z</time>
      </trkpt>
      <trkpt lat="43.47101" lon="5.96753">
        <ele>317</ele>
        <time>2018-02-11T13:32:28Z</time>
      </trkpt>
      <trkpt lat="43.47095" lon="5.96757">
        <ele>317</ele>
        <time>2018-02-11T13:32:35Z</time>
      </trkpt>
      <trkpt lat="43.4709" lon="5.96763">
        <ele>317</ele>
        <time>2018-02-11T13:32:42Z</time>
      </trkpt>
      <trkpt lat="43.47084" lon="5.96778">
        <ele>318</ele>
        <time>2018-02-11T13:32:54Z</time>
      </trkpt>
      <trkpt lat="43.47081" lon="5.96787">
        <ele>318</ele>
        <time>2018-02-11T13:33:04Z</time>
      </trkpt>
      <trkpt lat="43.47078" lon="5.96796">
        <ele>319</ele>
        <time>2018-02-11T13:33:18Z</time>
      </trkpt>
      <trkpt lat="43.47072" lon="5.96803">
        <ele>318</ele>
        <time>2018-02-11T13:33:24Z</time>
      </trkpt>
      <trkpt lat="43.47067" lon="5.96807">
        <ele>318</ele>
        <time>2018-02-11T13:33:29Z</time>
      </trkpt>
      <trkpt lat="43.47064" lon="5.96813">
        <ele>319</ele>
        <time>2018-02-11T13:33:34Z</time>
      </trkpt>
      <trkpt lat="43.47058" lon="5.96819">
        <ele>319</ele>
        <time>2018-02-11T13:33:40Z</time>
      </trkpt>
      <trkpt lat="43.47024" lon="5.96827">
        <ele>321</ele>
        <time>2018-02-11T13:34:08Z</time>
      </trkpt>
      <trkpt lat="43.47017" lon="5.96828">
        <ele>321</ele>
        <time>2018-02-11T13:34:16Z</time>
      </trkpt>
      <trkpt lat="43.4701" lon="5.96835">
        <ele>322</ele>
        <time>2018-02-11T13:34:21Z</time>
      </trkpt>
      <trkpt lat="43.47008" lon="5.96844">
        <ele>323</ele>
        <time>2018-02-11T13:34:29Z</time>
      </trkpt>
      <trkpt lat="43.47015" lon="5.9685">
        <ele>323</ele>
        <time>2018-02-11T13:34:39Z</time>
      </trkpt>
      <trkpt lat="43.47021" lon="5.96857">
        <ele>322</ele>
        <time>2018-02-11T13:34:48Z</time>
      </trkpt>
      <trkpt lat="43.47027" lon="5.96876">
        <ele>320</ele>
        <time>2018-02-11T13:35:04Z</time>
      </trkpt>
      <trkpt lat="43.47025" lon="5.96891">
        <ele>320</ele>
        <time>2018-02-11T13:35:13Z</time>
      </trkpt>
      <trkpt lat="43.47023" lon="5.96899">
        <ele>321</ele>
        <time>2018-02-11T13:35:18Z</time>
      </trkpt>
      <trkpt lat="43.47021" lon="5.96908">
        <ele>322</ele>
        <time>2018-02-11T13:35:21Z</time>
      </trkpt>
      <trkpt lat="43.47019" lon="5.96919">
        <ele>323</ele>
        <time>2018-02-11T13:35:25Z</time>
      </trkpt>
      <trkpt lat="43.47016" lon="5.96936">
        <ele>325</ele>
        <time>2018-02-11T13:35:40Z</time>
      </trkpt>
      <trkpt lat="43.47012" lon="5.96944">
        <ele>326</ele>
        <time>2018-02-11T13:35:51Z</time>
      </trkpt>
      <trkpt lat="43.47009" lon="5.9695">
        <ele>329</ele>
        <time>2018-02-11T13:35:58Z</time>
      </trkpt>
      <trkpt lat="43.47004" lon="5.96959">
        <ele>331</ele>
        <time>2018-02-11T13:36:11Z</time>
      </trkpt>
      <trkpt lat="43.46999" lon="5.96963">
        <ele>332</ele>
        <time>2018-02-11T13:36:17Z</time>
      </trkpt>
      <trkpt lat="43.46992" lon="5.96967">
        <ele>332</ele>
        <time>2018-02-11T13:36:30Z</time>
      </trkpt>
      <trkpt lat="43.46987" lon="5.96974">
        <ele>331</ele>
        <time>2018-02-11T13:37:00Z</time>
      </trkpt>
      <trkpt lat="43.4698" lon="5.96971">
        <ele>331</ele>
        <time>2018-02-11T13:37:13Z</time>
      </trkpt>
      <trkpt lat="43.46975" lon="5.96968">
        <ele>331</ele>
        <time>2018-02-11T13:37:19Z</time>
      </trkpt>
      <trkpt lat="43.46968" lon="5.96973">
        <ele>332</ele>
        <time>2018-02-11T13:37:31Z</time>
      </trkpt>
      <trkpt lat="43.46945" lon="5.96974">
        <ele>336</ele>
        <time>2018-02-11T13:38:02Z</time>
      </trkpt>
      <trkpt lat="43.46939" lon="5.96971">
        <ele>337</ele>
        <time>2018-02-11T13:38:06Z</time>
      </trkpt>
      <trkpt lat="43.46932" lon="5.96967">
        <ele>338</ele>
        <time>2018-02-11T13:38:11Z</time>
      </trkpt>
      <trkpt lat="43.46927" lon="5.96965">
        <ele>338</ele>
        <time>2018-02-11T13:38:16Z</time>
      </trkpt>
      <trkpt lat="43.46921" lon="5.96963">
        <ele>339</ele>
        <time>2018-02-11T13:38:22Z</time>
      </trkpt>
      <trkpt lat="43.46915" lon="5.96962">
        <ele>339</ele>
        <time>2018-02-11T13:38:29Z</time>
      </trkpt>
      <trkpt lat="43.469" lon="5.96961">
        <ele>339</ele>
        <time>2018-02-11T13:38:43Z</time>
      </trkpt>
      <trkpt lat="43.46892" lon="5.96962">
        <ele>338</ele>
        <time>2018-02-11T13:38:48Z</time>
      </trkpt>
      <trkpt lat="43.46874" lon="5.96947">
        <ele>339</ele>
        <time>2018-02-11T13:39:12Z</time>
      </trkpt>
      <trkpt lat="43.46873" lon="5.9694">
        <ele>340</ele>
        <time>2018-02-11T13:39:22Z</time>
      </trkpt>
      <trkpt lat="43.46867" lon="5.96937">
        <ele>340</ele>
        <time>2018-02-11T13:39:28Z</time>
      </trkpt>
      <trkpt lat="43.46859" lon="5.96935">
        <ele>341</ele>
        <time>2018-02-11T13:39:33Z</time>
      </trkpt>
      <trkpt lat="43.46851" lon="5.96933">
        <ele>341</ele>
        <time>2018-02-11T13:39:39Z</time>
      </trkpt>
      <trkpt lat="43.46845" lon="5.96929">
        <ele>341</ele>
        <time>2018-02-11T13:39:48Z</time>
      </trkpt>
      <trkpt lat="43.46825" lon="5.96925">
        <ele>345</ele>
        <time>2018-02-11T13:40:18Z</time>
      </trkpt>
      <trkpt lat="43.46818" lon="5.96925">
        <ele>345</ele>
        <time>2018-02-11T13:40:28Z</time>
      </trkpt>
      <trkpt lat="43.46798" lon="5.96915">
        <ele>348</ele>
        <time>2018-02-11T13:40:48Z</time>
      </trkpt>
      <trkpt lat="43.4679" lon="5.96912">
        <ele>349</ele>
        <time>2018-02-11T13:40:56Z</time>
      </trkpt>
      <trkpt lat="43.46786" lon="5.96917">
        <ele>350</ele>
        <time>2018-02-11T13:41:09Z</time>
      </trkpt>
      <trkpt lat="43.4678" lon="5.96916">
        <ele>351</ele>
        <time>2018-02-11T13:41:31Z</time>
      </trkpt>
      <trkpt lat="43.46776" lon="5.96908">
        <ele>351</ele>
        <time>2018-02-11T13:41:41Z</time>
      </trkpt>
      <trkpt lat="43.46769" lon="5.96903">
        <ele>350</ele>
        <time>2018-02-11T13:41:59Z</time>
      </trkpt>
      <trkpt lat="43.46765" lon="5.96895">
        <ele>350</ele>
        <time>2018-02-11T13:42:26Z</time>
      </trkpt>
      <trkpt lat="43.46755" lon="5.96859">
        <ele>357</ele>
        <time>2018-02-11T13:43:06Z</time>
      </trkpt>
      <trkpt lat="43.46758" lon="5.9685">
        <ele>360</ele>
        <time>2018-02-11T13:43:21Z</time>
      </trkpt>
      <trkpt lat="43.46755" lon="5.9684">
        <ele>362</ele>
        <time>2018-02-11T13:43:35Z</time>
      </trkpt>
      <trkpt lat="43.46749" lon="5.96834">
        <ele>363</ele>
        <time>2018-02-11T13:43:51Z</time>
      </trkpt>
      <trkpt lat="43.46743" lon="5.96834">
        <ele>363</ele>
        <time>2018-02-11T13:43:59Z</time>
      </trkpt>
      <trkpt lat="43.46738" lon="5.96831">
        <ele>363</ele>
        <time>2018-02-11T13:44:04Z</time>
      </trkpt>
      <trkpt lat="43.46733" lon="5.96828">
        <ele>362</ele>
        <time>2018-02-11T13:44:11Z</time>
      </trkpt>
      <trkpt lat="43.46728" lon="5.96827">
        <ele>362</ele>
        <time>2018-02-11T13:44:19Z</time>
      </trkpt>
      <trkpt lat="43.46722" lon="5.9682">
        <ele>361</ele>
        <time>2018-02-11T13:44:36Z</time>
      </trkpt>
      <trkpt lat="43.46718" lon="5.96815">
        <ele>361</ele>
        <time>2018-02-11T13:44:46Z</time>
      </trkpt>
      <trkpt lat="43.46715" lon="5.96805">
        <ele>361</ele>
        <time>2018-02-11T13:44:56Z</time>
      </trkpt>
      <trkpt lat="43.46712" lon="5.96795">
        <ele>363</ele>
        <time>2018-02-11T13:45:00Z</time>
      </trkpt>
      <trkpt lat="43.46709" lon="5.96788">
        <ele>364</ele>
        <time>2018-02-11T13:45:09Z</time>
      </trkpt>
      <trkpt lat="43.46702" lon="5.96768">
        <ele>365</ele>
        <time>2018-02-11T13:45:50Z</time>
      </trkpt>
      <trkpt lat="43.46699" lon="5.96751">
        <ele>366</ele>
        <time>2018-02-11T13:46:16Z</time>
      </trkpt>
      <trkpt lat="43.46697" lon="5.96731">
        <ele>364</ele>
        <time>2018-02-11T13:46:41Z</time>
      </trkpt>
      <trkpt lat="43.4669" lon="5.96695">
        <ele>362</ele>
        <time>2018-02-11T13:47:07Z</time>
      </trkpt>
      <trkpt lat="43.46687" lon="5.9668">
        <ele>362</ele>
        <time>2018-02-11T13:47:09Z</time>
      </trkpt>
      <trkpt lat="43.46679" lon="5.96673">
        <ele>361</ele>
        <time>2018-02-11T13:47:15Z</time>
      </trkpt>
      <trkpt lat="43.46673" lon="5.96669">
        <ele>361</ele>
        <time>2018-02-11T13:47:18Z</time>
      </trkpt>
      <trkpt lat="43.4667" lon="5.96663">
        <ele>361</ele>
        <time>2018-02-11T13:47:22Z</time>
      </trkpt>
      <trkpt lat="43.46663" lon="5.96658">
        <ele>359</ele>
        <time>2018-02-11T13:47:35Z</time>
      </trkpt>
      <trkpt lat="43.46659" lon="5.96652">
        <ele>357</ele>
        <time>2018-02-11T13:47:42Z</time>
      </trkpt>
      <trkpt lat="43.46647" lon="5.96634">
        <ele>354</ele>
        <time>2018-02-11T13:48:04Z</time>
      </trkpt>
      <trkpt lat="43.46644" lon="5.96627">
        <ele>353</ele>
        <time>2018-02-11T13:48:18Z</time>
      </trkpt>
      <trkpt lat="43.46639" lon="5.96621">
        <ele>351</ele>
        <time>2018-02-11T13:48:25Z</time>
      </trkpt>
      <trkpt lat="43.46635" lon="5.96613">
        <ele>351</ele>
        <time>2018-02-11T13:48:31Z</time>
      </trkpt>
      <trkpt lat="43.46626" lon="5.96588">
        <ele>349</ele>
        <time>2018-02-11T13:48:57Z</time>
      </trkpt>
      <trkpt lat="43.46621" lon="5.96583">
        <ele>348</ele>
        <time>2018-02-11T13:49:03Z</time>
      </trkpt>
      <trkpt lat="43.46612" lon="5.96573">
        <ele>345</ele>
        <time>2018-02-11T13:49:18Z</time>
      </trkpt>
      <trkpt lat="43.46609" lon="5.96551">
        <ele>342</ele>
        <time>2018-02-11T13:49:46Z</time>
      </trkpt>
      <trkpt lat="43.46612" lon="5.96544">
        <ele>341</ele>
        <time>2018-02-11T13:49:58Z</time>
      </trkpt>
      <trkpt lat="43.46615" lon="5.96539">
        <ele>333</ele>
        <time>2018-02-11T13:50:33Z</time>
      </trkpt>
      <trkpt lat="43.46621" lon="5.96534">
        <ele>332</ele>
        <time>2018-02-11T13:50:41Z</time>
      </trkpt>
      <trkpt lat="43.46626" lon="5.96526">
        <ele>328</ele>
        <time>2018-02-11T13:50:53Z</time>
      </trkpt>
      <trkpt lat="43.46625" lon="5.96514">
        <ele>327</ele>
        <time>2018-02-11T13:50:59Z</time>
      </trkpt>
      <trkpt lat="43.46628" lon="5.96486">
        <ele>322</ele>
        <time>2018-02-11T13:51:13Z</time>
      </trkpt>
      <trkpt lat="43.46634" lon="5.96481">
        <ele>321</ele>
        <time>2018-02-11T13:51:23Z</time>
      </trkpt>
      <trkpt lat="43.46641" lon="5.96477">
        <ele>320</ele>
        <time>2018-02-11T13:51:31Z</time>
      </trkpt>
      <trkpt lat="43.46647" lon="5.96474">
        <ele>319</ele>
        <time>2018-02-11T13:51:37Z</time>
      </trkpt>
      <trkpt lat="43.46653" lon="5.9647">
        <ele>318</ele>
        <time>2018-02-11T13:51:45Z</time>
      </trkpt>
      <trkpt lat="43.46655" lon="5.9646">
        <ele>318</ele>
        <time>2018-02-11T13:51:50Z</time>
      </trkpt>
      <trkpt lat="43.46661" lon="5.96451">
        <ele>316</ele>
        <time>2018-02-11T13:51:55Z</time>
      </trkpt>
      <trkpt lat="43.46665" lon="5.96446">
        <ele>315</ele>
        <time>2018-02-11T13:52:01Z</time>
      </trkpt>
      <trkpt lat="43.46671" lon="5.96437">
        <ele>314</ele>
        <time>2018-02-11T13:52:11Z</time>
      </trkpt>
      <trkpt lat="43.46678" lon="5.96428">
        <ele>313</ele>
        <time>2018-02-11T13:52:21Z</time>
      </trkpt>
      <trkpt lat="43.46681" lon="5.96419">
        <ele>313</ele>
        <time>2018-02-11T13:52:23Z</time>
      </trkpt>
      <trkpt lat="43.46692" lon="5.96395">
        <ele>315</ele>
        <time>2018-02-11T13:52:36Z</time>
      </trkpt>
      <trkpt lat="43.46692" lon="5.96387">
        <ele>315</ele>
        <time>2018-02-11T13:52:43Z</time>
      </trkpt>
      <trkpt lat="43.46698" lon="5.9637">
        <ele>315</ele>
        <time>2018-02-11T13:52:57Z</time>
      </trkpt>
      <trkpt lat="43.46699" lon="5.96362">
        <ele>314</ele>
        <time>2018-02-11T13:53:06Z</time>
      </trkpt>
      <trkpt lat="43.46699" lon="5.96355">
        <ele>313</ele>
        <time>2018-02-11T13:53:13Z</time>
      </trkpt>
      <trkpt lat="43.46701" lon="5.96347">
        <ele>313</ele>
        <time>2018-02-11T13:53:20Z</time>
      </trkpt>
      <trkpt lat="43.46702" lon="5.9634">
        <ele>312</ele>
        <time>2018-02-11T13:53:28Z</time>
      </trkpt>
      <trkpt lat="43.46703" lon="5.96331">
        <ele>311</ele>
        <time>2018-02-11T13:53:33Z</time>
      </trkpt>
      <trkpt lat="43.46697" lon="5.96317">
        <ele>309</ele>
        <time>2018-02-11T13:53:45Z</time>
      </trkpt>
      <trkpt lat="43.46691" lon="5.96314">
        <ele>307</ele>
        <time>2018-02-11T13:53:53Z</time>
      </trkpt>
      <trkpt lat="43.46682" lon="5.96301">
        <ele>304</ele>
        <time>2018-02-11T13:54:06Z</time>
      </trkpt>
      <trkpt lat="43.46677" lon="5.96296">
        <ele>303</ele>
        <time>2018-02-11T13:54:11Z</time>
      </trkpt>
      <trkpt lat="43.46673" lon="5.96292">
        <ele>303</ele>
        <time>2018-02-11T13:54:16Z</time>
      </trkpt>
      <trkpt lat="43.46667" lon="5.96289">
        <ele>302</ele>
        <time>2018-02-11T13:54:23Z</time>
      </trkpt>
      <trkpt lat="43.46668" lon="5.96279">
        <ele>301</ele>
        <time>2018-02-11T13:54:28Z</time>
      </trkpt>
      <trkpt lat="43.46673" lon="5.96274">
        <ele>301</ele>
        <time>2018-02-11T13:54:36Z</time>
      </trkpt>
      <trkpt lat="43.46688" lon="5.96258">
        <ele>298</ele>
        <time>2018-02-11T13:54:51Z</time>
      </trkpt>
      <trkpt lat="43.46692" lon="5.9625">
        <ele>298</ele>
        <time>2018-02-11T13:54:58Z</time>
      </trkpt>
      <trkpt lat="43.46699" lon="5.96233">
        <ele>298</ele>
        <time>2018-02-11T13:55:12Z</time>
      </trkpt>
      <trkpt lat="43.46703" lon="5.96225">
        <ele>298</ele>
        <time>2018-02-11T13:55:19Z</time>
      </trkpt>
      <trkpt lat="43.46708" lon="5.96222">
        <ele>298</ele>
        <time>2018-02-11T13:55:32Z</time>
      </trkpt>
      <trkpt lat="43.46712" lon="5.96225">
        <ele>295</ele>
        <time>2018-02-11T13:56:44Z</time>
      </trkpt>
      <trkpt lat="43.46712" lon="5.96224">
        <ele>294</ele>
        <time>2018-02-11T13:58:12Z</time>
      </trkpt>
      <trkpt lat="43.46712" lon="5.96218">
        <ele>294</ele>
        <time>2018-02-11T13:58:26Z</time>
      </trkpt>
      <trkpt lat="43.46712" lon="5.96212">
        <ele>296</ele>
        <time>2018-02-11T13:59:44Z</time>
      </trkpt>
      <trkpt lat="43.46717" lon="5.96214">
        <ele>296</ele>
        <time>2018-02-11T13:59:58Z</time>
      </trkpt>
      <trkpt lat="43.46715" lon="5.96212">
        <ele>296</ele>
        <time>2018-02-11T14:00:41Z</time>
      </trkpt>
      <trkpt lat="43.46723" lon="5.962">
        <ele>297</ele>
        <time>2018-02-11T14:00:48Z</time>
      </trkpt>
      <trkpt lat="43.46728" lon="5.96195">
        <ele>297</ele>
        <time>2018-02-11T14:00:53Z</time>
      </trkpt>
      <trkpt lat="43.46732" lon="5.96194">
        <ele>297</ele>
        <time>2018-02-11T14:00:56Z</time>
      </trkpt>
      <trkpt lat="43.46744" lon="5.96181">
        <ele>297</ele>
        <time>2018-02-11T14:01:07Z</time>
      </trkpt>
      <trkpt lat="43.46773" lon="5.9615">
        <ele>297</ele>
        <time>2018-02-11T14:01:36Z</time>
      </trkpt>
      <trkpt lat="43.46777" lon="5.96148">
        <ele>297</ele>
        <time>2018-02-11T14:01:38Z</time>
      </trkpt>
      <trkpt lat="43.46781" lon="5.96144">
        <ele>298</ele>
        <time>2018-02-11T14:01:43Z</time>
      </trkpt>
      <trkpt lat="43.46787" lon="5.96141">
        <ele>298</ele>
        <time>2018-02-11T14:01:49Z</time>
      </trkpt>
      <trkpt lat="43.46792" lon="5.96137">
        <ele>298</ele>
        <time>2018-02-11T14:01:52Z</time>
      </trkpt>
      <trkpt lat="43.46796" lon="5.96135">
        <ele>299</ele>
        <time>2018-02-11T14:01:56Z</time>
      </trkpt>
      <trkpt lat="43.46808" lon="5.96128">
        <ele>299</ele>
        <time>2018-02-11T14:02:06Z</time>
      </trkpt>
      <trkpt lat="43.46838" lon="5.9611">
        <ele>299</ele>
        <time>2018-02-11T14:02:35Z</time>
      </trkpt>
      <trkpt lat="43.46842" lon="5.96104">
        <ele>300</ele>
        <time>2018-02-11T14:02:54Z</time>
      </trkpt>
      <trkpt lat="43.46847" lon="5.961">
        <ele>300</ele>
        <time>2018-02-11T14:03:01Z</time>
      </trkpt>
      <trkpt lat="43.46854" lon="5.96097">
        <ele>300</ele>
        <time>2018-02-11T14:03:08Z</time>
      </trkpt>
      <trkpt lat="43.46878" lon="5.96069">
        <ele>301</ele>
        <time>2018-02-11T14:03:40Z</time>
      </trkpt>
      <trkpt lat="43.46881" lon="5.96076">
        <ele>304</ele>
        <time>2018-02-11T14:03:53Z</time>
      </trkpt>
      <trkpt lat="43.46878" lon="5.96083">
        <ele>306</ele>
        <time>2018-02-11T14:04:03Z</time>
      </trkpt>
      <trkpt lat="43.46875" lon="5.96089">
        <ele>306</ele>
        <time>2018-02-11T14:04:07Z</time>
      </trkpt>
      <trkpt lat="43.46876" lon="5.96097">
        <ele>308</ele>
        <time>2018-02-11T14:04:14Z</time>
      </trkpt>
      <trkpt lat="43.46879" lon="5.96105">
        <ele>308</ele>
        <time>2018-02-11T14:04:20Z</time>
      </trkpt>
      <trkpt lat="43.46884" lon="5.9611">
        <ele>309</ele>
        <time>2018-02-11T14:04:23Z</time>
      </trkpt>
      <trkpt lat="43.46891" lon="5.9611">
        <ele>309</ele>
        <time>2018-02-11T14:04:31Z</time>
      </trkpt>
      <trkpt lat="43.46897" lon="5.96104">
        <ele>310</ele>
        <time>2018-02-11T14:04:41Z</time>
      </trkpt>
      <trkpt lat="43.469" lon="5.96098">
        <ele>310</ele>
        <time>2018-02-11T14:04:50Z</time>
      </trkpt>
      <trkpt lat="43.46907" lon="5.96096">
        <ele>312</ele>
        <time>2018-02-11T14:04:58Z</time>
      </trkpt>
      <trkpt lat="43.46912" lon="5.96098">
        <ele>312</ele>
        <time>2018-02-11T14:05:01Z</time>
      </trkpt>
      <trkpt lat="43.46916" lon="5.96103">
        <ele>313</ele>
        <time>2018-02-11T14:05:06Z</time>
      </trkpt>
      <trkpt lat="43.46917" lon="5.96111">
        <ele>314</ele>
        <time>2018-02-11T14:05:13Z</time>
      </trkpt>
      <trkpt lat="43.46926" lon="5.96124">
        <ele>316</ele>
        <time>2018-02-11T14:05:26Z</time>
      </trkpt>
      <trkpt lat="43.46932" lon="5.96127">
        <ele>316</ele>
        <time>2018-02-11T14:05:31Z</time>
      </trkpt>
      <trkpt lat="43.46939" lon="5.96129">
        <ele>317</ele>
        <time>2018-02-11T14:05:37Z</time>
      </trkpt>
      <trkpt lat="43.46944" lon="5.96132">
        <ele>318</ele>
        <time>2018-02-11T14:05:52Z</time>
      </trkpt>
      <trkpt lat="43.4695" lon="5.96131">
        <ele>319</ele>
        <time>2018-02-11T14:06:33Z</time>
      </trkpt>
      <trkpt lat="43.4695" lon="5.96132">
        <ele>316</ele>
        <time>2018-02-11T14:06:59Z</time>
      </trkpt>
      <trkpt lat="43.46954" lon="5.9614">
        <ele>315</ele>
        <time>2018-02-11T14:07:49Z</time>
      </trkpt>
      <trkpt lat="43.46958" lon="5.96147">
        <ele>313</ele>
        <time>2018-02-11T14:08:02Z</time>
      </trkpt>
      <trkpt lat="43.46955" lon="5.96153">
        <ele>313</ele>
        <time>2018-02-11T14:08:10Z</time>
      </trkpt>
      <trkpt lat="43.46948" lon="5.96148">
        <ele>314</ele>
        <time>2018-02-11T14:08:19Z</time>
      </trkpt>
      <trkpt lat="43.46945" lon="5.96142">
        <ele>315</ele>
        <time>2018-02-11T14:08:26Z</time>
      </trkpt>
      <trkpt lat="43.46942" lon="5.96134">
        <ele>315</ele>
        <time>2018-02-11T14:08:36Z</time>
      </trkpt>
      <trkpt lat="43.46939" lon="5.96128">
        <ele>315</ele>
        <time>2018-02-11T14:08:43Z</time>
      </trkpt>
      <trkpt lat="43.46938" lon="5.96123">
        <ele>315</ele>
        <time>2018-02-11T14:08:51Z</time>
      </trkpt>
      <trkpt lat="43.46934" lon="5.96128">
        <ele>316</ele>
        <time>2018-02-11T14:09:22Z</time>
      </trkpt>
      <trkpt lat="43.46933" lon="5.96124">
        <ele>317</ele>
        <time>2018-02-11T14:09:54Z</time>
      </trkpt>
      <trkpt lat="43.46928" lon="5.96123">
        <ele>317</ele>
        <time>2018-02-11T14:10:07Z</time>
      </trkpt>
      <trkpt lat="43.46922" lon="5.96126">
        <ele>316</ele>
        <time>2018-02-11T14:10:20Z</time>
      </trkpt>
      <trkpt lat="43.46918" lon="5.96123">
        <ele>316</ele>
        <time>2018-02-11T14:10:27Z</time>
      </trkpt>
      <trkpt lat="43.46912" lon="5.96124">
        <ele>317</ele>
        <time>2018-02-11T14:10:38Z</time>
      </trkpt>
      <trkpt lat="43.46909" lon="5.96131">
        <ele>318</ele>
        <time>2018-02-11T14:10:44Z</time>
      </trkpt>
      <trkpt lat="43.46906" lon="5.96138">
        <ele>318</ele>
        <time>2018-02-11T14:10:52Z</time>
      </trkpt>
      <trkpt lat="43.46901" lon="5.96139">
        <ele>318</ele>
        <time>2018-02-11T14:11:08Z</time>
      </trkpt>
      <trkpt lat="43.46895" lon="5.96135">
        <ele>318</ele>
        <time>2018-02-11T14:11:12Z</time>
      </trkpt>
      <trkpt lat="43.46889" lon="5.96121">
        <ele>317</ele>
        <time>2018-02-11T14:11:29Z</time>
      </trkpt>
      <trkpt lat="43.46885" lon="5.96109">
        <ele>316</ele>
        <time>2018-02-11T14:11:40Z</time>
      </trkpt>
      <trkpt lat="43.46879" lon="5.96109">
        <ele>317</ele>
        <time>2018-02-11T14:11:47Z</time>
      </trkpt>
      <trkpt lat="43.46878" lon="5.96098">
        <ele>318</ele>
        <time>2018-02-11T14:12:06Z</time>
      </trkpt>
      <trkpt lat="43.46879" lon="5.96089">
        <ele>318</ele>
        <time>2018-02-11T14:12:19Z</time>
      </trkpt>
      <trkpt lat="43.46875" lon="5.96081">
        <ele>317</ele>
        <time>2018-02-11T14:12:29Z</time>
      </trkpt>
      <trkpt lat="43.46872" lon="5.96062">
        <ele>313</ele>
        <time>2018-02-11T14:12:41Z</time>
      </trkpt>
      <trkpt lat="43.46871" lon="5.96054">
        <ele>312</ele>
        <time>2018-02-11T14:12:44Z</time>
      </trkpt>
      <trkpt lat="43.46866" lon="5.9606">
        <ele>312</ele>
        <time>2018-02-11T14:12:53Z</time>
      </trkpt>
      <trkpt lat="43.46863" lon="5.96068">
        <ele>312</ele>
        <time>2018-02-11T14:12:58Z</time>
      </trkpt>
      <trkpt lat="43.46861" lon="5.96075">
        <ele>312</ele>
        <time>2018-02-11T14:13:04Z</time>
      </trkpt>
      <trkpt lat="43.46851" lon="5.96083">
        <ele>312</ele>
        <time>2018-02-11T14:13:18Z</time>
      </trkpt>
      <trkpt lat="43.46848" lon="5.9609">
        <ele>312</ele>
        <time>2018-02-11T14:13:28Z</time>
      </trkpt>
      <trkpt lat="43.46834" lon="5.96102">
        <ele>311</ele>
        <time>2018-02-11T14:13:41Z</time>
      </trkpt>
      <trkpt lat="43.46827" lon="5.96106">
        <ele>309</ele>
        <time>2018-02-11T14:13:45Z</time>
      </trkpt>
      <trkpt lat="43.46821" lon="5.9611">
        <ele>309</ele>
        <time>2018-02-11T14:13:48Z</time>
      </trkpt>
      <trkpt lat="43.46815" lon="5.96116">
        <ele>308</ele>
        <time>2018-02-11T14:14:07Z</time>
      </trkpt>
      <trkpt lat="43.46807" lon="5.96115">
        <ele>307</ele>
        <time>2018-02-11T14:14:12Z</time>
      </trkpt>
      <trkpt lat="43.46778" lon="5.96136">
        <ele>306</ele>
        <time>2018-02-11T14:15:14Z</time>
      </trkpt>
      <trkpt lat="43.46771" lon="5.96138">
        <ele>306</ele>
        <time>2018-02-11T14:15:22Z</time>
      </trkpt>
      <trkpt lat="43.46765" lon="5.96141">
        <ele>306</ele>
        <time>2018-02-11T14:15:27Z</time>
      </trkpt>
      <trkpt lat="43.46744" lon="5.96156">
        <ele>306</ele>
        <time>2018-02-11T14:15:50Z</time>
      </trkpt>
      <trkpt lat="43.46738" lon="5.96163">
        <ele>306</ele>
        <time>2018-02-11T14:15:58Z</time>
      </trkpt>
      <trkpt lat="43.46734" lon="5.96171">
        <ele>306</ele>
        <time>2018-02-11T14:16:04Z</time>
      </trkpt>
      <trkpt lat="43.46734" lon="5.96179">
        <ele>306</ele>
        <time>2018-02-11T14:16:08Z</time>
      </trkpt>
      <trkpt lat="43.46734" lon="5.96194">
        <ele>306</ele>
        <time>2018-02-11T14:16:17Z</time>
      </trkpt>
      <trkpt lat="43.46728" lon="5.96195">
        <ele>306</ele>
        <time>2018-02-11T14:16:21Z</time>
      </trkpt>
      <trkpt lat="43.46721" lon="5.96194">
        <ele>305</ele>
        <time>2018-02-11T14:16:25Z</time>
      </trkpt>
    </trkseg>
  </trk>
</gpx>